<?xml version="1.0" encoding="UTF-8" standalone="no" ?>
<gpx xmlns="http://www.topografix.com/GPX/1/1" xmlns:xsi="http://www.w3.org/2001/XMLSchema-instance" xsi:schemaLocation="http://www.topografix.com/GPX/1/1 http://www.topografix.com/GPX/1/1/gpx.xsd" version="1.1" creator="VisuGPX - https://www.visugpx.com">
  <metadata>
    <name>WE Jus de pomme 2014</name>
    <desc><![CDATA[Les bords de sèvre. 
Parcours préparer par Franck et Crevet.]]></desc>
  </metadata>
  <trk>
    <name><![CDATA[Tracé 9 nov. 2014 10:09:20]]></name>
    <trkseg>
      <trkpt lat="47.00083" lon="-1.07395">
        <ele>72</ele>
        <time>2014-11-09T10:09:20Z</time>
      </trkpt>
      <trkpt lat="47.00092" lon="-1.07396">
        <ele>72</ele>
        <time>2014-11-09T10:10:19Z</time>
      </trkpt>
      <trkpt lat="47.00099" lon="-1.07398">
        <ele>71</ele>
        <time>2014-11-09T10:10:26Z</time>
      </trkpt>
      <trkpt lat="47.00091" lon="-1.07394">
        <ele>75</ele>
        <time>2014-11-09T10:11:21Z</time>
      </trkpt>
      <trkpt lat="47.001" lon="-1.07393">
        <ele>73</ele>
        <time>2014-11-09T10:14:19Z</time>
      </trkpt>
      <trkpt lat="47.00106" lon="-1.07384">
        <ele>72</ele>
        <time>2014-11-09T10:15:11Z</time>
      </trkpt>
      <trkpt lat="47.001" lon="-1.07393">
        <ele>70</ele>
        <time>2014-11-09T10:15:29Z</time>
      </trkpt>
      <trkpt lat="47.00107" lon="-1.07402">
        <ele>73</ele>
        <time>2014-11-09T10:17:47Z</time>
      </trkpt>
      <trkpt lat="47.00102" lon="-1.07392">
        <ele>74</ele>
        <time>2014-11-09T10:18:18Z</time>
      </trkpt>
      <trkpt lat="47.001" lon="-1.0738">
        <ele>74</ele>
        <time>2014-11-09T10:18:25Z</time>
      </trkpt>
      <trkpt lat="47.00093" lon="-1.07371">
        <ele>75</ele>
        <time>2014-11-09T10:19:22Z</time>
      </trkpt>
      <trkpt lat="47.00101" lon="-1.07377">
        <ele>76</ele>
        <time>2014-11-09T10:19:29Z</time>
      </trkpt>
      <trkpt lat="47.00109" lon="-1.07374">
        <ele>76</ele>
        <time>2014-11-09T10:20:04Z</time>
      </trkpt>
      <trkpt lat="47.00113" lon="-1.07363">
        <ele>76</ele>
        <time>2014-11-09T10:20:09Z</time>
      </trkpt>
      <trkpt lat="47.00118" lon="-1.07353">
        <ele>76</ele>
        <time>2014-11-09T10:20:14Z</time>
      </trkpt>
      <trkpt lat="47.00123" lon="-1.07342">
        <ele>77</ele>
        <time>2014-11-09T10:20:19Z</time>
      </trkpt>
      <trkpt lat="47.00117" lon="-1.07332">
        <ele>76</ele>
        <time>2014-11-09T10:20:28Z</time>
      </trkpt>
      <trkpt lat="47.00107" lon="-1.07338">
        <ele>74</ele>
        <time>2014-11-09T10:20:32Z</time>
      </trkpt>
      <trkpt lat="47.00094" lon="-1.07346">
        <ele>74</ele>
        <time>2014-11-09T10:20:37Z</time>
      </trkpt>
      <trkpt lat="47.00083" lon="-1.07352">
        <ele>73</ele>
        <time>2014-11-09T10:20:41Z</time>
      </trkpt>
      <trkpt lat="47.00069" lon="-1.07361">
        <ele>72</ele>
        <time>2014-11-09T10:20:45Z</time>
      </trkpt>
      <trkpt lat="47.00055" lon="-1.07372">
        <ele>71</ele>
        <time>2014-11-09T10:20:49Z</time>
      </trkpt>
      <trkpt lat="47.00045" lon="-1.0738">
        <ele>70</ele>
        <time>2014-11-09T10:20:53Z</time>
      </trkpt>
      <trkpt lat="47.00037" lon="-1.07386">
        <ele>69</ele>
        <time>2014-11-09T10:20:57Z</time>
      </trkpt>
      <trkpt lat="47.00026" lon="-1.07393">
        <ele>68</ele>
        <time>2014-11-09T10:21:02Z</time>
      </trkpt>
      <trkpt lat="47.00017" lon="-1.074">
        <ele>68</ele>
        <time>2014-11-09T10:21:06Z</time>
      </trkpt>
      <trkpt lat="47.00007" lon="-1.07408">
        <ele>66</ele>
        <time>2014-11-09T10:21:11Z</time>
      </trkpt>
      <trkpt lat="46.99994" lon="-1.07419">
        <ele>65</ele>
        <time>2014-11-09T10:21:15Z</time>
      </trkpt>
      <trkpt lat="46.99964" lon="-1.07433">
        <ele>62</ele>
        <time>2014-11-09T10:21:20Z</time>
      </trkpt>
      <trkpt lat="46.99936" lon="-1.07429">
        <ele>59</ele>
        <time>2014-11-09T10:21:24Z</time>
      </trkpt>
      <trkpt lat="46.99916" lon="-1.07423">
        <ele>60</ele>
        <time>2014-11-09T10:21:28Z</time>
      </trkpt>
      <trkpt lat="46.99905" lon="-1.07415">
        <ele>62</ele>
        <time>2014-11-09T10:21:32Z</time>
      </trkpt>
      <trkpt lat="46.99895" lon="-1.07405">
        <ele>64</ele>
        <time>2014-11-09T10:21:37Z</time>
      </trkpt>
      <trkpt lat="46.99886" lon="-1.07408">
        <ele>66</ele>
        <time>2014-11-09T10:22:27Z</time>
      </trkpt>
      <trkpt lat="46.99873" lon="-1.07422">
        <ele>67</ele>
        <time>2014-11-09T10:22:31Z</time>
      </trkpt>
      <trkpt lat="46.99853" lon="-1.07434">
        <ele>66</ele>
        <time>2014-11-09T10:22:35Z</time>
      </trkpt>
      <trkpt lat="46.99835" lon="-1.07448">
        <ele>64</ele>
        <time>2014-11-09T10:22:39Z</time>
      </trkpt>
      <trkpt lat="46.99813" lon="-1.0746">
        <ele>64</ele>
        <time>2014-11-09T10:22:43Z</time>
      </trkpt>
      <trkpt lat="46.99793" lon="-1.07489">
        <ele>66</ele>
        <time>2014-11-09T10:22:48Z</time>
      </trkpt>
      <trkpt lat="46.99795" lon="-1.07519">
        <ele>68</ele>
        <time>2014-11-09T10:22:52Z</time>
      </trkpt>
      <trkpt lat="46.99797" lon="-1.07541">
        <ele>70</ele>
        <time>2014-11-09T10:22:56Z</time>
      </trkpt>
      <trkpt lat="46.998" lon="-1.07564">
        <ele>73</ele>
        <time>2014-11-09T10:23:01Z</time>
      </trkpt>
      <trkpt lat="46.99801" lon="-1.07587">
        <ele>75</ele>
        <time>2014-11-09T10:23:06Z</time>
      </trkpt>
      <trkpt lat="46.99802" lon="-1.07607">
        <ele>77</ele>
        <time>2014-11-09T10:23:10Z</time>
      </trkpt>
      <trkpt lat="46.99804" lon="-1.07627">
        <ele>77</ele>
        <time>2014-11-09T10:23:14Z</time>
      </trkpt>
      <trkpt lat="46.99805" lon="-1.07653">
        <ele>79</ele>
        <time>2014-11-09T10:23:19Z</time>
      </trkpt>
      <trkpt lat="46.99806" lon="-1.07673">
        <ele>79</ele>
        <time>2014-11-09T10:23:23Z</time>
      </trkpt>
      <trkpt lat="46.99807" lon="-1.07693">
        <ele>79</ele>
        <time>2014-11-09T10:23:28Z</time>
      </trkpt>
      <trkpt lat="46.99808" lon="-1.07718">
        <ele>80</ele>
        <time>2014-11-09T10:23:32Z</time>
      </trkpt>
      <trkpt lat="46.99809" lon="-1.07737">
        <ele>81</ele>
        <time>2014-11-09T10:23:36Z</time>
      </trkpt>
      <trkpt lat="46.99811" lon="-1.07761">
        <ele>81</ele>
        <time>2014-11-09T10:23:41Z</time>
      </trkpt>
      <trkpt lat="46.99812" lon="-1.0778">
        <ele>81</ele>
        <time>2014-11-09T10:23:45Z</time>
      </trkpt>
      <trkpt lat="46.99814" lon="-1.07804">
        <ele>82</ele>
        <time>2014-11-09T10:23:50Z</time>
      </trkpt>
      <trkpt lat="46.99816" lon="-1.07824">
        <ele>83</ele>
        <time>2014-11-09T10:23:55Z</time>
      </trkpt>
      <trkpt lat="46.99817" lon="-1.0784">
        <ele>83</ele>
        <time>2014-11-09T10:24:00Z</time>
      </trkpt>
      <trkpt lat="46.99818" lon="-1.07853">
        <ele>84</ele>
        <time>2014-11-09T10:24:06Z</time>
      </trkpt>
      <trkpt lat="46.9982" lon="-1.07867">
        <ele>85</ele>
        <time>2014-11-09T10:24:11Z</time>
      </trkpt>
      <trkpt lat="46.99823" lon="-1.07885">
        <ele>85</ele>
        <time>2014-11-09T10:24:16Z</time>
      </trkpt>
      <trkpt lat="46.99824" lon="-1.07899">
        <ele>85</ele>
        <time>2014-11-09T10:24:20Z</time>
      </trkpt>
      <trkpt lat="46.99827" lon="-1.07916">
        <ele>85</ele>
        <time>2014-11-09T10:24:25Z</time>
      </trkpt>
      <trkpt lat="46.9983" lon="-1.0793">
        <ele>86</ele>
        <time>2014-11-09T10:24:29Z</time>
      </trkpt>
      <trkpt lat="46.99832" lon="-1.07947">
        <ele>87</ele>
        <time>2014-11-09T10:24:34Z</time>
      </trkpt>
      <trkpt lat="46.99834" lon="-1.07965">
        <ele>87</ele>
        <time>2014-11-09T10:24:39Z</time>
      </trkpt>
      <trkpt lat="46.99836" lon="-1.07984">
        <ele>88</ele>
        <time>2014-11-09T10:24:44Z</time>
      </trkpt>
      <trkpt lat="46.99837" lon="-1.08003">
        <ele>87</ele>
        <time>2014-11-09T10:24:49Z</time>
      </trkpt>
      <trkpt lat="46.99837" lon="-1.08018">
        <ele>88</ele>
        <time>2014-11-09T10:24:53Z</time>
      </trkpt>
      <trkpt lat="46.99836" lon="-1.08036">
        <ele>89</ele>
        <time>2014-11-09T10:24:58Z</time>
      </trkpt>
      <trkpt lat="46.99836" lon="-1.08051">
        <ele>90</ele>
        <time>2014-11-09T10:25:02Z</time>
      </trkpt>
      <trkpt lat="46.99836" lon="-1.0807">
        <ele>91</ele>
        <time>2014-11-09T10:25:07Z</time>
      </trkpt>
      <trkpt lat="46.99835" lon="-1.08085">
        <ele>91</ele>
        <time>2014-11-09T10:25:11Z</time>
      </trkpt>
      <trkpt lat="46.99836" lon="-1.08101">
        <ele>91</ele>
        <time>2014-11-09T10:25:15Z</time>
      </trkpt>
      <trkpt lat="46.99836" lon="-1.08122">
        <ele>91</ele>
        <time>2014-11-09T10:25:20Z</time>
      </trkpt>
      <trkpt lat="46.99837" lon="-1.08138">
        <ele>91</ele>
        <time>2014-11-09T10:25:24Z</time>
      </trkpt>
      <trkpt lat="46.99838" lon="-1.08157">
        <ele>91</ele>
        <time>2014-11-09T10:25:29Z</time>
      </trkpt>
      <trkpt lat="46.99839" lon="-1.08172">
        <ele>91</ele>
        <time>2014-11-09T10:25:33Z</time>
      </trkpt>
      <trkpt lat="46.9984" lon="-1.08187">
        <ele>92</ele>
        <time>2014-11-09T10:25:37Z</time>
      </trkpt>
      <trkpt lat="46.99842" lon="-1.08208">
        <ele>92</ele>
        <time>2014-11-09T10:25:42Z</time>
      </trkpt>
      <trkpt lat="46.99846" lon="-1.08226">
        <ele>92</ele>
        <time>2014-11-09T10:25:46Z</time>
      </trkpt>
      <trkpt lat="46.99851" lon="-1.08242">
        <ele>94</ele>
        <time>2014-11-09T10:25:50Z</time>
      </trkpt>
      <trkpt lat="46.99858" lon="-1.08258">
        <ele>95</ele>
        <time>2014-11-09T10:25:54Z</time>
      </trkpt>
      <trkpt lat="46.99866" lon="-1.08275">
        <ele>97</ele>
        <time>2014-11-09T10:25:59Z</time>
      </trkpt>
      <trkpt lat="46.99873" lon="-1.0829">
        <ele>98</ele>
        <time>2014-11-09T10:26:03Z</time>
      </trkpt>
      <trkpt lat="46.99881" lon="-1.08309">
        <ele>100</ele>
        <time>2014-11-09T10:26:08Z</time>
      </trkpt>
      <trkpt lat="46.99888" lon="-1.08324">
        <ele>101</ele>
        <time>2014-11-09T10:26:12Z</time>
      </trkpt>
      <trkpt lat="46.99895" lon="-1.0834">
        <ele>102</ele>
        <time>2014-11-09T10:26:16Z</time>
      </trkpt>
      <trkpt lat="46.99902" lon="-1.08356">
        <ele>103</ele>
        <time>2014-11-09T10:26:20Z</time>
      </trkpt>
      <trkpt lat="46.99911" lon="-1.08377">
        <ele>104</ele>
        <time>2014-11-09T10:26:25Z</time>
      </trkpt>
      <trkpt lat="46.99919" lon="-1.08393">
        <ele>104</ele>
        <time>2014-11-09T10:26:29Z</time>
      </trkpt>
      <trkpt lat="46.99926" lon="-1.0841">
        <ele>105</ele>
        <time>2014-11-09T10:26:33Z</time>
      </trkpt>
      <trkpt lat="46.99935" lon="-1.0843">
        <ele>106</ele>
        <time>2014-11-09T10:26:37Z</time>
      </trkpt>
      <trkpt lat="46.99946" lon="-1.08455">
        <ele>106</ele>
        <time>2014-11-09T10:26:42Z</time>
      </trkpt>
      <trkpt lat="46.99954" lon="-1.08475">
        <ele>106</ele>
        <time>2014-11-09T10:26:46Z</time>
      </trkpt>
      <trkpt lat="46.99963" lon="-1.08495">
        <ele>107</ele>
        <time>2014-11-09T10:26:50Z</time>
      </trkpt>
      <trkpt lat="46.99973" lon="-1.08521">
        <ele>107</ele>
        <time>2014-11-09T10:26:55Z</time>
      </trkpt>
      <trkpt lat="46.99984" lon="-1.08544">
        <ele>108</ele>
        <time>2014-11-09T10:27:00Z</time>
      </trkpt>
      <trkpt lat="46.99992" lon="-1.08563">
        <ele>109</ele>
        <time>2014-11-09T10:27:04Z</time>
      </trkpt>
      <trkpt lat="47.00003" lon="-1.08586">
        <ele>110</ele>
        <time>2014-11-09T10:27:09Z</time>
      </trkpt>
      <trkpt lat="47.00014" lon="-1.0861">
        <ele>111</ele>
        <time>2014-11-09T10:27:14Z</time>
      </trkpt>
      <trkpt lat="47.00025" lon="-1.08634">
        <ele>111</ele>
        <time>2014-11-09T10:27:19Z</time>
      </trkpt>
      <trkpt lat="47.00036" lon="-1.08656">
        <ele>111</ele>
        <time>2014-11-09T10:27:24Z</time>
      </trkpt>
      <trkpt lat="47.00045" lon="-1.08673">
        <ele>111</ele>
        <time>2014-11-09T10:27:29Z</time>
      </trkpt>
      <trkpt lat="47.00055" lon="-1.08693">
        <ele>111</ele>
        <time>2014-11-09T10:27:33Z</time>
      </trkpt>
      <trkpt lat="47.00065" lon="-1.08711">
        <ele>111</ele>
        <time>2014-11-09T10:27:38Z</time>
      </trkpt>
      <trkpt lat="47.00072" lon="-1.08724">
        <ele>111</ele>
        <time>2014-11-09T10:27:42Z</time>
      </trkpt>
      <trkpt lat="47.00078" lon="-1.08734">
        <ele>111</ele>
        <time>2014-11-09T10:27:46Z</time>
      </trkpt>
      <trkpt lat="47.0008" lon="-1.08744">
        <ele>111</ele>
        <time>2014-11-09T10:28:27Z</time>
      </trkpt>
      <trkpt lat="47.0009" lon="-1.08765">
        <ele>111</ele>
        <time>2014-11-09T10:28:32Z</time>
      </trkpt>
      <trkpt lat="47.001" lon="-1.08784">
        <ele>111</ele>
        <time>2014-11-09T10:28:36Z</time>
      </trkpt>
      <trkpt lat="47.0011" lon="-1.08802">
        <ele>111</ele>
        <time>2014-11-09T10:28:41Z</time>
      </trkpt>
      <trkpt lat="47.00124" lon="-1.08825">
        <ele>111</ele>
        <time>2014-11-09T10:28:45Z</time>
      </trkpt>
      <trkpt lat="47.00137" lon="-1.0885">
        <ele>111</ele>
        <time>2014-11-09T10:28:50Z</time>
      </trkpt>
      <trkpt lat="47.00149" lon="-1.0887">
        <ele>111</ele>
        <time>2014-11-09T10:28:54Z</time>
      </trkpt>
      <trkpt lat="47.00161" lon="-1.08889">
        <ele>110</ele>
        <time>2014-11-09T10:28:59Z</time>
      </trkpt>
      <trkpt lat="47.00176" lon="-1.08911">
        <ele>110</ele>
        <time>2014-11-09T10:29:03Z</time>
      </trkpt>
      <trkpt lat="47.00192" lon="-1.08932">
        <ele>110</ele>
        <time>2014-11-09T10:29:08Z</time>
      </trkpt>
      <trkpt lat="47.00204" lon="-1.08946">
        <ele>110</ele>
        <time>2014-11-09T10:29:12Z</time>
      </trkpt>
      <trkpt lat="47.0022" lon="-1.08964">
        <ele>111</ele>
        <time>2014-11-09T10:29:17Z</time>
      </trkpt>
      <trkpt lat="47.00233" lon="-1.08978">
        <ele>110</ele>
        <time>2014-11-09T10:29:21Z</time>
      </trkpt>
      <trkpt lat="47.00251" lon="-1.09002">
        <ele>110</ele>
        <time>2014-11-09T10:29:26Z</time>
      </trkpt>
      <trkpt lat="47.00266" lon="-1.09022">
        <ele>110</ele>
        <time>2014-11-09T10:29:30Z</time>
      </trkpt>
      <trkpt lat="47.0028" lon="-1.09039">
        <ele>110</ele>
        <time>2014-11-09T10:29:34Z</time>
      </trkpt>
      <trkpt lat="47.00294" lon="-1.0906">
        <ele>111</ele>
        <time>2014-11-09T10:29:39Z</time>
      </trkpt>
      <trkpt lat="47.00306" lon="-1.09078">
        <ele>111</ele>
        <time>2014-11-09T10:29:43Z</time>
      </trkpt>
      <trkpt lat="47.00323" lon="-1.091">
        <ele>111</ele>
        <time>2014-11-09T10:29:48Z</time>
      </trkpt>
      <trkpt lat="47.00337" lon="-1.09117">
        <ele>110</ele>
        <time>2014-11-09T10:29:52Z</time>
      </trkpt>
      <trkpt lat="47.00352" lon="-1.09136">
        <ele>110</ele>
        <time>2014-11-09T10:29:56Z</time>
      </trkpt>
      <trkpt lat="47.00368" lon="-1.09159">
        <ele>109</ele>
        <time>2014-11-09T10:30:00Z</time>
      </trkpt>
      <trkpt lat="47.00388" lon="-1.0919">
        <ele>109</ele>
        <time>2014-11-09T10:30:05Z</time>
      </trkpt>
      <trkpt lat="47.00401" lon="-1.09218">
        <ele>107</ele>
        <time>2014-11-09T10:30:09Z</time>
      </trkpt>
      <trkpt lat="47.00414" lon="-1.09246">
        <ele>107</ele>
        <time>2014-11-09T10:30:13Z</time>
      </trkpt>
      <trkpt lat="47.00428" lon="-1.09274">
        <ele>107</ele>
        <time>2014-11-09T10:30:17Z</time>
      </trkpt>
      <trkpt lat="47.00443" lon="-1.09307">
        <ele>106</ele>
        <time>2014-11-09T10:30:22Z</time>
      </trkpt>
      <trkpt lat="47.00454" lon="-1.09334">
        <ele>106</ele>
        <time>2014-11-09T10:30:26Z</time>
      </trkpt>
      <trkpt lat="47.00465" lon="-1.0936">
        <ele>107</ele>
        <time>2014-11-09T10:30:30Z</time>
      </trkpt>
      <trkpt lat="47.0048" lon="-1.09395">
        <ele>107</ele>
        <time>2014-11-09T10:30:35Z</time>
      </trkpt>
      <trkpt lat="47.0049" lon="-1.09421">
        <ele>108</ele>
        <time>2014-11-09T10:30:39Z</time>
      </trkpt>
      <trkpt lat="47.005" lon="-1.09447">
        <ele>107</ele>
        <time>2014-11-09T10:30:43Z</time>
      </trkpt>
      <trkpt lat="47.0051" lon="-1.09473">
        <ele>107</ele>
        <time>2014-11-09T10:30:48Z</time>
      </trkpt>
      <trkpt lat="47.00524" lon="-1.09505">
        <ele>108</ele>
        <time>2014-11-09T10:30:52Z</time>
      </trkpt>
      <trkpt lat="47.00535" lon="-1.09531">
        <ele>108</ele>
        <time>2014-11-09T10:30:56Z</time>
      </trkpt>
      <trkpt lat="47.00554" lon="-1.09563">
        <ele>107</ele>
        <time>2014-11-09T10:31:01Z</time>
      </trkpt>
      <trkpt lat="47.00571" lon="-1.09581">
        <ele>108</ele>
        <time>2014-11-09T10:31:05Z</time>
      </trkpt>
      <trkpt lat="47.0059" lon="-1.09593">
        <ele>108</ele>
        <time>2014-11-09T10:31:09Z</time>
      </trkpt>
      <trkpt lat="47.0061" lon="-1.09607">
        <ele>107</ele>
        <time>2014-11-09T10:31:13Z</time>
      </trkpt>
      <trkpt lat="47.00634" lon="-1.09623">
        <ele>110</ele>
        <time>2014-11-09T10:31:18Z</time>
      </trkpt>
      <trkpt lat="47.00651" lon="-1.09638">
        <ele>110</ele>
        <time>2014-11-09T10:31:22Z</time>
      </trkpt>
      <trkpt lat="47.00671" lon="-1.09659">
        <ele>110</ele>
        <time>2014-11-09T10:31:27Z</time>
      </trkpt>
      <trkpt lat="47.0069" lon="-1.09683">
        <ele>111</ele>
        <time>2014-11-09T10:31:32Z</time>
      </trkpt>
      <trkpt lat="47.00705" lon="-1.09704">
        <ele>110</ele>
        <time>2014-11-09T10:31:36Z</time>
      </trkpt>
      <trkpt lat="47.00719" lon="-1.09723">
        <ele>111</ele>
        <time>2014-11-09T10:31:41Z</time>
      </trkpt>
      <trkpt lat="47.00737" lon="-1.09747">
        <ele>111</ele>
        <time>2014-11-09T10:31:45Z</time>
      </trkpt>
      <trkpt lat="47.00753" lon="-1.09767">
        <ele>111</ele>
        <time>2014-11-09T10:31:49Z</time>
      </trkpt>
      <trkpt lat="47.0077" lon="-1.09792">
        <ele>111</ele>
        <time>2014-11-09T10:31:54Z</time>
      </trkpt>
      <trkpt lat="47.00784" lon="-1.09812">
        <ele>111</ele>
        <time>2014-11-09T10:31:58Z</time>
      </trkpt>
      <trkpt lat="47.00801" lon="-1.0984">
        <ele>111</ele>
        <time>2014-11-09T10:32:03Z</time>
      </trkpt>
      <trkpt lat="47.00813" lon="-1.09861">
        <ele>111</ele>
        <time>2014-11-09T10:32:07Z</time>
      </trkpt>
      <trkpt lat="47.0083" lon="-1.09861">
        <ele>110</ele>
        <time>2014-11-09T10:32:11Z</time>
      </trkpt>
      <trkpt lat="47.00844" lon="-1.09837">
        <ele>110</ele>
        <time>2014-11-09T10:32:15Z</time>
      </trkpt>
      <trkpt lat="47.0086" lon="-1.09815">
        <ele>110</ele>
        <time>2014-11-09T10:32:19Z</time>
      </trkpt>
      <trkpt lat="47.00885" lon="-1.09789">
        <ele>108</ele>
        <time>2014-11-09T10:32:24Z</time>
      </trkpt>
      <trkpt lat="47.00906" lon="-1.09762">
        <ele>107</ele>
        <time>2014-11-09T10:32:29Z</time>
      </trkpt>
      <trkpt lat="47.0092" lon="-1.09735">
        <ele>106</ele>
        <time>2014-11-09T10:32:33Z</time>
      </trkpt>
      <trkpt lat="47.00941" lon="-1.09701">
        <ele>105</ele>
        <time>2014-11-09T10:32:38Z</time>
      </trkpt>
      <trkpt lat="47.00961" lon="-1.09676">
        <ele>104</ele>
        <time>2014-11-09T10:32:42Z</time>
      </trkpt>
      <trkpt lat="47.00984" lon="-1.09646">
        <ele>102</ele>
        <time>2014-11-09T10:32:47Z</time>
      </trkpt>
      <trkpt lat="47.01002" lon="-1.0962">
        <ele>102</ele>
        <time>2014-11-09T10:32:51Z</time>
      </trkpt>
      <trkpt lat="47.01006" lon="-1.09574">
        <ele>102</ele>
        <time>2014-11-09T10:32:56Z</time>
      </trkpt>
      <trkpt lat="47.00991" lon="-1.09542">
        <ele>103</ele>
        <time>2014-11-09T10:33:00Z</time>
      </trkpt>
      <trkpt lat="47.00976" lon="-1.09514">
        <ele>104</ele>
        <time>2014-11-09T10:33:04Z</time>
      </trkpt>
      <trkpt lat="47.00958" lon="-1.09482">
        <ele>105</ele>
        <time>2014-11-09T10:33:09Z</time>
      </trkpt>
      <trkpt lat="47.00946" lon="-1.09456">
        <ele>106</ele>
        <time>2014-11-09T10:33:13Z</time>
      </trkpt>
      <trkpt lat="47.00934" lon="-1.09433">
        <ele>106</ele>
        <time>2014-11-09T10:33:17Z</time>
      </trkpt>
      <trkpt lat="47.00923" lon="-1.09409">
        <ele>106</ele>
        <time>2014-11-09T10:33:21Z</time>
      </trkpt>
      <trkpt lat="47.00912" lon="-1.09384">
        <ele>106</ele>
        <time>2014-11-09T10:33:25Z</time>
      </trkpt>
      <trkpt lat="47.00902" lon="-1.09349">
        <ele>105</ele>
        <time>2014-11-09T10:33:30Z</time>
      </trkpt>
      <trkpt lat="47.00905" lon="-1.09309">
        <ele>104</ele>
        <time>2014-11-09T10:33:35Z</time>
      </trkpt>
      <trkpt lat="47.00911" lon="-1.09276">
        <ele>104</ele>
        <time>2014-11-09T10:33:39Z</time>
      </trkpt>
      <trkpt lat="47.00921" lon="-1.09234">
        <ele>103</ele>
        <time>2014-11-09T10:33:44Z</time>
      </trkpt>
      <trkpt lat="47.00929" lon="-1.092">
        <ele>102</ele>
        <time>2014-11-09T10:33:48Z</time>
      </trkpt>
      <trkpt lat="47.00937" lon="-1.09166">
        <ele>102</ele>
        <time>2014-11-09T10:33:52Z</time>
      </trkpt>
      <trkpt lat="47.00945" lon="-1.09133">
        <ele>101</ele>
        <time>2014-11-09T10:33:56Z</time>
      </trkpt>
      <trkpt lat="47.00952" lon="-1.091">
        <ele>101</ele>
        <time>2014-11-09T10:34:00Z</time>
      </trkpt>
      <trkpt lat="47.0096" lon="-1.09066">
        <ele>101</ele>
        <time>2014-11-09T10:34:04Z</time>
      </trkpt>
      <trkpt lat="47.00968" lon="-1.09031">
        <ele>101</ele>
        <time>2014-11-09T10:34:08Z</time>
      </trkpt>
      <trkpt lat="47.00979" lon="-1.08988">
        <ele>101</ele>
        <time>2014-11-09T10:34:13Z</time>
      </trkpt>
      <trkpt lat="47.00988" lon="-1.08953">
        <ele>101</ele>
        <time>2014-11-09T10:34:17Z</time>
      </trkpt>
      <trkpt lat="47.00997" lon="-1.08918">
        <ele>100</ele>
        <time>2014-11-09T10:34:21Z</time>
      </trkpt>
      <trkpt lat="47.01009" lon="-1.08874">
        <ele>99</ele>
        <time>2014-11-09T10:34:26Z</time>
      </trkpt>
      <trkpt lat="47.01017" lon="-1.08843">
        <ele>97</ele>
        <time>2014-11-09T10:34:30Z</time>
      </trkpt>
      <trkpt lat="47.01024" lon="-1.08806">
        <ele>96</ele>
        <time>2014-11-09T10:34:34Z</time>
      </trkpt>
      <trkpt lat="47.01029" lon="-1.08765">
        <ele>95</ele>
        <time>2014-11-09T10:34:38Z</time>
      </trkpt>
      <trkpt lat="47.01034" lon="-1.08722">
        <ele>93</ele>
        <time>2014-11-09T10:34:42Z</time>
      </trkpt>
      <trkpt lat="47.01041" lon="-1.08665">
        <ele>91</ele>
        <time>2014-11-09T10:34:47Z</time>
      </trkpt>
      <trkpt lat="47.01047" lon="-1.0861">
        <ele>88</ele>
        <time>2014-11-09T10:34:52Z</time>
      </trkpt>
      <trkpt lat="47.01052" lon="-1.08577">
        <ele>87</ele>
        <time>2014-11-09T10:34:56Z</time>
      </trkpt>
      <trkpt lat="47.01053" lon="-1.08566">
        <ele>86</ele>
        <time>2014-11-09T10:35:00Z</time>
      </trkpt>
      <trkpt lat="47.01059" lon="-1.08525">
        <ele>82</ele>
        <time>2014-11-09T10:35:24Z</time>
      </trkpt>
      <trkpt lat="47.01067" lon="-1.08349">
        <ele>69</ele>
        <time>2014-11-09T10:35:24Z</time>
      </trkpt>
      <trkpt lat="47.01052" lon="-1.08286">
        <ele>63</ele>
        <time>2014-11-09T10:35:30Z</time>
      </trkpt>
      <trkpt lat="47.01019" lon="-1.08182">
        <ele>57</ele>
        <time>2014-11-09T10:35:54Z</time>
      </trkpt>
      <trkpt lat="47.01013" lon="-1.0817">
        <ele>57</ele>
        <time>2014-11-09T10:35:56Z</time>
      </trkpt>
      <trkpt lat="47.01008" lon="-1.08155">
        <ele>56</ele>
        <time>2014-11-09T10:36:00Z</time>
      </trkpt>
      <trkpt lat="47.0102" lon="-1.08095">
        <ele>60</ele>
        <time>2014-11-09T10:36:30Z</time>
      </trkpt>
      <trkpt lat="47.01019" lon="-1.08025">
        <ele>66</ele>
        <time>2014-11-09T10:36:34Z</time>
      </trkpt>
      <trkpt lat="47.01016" lon="-1.08009">
        <ele>68</ele>
        <time>2014-11-09T10:36:39Z</time>
      </trkpt>
      <trkpt lat="47.0101" lon="-1.07995">
        <ele>69</ele>
        <time>2014-11-09T10:36:44Z</time>
      </trkpt>
      <trkpt lat="47.01006" lon="-1.07983">
        <ele>71</ele>
        <time>2014-11-09T10:36:48Z</time>
      </trkpt>
      <trkpt lat="47.00999" lon="-1.07971">
        <ele>73</ele>
        <time>2014-11-09T10:36:53Z</time>
      </trkpt>
      <trkpt lat="47.00993" lon="-1.07961">
        <ele>74</ele>
        <time>2014-11-09T10:36:57Z</time>
      </trkpt>
      <trkpt lat="47.0099" lon="-1.07956">
        <ele>75</ele>
        <time>2014-11-09T10:36:59Z</time>
      </trkpt>
      <trkpt lat="47.00985" lon="-1.07946">
        <ele>77</ele>
        <time>2014-11-09T10:37:09Z</time>
      </trkpt>
      <trkpt lat="47.00982" lon="-1.07929">
        <ele>78</ele>
        <time>2014-11-09T10:37:10Z</time>
      </trkpt>
      <trkpt lat="47.00976" lon="-1.07905">
        <ele>80</ele>
        <time>2014-11-09T10:37:41Z</time>
      </trkpt>
      <trkpt lat="47.00959" lon="-1.07846">
        <ele>83</ele>
        <time>2014-11-09T10:37:41Z</time>
      </trkpt>
      <trkpt lat="47.00959" lon="-1.07843">
        <ele>83</ele>
        <time>2014-11-09T10:37:58Z</time>
      </trkpt>
      <trkpt lat="47.00939" lon="-1.07776">
        <ele>86</ele>
        <time>2014-11-09T10:38:00Z</time>
      </trkpt>
      <trkpt lat="47.00928" lon="-1.07742">
        <ele>87</ele>
        <time>2014-11-09T10:38:21Z</time>
      </trkpt>
      <trkpt lat="47.00899" lon="-1.07709">
        <ele>90</ele>
        <time>2014-11-09T10:38:22Z</time>
      </trkpt>
      <trkpt lat="47.00897" lon="-1.07706">
        <ele>90</ele>
        <time>2014-11-09T10:38:52Z</time>
      </trkpt>
      <trkpt lat="47.00819" lon="-1.0758">
        <ele>87</ele>
        <time>2014-11-09T10:39:00Z</time>
      </trkpt>
      <trkpt lat="47.00806" lon="-1.07545">
        <ele>88</ele>
        <time>2014-11-09T10:39:00Z</time>
      </trkpt>
      <trkpt lat="47.00797" lon="-1.0752">
        <ele>90</ele>
        <time>2014-11-09T10:39:41Z</time>
      </trkpt>
      <trkpt lat="47.00797" lon="-1.0752">
        <ele>90</ele>
        <time>2014-11-09T10:40:00Z</time>
      </trkpt>
      <trkpt lat="47.00681" lon="-1.07178">
        <ele>95</ele>
        <time>2014-11-09T10:40:05Z</time>
      </trkpt>
      <trkpt lat="47.00678" lon="-1.07162">
        <ele>94</ele>
        <time>2014-11-09T10:40:10Z</time>
      </trkpt>
      <trkpt lat="47.00668" lon="-1.0709">
        <ele>95</ele>
        <time>2014-11-09T10:40:29Z</time>
      </trkpt>
      <trkpt lat="47.00668" lon="-1.07049">
        <ele>95</ele>
        <time>2014-11-09T10:40:30Z</time>
      </trkpt>
      <trkpt lat="47.00667" lon="-1.0701">
        <ele>94</ele>
        <time>2014-11-09T10:41:00Z</time>
      </trkpt>
      <trkpt lat="47.00668" lon="-1.07011">
        <ele>94</ele>
        <time>2014-11-09T10:42:00Z</time>
      </trkpt>
      <trkpt lat="47.00688" lon="-1.07012">
        <ele>89</ele>
        <time>2014-11-09T10:42:02Z</time>
      </trkpt>
      <trkpt lat="47.00708" lon="-1.07015">
        <ele>86</ele>
        <time>2014-11-09T10:42:05Z</time>
      </trkpt>
      <trkpt lat="47.00708" lon="-1.07015">
        <ele>86</ele>
        <time>2014-11-09T10:43:00Z</time>
      </trkpt>
      <trkpt lat="47.00882" lon="-1.0704">
        <ele>68</ele>
        <time>2014-11-09T10:43:00Z</time>
      </trkpt>
      <trkpt lat="47.00895" lon="-1.07039">
        <ele>67</ele>
        <time>2014-11-09T10:43:17Z</time>
      </trkpt>
      <trkpt lat="47.00957" lon="-1.07074">
        <ele>62</ele>
        <time>2014-11-09T10:43:17Z</time>
      </trkpt>
      <trkpt lat="47.00975" lon="-1.0714">
        <ele>54</ele>
        <time>2014-11-09T10:43:31Z</time>
      </trkpt>
      <trkpt lat="47.00979" lon="-1.07139">
        <ele>54</ele>
        <time>2014-11-09T10:43:34Z</time>
      </trkpt>
      <trkpt lat="47.01057" lon="-1.07145">
        <ele>56</ele>
        <time>2014-11-09T10:44:05Z</time>
      </trkpt>
      <trkpt lat="47.01065" lon="-1.07143">
        <ele>60</ele>
        <time>2014-11-09T10:44:39Z</time>
      </trkpt>
      <trkpt lat="47.01066" lon="-1.07147">
        <ele>61</ele>
        <time>2014-11-09T10:44:39Z</time>
      </trkpt>
      <trkpt lat="47.0107" lon="-1.07154">
        <ele>60</ele>
        <time>2014-11-09T10:44:44Z</time>
      </trkpt>
      <trkpt lat="47.01077" lon="-1.07186">
        <ele>60</ele>
        <time>2014-11-09T10:44:49Z</time>
      </trkpt>
      <trkpt lat="47.0108" lon="-1.07206">
        <ele>60</ele>
        <time>2014-11-09T10:45:00Z</time>
      </trkpt>
      <trkpt lat="47.01096" lon="-1.07248">
        <ele>61</ele>
        <time>2014-11-09T10:45:02Z</time>
      </trkpt>
      <trkpt lat="47.01114" lon="-1.07236">
        <ele>60</ele>
        <time>2014-11-09T10:45:16Z</time>
      </trkpt>
      <trkpt lat="47.01135" lon="-1.07186">
        <ele>57</ele>
        <time>2014-11-09T10:45:20Z</time>
      </trkpt>
      <trkpt lat="47.0114" lon="-1.07176">
        <ele>58</ele>
        <time>2014-11-09T10:45:27Z</time>
      </trkpt>
      <trkpt lat="47.01146" lon="-1.07164">
        <ele>56</ele>
        <time>2014-11-09T10:45:31Z</time>
      </trkpt>
      <trkpt lat="47.01152" lon="-1.0715">
        <ele>55</ele>
        <time>2014-11-09T10:45:35Z</time>
      </trkpt>
      <trkpt lat="47.01161" lon="-1.07131">
        <ele>56</ele>
        <time>2014-11-09T10:45:49Z</time>
      </trkpt>
      <trkpt lat="47.01198" lon="-1.07066">
        <ele>58</ele>
        <time>2014-11-09T10:45:53Z</time>
      </trkpt>
      <trkpt lat="47.01215" lon="-1.07048">
        <ele>58</ele>
        <time>2014-11-09T10:45:58Z</time>
      </trkpt>
      <trkpt lat="47.01232" lon="-1.07028">
        <ele>58</ele>
        <time>2014-11-09T10:46:02Z</time>
      </trkpt>
      <trkpt lat="47.01245" lon="-1.07007">
        <ele>58</ele>
        <time>2014-11-09T10:46:06Z</time>
      </trkpt>
      <trkpt lat="47.01248" lon="-1.07001">
        <ele>59</ele>
        <time>2014-11-09T10:46:08Z</time>
      </trkpt>
      <trkpt lat="47.01265" lon="-1.06968">
        <ele>58</ele>
        <time>2014-11-09T10:46:28Z</time>
      </trkpt>
      <trkpt lat="47.01299" lon="-1.06882">
        <ele>62</ele>
        <time>2014-11-09T10:46:28Z</time>
      </trkpt>
      <trkpt lat="47.01301" lon="-1.06876">
        <ele>62</ele>
        <time>2014-11-09T10:46:34Z</time>
      </trkpt>
      <trkpt lat="47.0132" lon="-1.06814">
        <ele>63</ele>
        <time>2014-11-09T10:46:38Z</time>
      </trkpt>
      <trkpt lat="47.01321" lon="-1.06808">
        <ele>63</ele>
        <time>2014-11-09T10:46:45Z</time>
      </trkpt>
      <trkpt lat="47.0133" lon="-1.06769">
        <ele>58</ele>
        <time>2014-11-09T10:46:47Z</time>
      </trkpt>
      <trkpt lat="47.01331" lon="-1.06765">
        <ele>58</ele>
        <time>2014-11-09T10:47:03Z</time>
      </trkpt>
      <trkpt lat="47.01337" lon="-1.06716">
        <ele>69</ele>
        <time>2014-11-09T10:47:08Z</time>
      </trkpt>
      <trkpt lat="47.01341" lon="-1.06701">
        <ele>67</ele>
        <time>2014-11-09T10:47:12Z</time>
      </trkpt>
      <trkpt lat="47.01345" lon="-1.06694">
        <ele>65</ele>
        <time>2014-11-09T10:47:20Z</time>
      </trkpt>
      <trkpt lat="47.01352" lon="-1.06671">
        <ele>66</ele>
        <time>2014-11-09T10:47:21Z</time>
      </trkpt>
      <trkpt lat="47.01352" lon="-1.06667">
        <ele>67</ele>
        <time>2014-11-09T10:47:33Z</time>
      </trkpt>
      <trkpt lat="47.01361" lon="-1.06614">
        <ele>76</ele>
        <time>2014-11-09T10:47:38Z</time>
      </trkpt>
      <trkpt lat="47.01364" lon="-1.06602">
        <ele>77</ele>
        <time>2014-11-09T10:47:42Z</time>
      </trkpt>
      <trkpt lat="47.01367" lon="-1.06592">
        <ele>75</ele>
        <time>2014-11-09T10:47:46Z</time>
      </trkpt>
      <trkpt lat="47.01375" lon="-1.06584">
        <ele>75</ele>
        <time>2014-11-09T10:47:51Z</time>
      </trkpt>
      <trkpt lat="47.01387" lon="-1.0658">
        <ele>78</ele>
        <time>2014-11-09T10:47:56Z</time>
      </trkpt>
      <trkpt lat="47.01395" lon="-1.06578">
        <ele>78</ele>
        <time>2014-11-09T10:48:00Z</time>
      </trkpt>
      <trkpt lat="47.01402" lon="-1.06577">
        <ele>80</ele>
        <time>2014-11-09T10:48:05Z</time>
      </trkpt>
      <trkpt lat="47.01411" lon="-1.06573">
        <ele>77</ele>
        <time>2014-11-09T10:48:09Z</time>
      </trkpt>
      <trkpt lat="47.01418" lon="-1.06569">
        <ele>79</ele>
        <time>2014-11-09T10:48:13Z</time>
      </trkpt>
      <trkpt lat="47.01426" lon="-1.06564">
        <ele>80</ele>
        <time>2014-11-09T10:48:17Z</time>
      </trkpt>
      <trkpt lat="47.01432" lon="-1.06559">
        <ele>80</ele>
        <time>2014-11-09T10:48:25Z</time>
      </trkpt>
      <trkpt lat="47.01428" lon="-1.06563">
        <ele>75</ele>
        <time>2014-11-09T10:48:33Z</time>
      </trkpt>
      <trkpt lat="47.01402" lon="-1.06572">
        <ele>74</ele>
        <time>2014-11-09T10:48:37Z</time>
      </trkpt>
      <trkpt lat="47.01374" lon="-1.0658">
        <ele>71</ele>
        <time>2014-11-09T10:48:41Z</time>
      </trkpt>
      <trkpt lat="47.01366" lon="-1.06596">
        <ele>71</ele>
        <time>2014-11-09T10:48:45Z</time>
      </trkpt>
      <trkpt lat="47.01355" lon="-1.06615">
        <ele>70</ele>
        <time>2014-11-09T10:48:49Z</time>
      </trkpt>
      <trkpt lat="47.0135" lon="-1.06641">
        <ele>67</ele>
        <time>2014-11-09T10:48:53Z</time>
      </trkpt>
      <trkpt lat="47.01348" lon="-1.06675">
        <ele>63</ele>
        <time>2014-11-09T10:48:57Z</time>
      </trkpt>
      <trkpt lat="47.01336" lon="-1.0671">
        <ele>62</ele>
        <time>2014-11-09T10:49:01Z</time>
      </trkpt>
      <trkpt lat="47.01331" lon="-1.06746">
        <ele>58</ele>
        <time>2014-11-09T10:49:06Z</time>
      </trkpt>
      <trkpt lat="47.01328" lon="-1.06759">
        <ele>57</ele>
        <time>2014-11-09T10:49:10Z</time>
      </trkpt>
      <trkpt lat="47.01333" lon="-1.0675">
        <ele>57</ele>
        <time>2014-11-09T11:02:19Z</time>
      </trkpt>
      <trkpt lat="47.01335" lon="-1.06741">
        <ele>58</ele>
        <time>2014-11-09T11:02:23Z</time>
      </trkpt>
      <trkpt lat="47.01335" lon="-1.06731">
        <ele>61</ele>
        <time>2014-11-09T11:03:41Z</time>
      </trkpt>
      <trkpt lat="47.01336" lon="-1.06719">
        <ele>63</ele>
        <time>2014-11-09T11:03:47Z</time>
      </trkpt>
      <trkpt lat="47.0134" lon="-1.06705">
        <ele>63</ele>
        <time>2014-11-09T11:03:52Z</time>
      </trkpt>
      <trkpt lat="47.01345" lon="-1.06693">
        <ele>63</ele>
        <time>2014-11-09T11:03:57Z</time>
      </trkpt>
      <trkpt lat="47.01348" lon="-1.06682">
        <ele>66</ele>
        <time>2014-11-09T11:04:02Z</time>
      </trkpt>
      <trkpt lat="47.01351" lon="-1.0667">
        <ele>65</ele>
        <time>2014-11-09T11:04:08Z</time>
      </trkpt>
      <trkpt lat="47.01351" lon="-1.06667">
        <ele>66</ele>
        <time>2014-11-09T11:04:18Z</time>
      </trkpt>
      <trkpt lat="47.01351" lon="-1.06654">
        <ele>67</ele>
        <time>2014-11-09T11:04:18Z</time>
      </trkpt>
      <trkpt lat="47.01349" lon="-1.06643">
        <ele>64</ele>
        <time>2014-11-09T11:04:57Z</time>
      </trkpt>
      <trkpt lat="47.01351" lon="-1.06631">
        <ele>62</ele>
        <time>2014-11-09T11:05:02Z</time>
      </trkpt>
      <trkpt lat="47.01357" lon="-1.06622">
        <ele>68</ele>
        <time>2014-11-09T11:05:07Z</time>
      </trkpt>
      <trkpt lat="47.01363" lon="-1.06613">
        <ele>69</ele>
        <time>2014-11-09T11:05:11Z</time>
      </trkpt>
      <trkpt lat="47.01367" lon="-1.06594">
        <ele>71</ele>
        <time>2014-11-09T11:05:16Z</time>
      </trkpt>
      <trkpt lat="47.01377" lon="-1.06581">
        <ele>70</ele>
        <time>2014-11-09T11:05:20Z</time>
      </trkpt>
      <trkpt lat="47.01391" lon="-1.06578">
        <ele>71</ele>
        <time>2014-11-09T11:05:24Z</time>
      </trkpt>
      <trkpt lat="47.01408" lon="-1.06573">
        <ele>71</ele>
        <time>2014-11-09T11:05:29Z</time>
      </trkpt>
      <trkpt lat="47.01421" lon="-1.06568">
        <ele>75</ele>
        <time>2014-11-09T11:05:33Z</time>
      </trkpt>
      <trkpt lat="47.01433" lon="-1.0656">
        <ele>77</ele>
        <time>2014-11-09T11:05:37Z</time>
      </trkpt>
      <trkpt lat="47.01446" lon="-1.06547">
        <ele>78</ele>
        <time>2014-11-09T11:05:42Z</time>
      </trkpt>
      <trkpt lat="47.01456" lon="-1.06531">
        <ele>79</ele>
        <time>2014-11-09T11:05:47Z</time>
      </trkpt>
      <trkpt lat="47.01463" lon="-1.0652">
        <ele>78</ele>
        <time>2014-11-09T11:05:51Z</time>
      </trkpt>
      <trkpt lat="47.01471" lon="-1.06509">
        <ele>76</ele>
        <time>2014-11-09T11:05:56Z</time>
      </trkpt>
      <trkpt lat="47.0148" lon="-1.06501">
        <ele>79</ele>
        <time>2014-11-09T11:06:01Z</time>
      </trkpt>
      <trkpt lat="47.01487" lon="-1.06494">
        <ele>80</ele>
        <time>2014-11-09T11:06:07Z</time>
      </trkpt>
      <trkpt lat="47.01495" lon="-1.06489">
        <ele>83</ele>
        <time>2014-11-09T11:06:14Z</time>
      </trkpt>
      <trkpt lat="47.01502" lon="-1.06484">
        <ele>86</ele>
        <time>2014-11-09T11:06:20Z</time>
      </trkpt>
      <trkpt lat="47.0151" lon="-1.06481">
        <ele>86</ele>
        <time>2014-11-09T11:06:26Z</time>
      </trkpt>
      <trkpt lat="47.01517" lon="-1.06475">
        <ele>88</ele>
        <time>2014-11-09T11:06:32Z</time>
      </trkpt>
      <trkpt lat="47.0152" lon="-1.06473">
        <ele>88</ele>
        <time>2014-11-09T11:06:42Z</time>
      </trkpt>
      <trkpt lat="47.01528" lon="-1.06464">
        <ele>90</ele>
        <time>2014-11-09T11:06:42Z</time>
      </trkpt>
      <trkpt lat="47.01532" lon="-1.0646">
        <ele>90</ele>
        <time>2014-11-09T11:06:49Z</time>
      </trkpt>
      <trkpt lat="47.01536" lon="-1.06456">
        <ele>91</ele>
        <time>2014-11-09T11:06:53Z</time>
      </trkpt>
      <trkpt lat="47.01544" lon="-1.06448">
        <ele>90</ele>
        <time>2014-11-09T11:06:54Z</time>
      </trkpt>
      <trkpt lat="47.0155" lon="-1.06442">
        <ele>90</ele>
        <time>2014-11-09T11:06:59Z</time>
      </trkpt>
      <trkpt lat="47.01553" lon="-1.06439">
        <ele>91</ele>
        <time>2014-11-09T11:07:09Z</time>
      </trkpt>
      <trkpt lat="47.01574" lon="-1.06419">
        <ele>93</ele>
        <time>2014-11-09T11:07:13Z</time>
      </trkpt>
      <trkpt lat="47.0158" lon="-1.06413">
        <ele>93</ele>
        <time>2014-11-09T11:07:17Z</time>
      </trkpt>
      <trkpt lat="47.01588" lon="-1.06407">
        <ele>92</ele>
        <time>2014-11-09T11:07:22Z</time>
      </trkpt>
      <trkpt lat="47.01596" lon="-1.06402">
        <ele>93</ele>
        <time>2014-11-09T11:07:27Z</time>
      </trkpt>
      <trkpt lat="47.01604" lon="-1.06396">
        <ele>92</ele>
        <time>2014-11-09T11:07:32Z</time>
      </trkpt>
      <trkpt lat="47.0161" lon="-1.06391">
        <ele>93</ele>
        <time>2014-11-09T11:07:36Z</time>
      </trkpt>
      <trkpt lat="47.01617" lon="-1.06386">
        <ele>93</ele>
        <time>2014-11-09T11:07:40Z</time>
      </trkpt>
      <trkpt lat="47.01625" lon="-1.0638">
        <ele>93</ele>
        <time>2014-11-09T11:07:45Z</time>
      </trkpt>
      <trkpt lat="47.01632" lon="-1.06375">
        <ele>93</ele>
        <time>2014-11-09T11:07:50Z</time>
      </trkpt>
      <trkpt lat="47.0164" lon="-1.06373">
        <ele>94</ele>
        <time>2014-11-09T11:07:54Z</time>
      </trkpt>
      <trkpt lat="47.01648" lon="-1.06368">
        <ele>95</ele>
        <time>2014-11-09T11:07:59Z</time>
      </trkpt>
      <trkpt lat="47.0166" lon="-1.06361">
        <ele>95</ele>
        <time>2014-11-09T11:08:04Z</time>
      </trkpt>
      <trkpt lat="47.0167" lon="-1.06357">
        <ele>96</ele>
        <time>2014-11-09T11:08:09Z</time>
      </trkpt>
      <trkpt lat="47.01678" lon="-1.06353">
        <ele>96</ele>
        <time>2014-11-09T11:08:13Z</time>
      </trkpt>
      <trkpt lat="47.01688" lon="-1.06346">
        <ele>97</ele>
        <time>2014-11-09T11:08:18Z</time>
      </trkpt>
      <trkpt lat="47.01695" lon="-1.06337">
        <ele>97</ele>
        <time>2014-11-09T11:08:22Z</time>
      </trkpt>
      <trkpt lat="47.01704" lon="-1.06326">
        <ele>100</ele>
        <time>2014-11-09T11:08:27Z</time>
      </trkpt>
      <trkpt lat="47.01708" lon="-1.06315">
        <ele>101</ele>
        <time>2014-11-09T11:08:31Z</time>
      </trkpt>
      <trkpt lat="47.01712" lon="-1.06297">
        <ele>104</ele>
        <time>2014-11-09T11:08:36Z</time>
      </trkpt>
      <trkpt lat="47.01718" lon="-1.06285">
        <ele>104</ele>
        <time>2014-11-09T11:08:40Z</time>
      </trkpt>
      <trkpt lat="47.01727" lon="-1.06279">
        <ele>106</ele>
        <time>2014-11-09T11:08:44Z</time>
      </trkpt>
      <trkpt lat="47.0174" lon="-1.06274">
        <ele>107</ele>
        <time>2014-11-09T11:08:49Z</time>
      </trkpt>
      <trkpt lat="47.01749" lon="-1.06267">
        <ele>108</ele>
        <time>2014-11-09T11:08:53Z</time>
      </trkpt>
      <trkpt lat="47.01758" lon="-1.06261">
        <ele>108</ele>
        <time>2014-11-09T11:08:57Z</time>
      </trkpt>
      <trkpt lat="47.01766" lon="-1.06259">
        <ele>108</ele>
        <time>2014-11-09T11:09:04Z</time>
      </trkpt>
      <trkpt lat="47.0177" lon="-1.06261">
        <ele>107</ele>
        <time>2014-11-09T11:10:11Z</time>
      </trkpt>
      <trkpt lat="47.01754" lon="-1.06215">
        <ele>107</ele>
        <time>2014-11-09T11:10:15Z</time>
      </trkpt>
      <trkpt lat="47.01749" lon="-1.06194">
        <ele>108</ele>
        <time>2014-11-09T11:10:19Z</time>
      </trkpt>
      <trkpt lat="47.01744" lon="-1.06167">
        <ele>107</ele>
        <time>2014-11-09T11:10:24Z</time>
      </trkpt>
      <trkpt lat="47.01739" lon="-1.06148">
        <ele>109</ele>
        <time>2014-11-09T11:10:28Z</time>
      </trkpt>
      <trkpt lat="47.01734" lon="-1.06128">
        <ele>111</ele>
        <time>2014-11-09T11:10:32Z</time>
      </trkpt>
      <trkpt lat="47.01725" lon="-1.06112">
        <ele>110</ele>
        <time>2014-11-09T11:10:35Z</time>
      </trkpt>
      <trkpt lat="47.01719" lon="-1.06103">
        <ele>109</ele>
        <time>2014-11-09T11:10:47Z</time>
      </trkpt>
      <trkpt lat="47.01714" lon="-1.06093">
        <ele>111</ele>
        <time>2014-11-09T11:10:59Z</time>
      </trkpt>
      <trkpt lat="47.01705" lon="-1.06082">
        <ele>112</ele>
        <time>2014-11-09T11:11:04Z</time>
      </trkpt>
      <trkpt lat="47.01697" lon="-1.06071">
        <ele>112</ele>
        <time>2014-11-09T11:11:08Z</time>
      </trkpt>
      <trkpt lat="47.0169" lon="-1.06056">
        <ele>114</ele>
        <time>2014-11-09T11:11:12Z</time>
      </trkpt>
      <trkpt lat="47.01685" lon="-1.06035">
        <ele>114</ele>
        <time>2014-11-09T11:11:17Z</time>
      </trkpt>
      <trkpt lat="47.01682" lon="-1.06019">
        <ele>114</ele>
        <time>2014-11-09T11:11:21Z</time>
      </trkpt>
      <trkpt lat="47.01683" lon="-1.06001">
        <ele>114</ele>
        <time>2014-11-09T11:11:26Z</time>
      </trkpt>
      <trkpt lat="47.01679" lon="-1.05993">
        <ele>114</ele>
        <time>2014-11-09T11:12:05Z</time>
      </trkpt>
      <trkpt lat="47.0167" lon="-1.05972">
        <ele>116</ele>
        <time>2014-11-09T11:12:10Z</time>
      </trkpt>
      <trkpt lat="47.01668" lon="-1.05947">
        <ele>116</ele>
        <time>2014-11-09T11:12:15Z</time>
      </trkpt>
      <trkpt lat="47.01667" lon="-1.05927">
        <ele>115</ele>
        <time>2014-11-09T11:12:19Z</time>
      </trkpt>
      <trkpt lat="47.01665" lon="-1.05907">
        <ele>118</ele>
        <time>2014-11-09T11:12:23Z</time>
      </trkpt>
      <trkpt lat="47.01663" lon="-1.05885">
        <ele>118</ele>
        <time>2014-11-09T11:12:28Z</time>
      </trkpt>
      <trkpt lat="47.01661" lon="-1.0586">
        <ele>121</ele>
        <time>2014-11-09T11:12:33Z</time>
      </trkpt>
      <trkpt lat="47.0166" lon="-1.05839">
        <ele>120</ele>
        <time>2014-11-09T11:12:37Z</time>
      </trkpt>
      <trkpt lat="47.01658" lon="-1.05817">
        <ele>120</ele>
        <time>2014-11-09T11:12:41Z</time>
      </trkpt>
      <trkpt lat="47.01655" lon="-1.05796">
        <ele>122</ele>
        <time>2014-11-09T11:12:45Z</time>
      </trkpt>
      <trkpt lat="47.01653" lon="-1.05773">
        <ele>122</ele>
        <time>2014-11-09T11:12:49Z</time>
      </trkpt>
      <trkpt lat="47.0165" lon="-1.0575">
        <ele>123</ele>
        <time>2014-11-09T11:12:53Z</time>
      </trkpt>
      <trkpt lat="47.01649" lon="-1.05733">
        <ele>125</ele>
        <time>2014-11-09T11:12:56Z</time>
      </trkpt>
      <trkpt lat="47.01648" lon="-1.05727">
        <ele>124</ele>
        <time>2014-11-09T11:13:18Z</time>
      </trkpt>
      <trkpt lat="47.01612" lon="-1.05594">
        <ele>120</ele>
        <time>2014-11-09T11:13:18Z</time>
      </trkpt>
      <trkpt lat="47.01611" lon="-1.05588">
        <ele>120</ele>
        <time>2014-11-09T11:13:24Z</time>
      </trkpt>
      <trkpt lat="47.01604" lon="-1.05525">
        <ele>123</ele>
        <time>2014-11-09T11:13:29Z</time>
      </trkpt>
      <trkpt lat="47.01603" lon="-1.05488">
        <ele>127</ele>
        <time>2014-11-09T11:13:34Z</time>
      </trkpt>
      <trkpt lat="47.01599" lon="-1.05467">
        <ele>127</ele>
        <time>2014-11-09T11:13:38Z</time>
      </trkpt>
      <trkpt lat="47.01578" lon="-1.05453">
        <ele>124</ele>
        <time>2014-11-09T11:13:43Z</time>
      </trkpt>
      <trkpt lat="47.01559" lon="-1.05439">
        <ele>122</ele>
        <time>2014-11-09T11:13:47Z</time>
      </trkpt>
      <trkpt lat="47.01537" lon="-1.05407">
        <ele>120</ele>
        <time>2014-11-09T11:13:52Z</time>
      </trkpt>
      <trkpt lat="47.01521" lon="-1.05379">
        <ele>118</ele>
        <time>2014-11-09T11:13:56Z</time>
      </trkpt>
      <trkpt lat="47.01517" lon="-1.05373">
        <ele>119</ele>
        <time>2014-11-09T11:13:57Z</time>
      </trkpt>
      <trkpt lat="47.01498" lon="-1.05332">
        <ele>116</ele>
        <time>2014-11-09T11:14:14Z</time>
      </trkpt>
      <trkpt lat="47.01439" lon="-1.05221">
        <ele>118</ele>
        <time>2014-11-09T11:14:21Z</time>
      </trkpt>
      <trkpt lat="47.01424" lon="-1.05189">
        <ele>119</ele>
        <time>2014-11-09T11:14:24Z</time>
      </trkpt>
      <trkpt lat="47.01414" lon="-1.05162">
        <ele>121</ele>
        <time>2014-11-09T11:14:28Z</time>
      </trkpt>
      <trkpt lat="47.01403" lon="-1.05138">
        <ele>121</ele>
        <time>2014-11-09T11:14:32Z</time>
      </trkpt>
      <trkpt lat="47.01394" lon="-1.0512">
        <ele>122</ele>
        <time>2014-11-09T11:14:35Z</time>
      </trkpt>
      <trkpt lat="47.01379" lon="-1.05091">
        <ele>121</ele>
        <time>2014-11-09T11:14:44Z</time>
      </trkpt>
      <trkpt lat="47.01348" lon="-1.05043">
        <ele>120</ele>
        <time>2014-11-09T11:14:47Z</time>
      </trkpt>
      <trkpt lat="47.01336" lon="-1.05013">
        <ele>119</ele>
        <time>2014-11-09T11:14:51Z</time>
      </trkpt>
      <trkpt lat="47.01323" lon="-1.04977">
        <ele>122</ele>
        <time>2014-11-09T11:14:56Z</time>
      </trkpt>
      <trkpt lat="47.01312" lon="-1.04949">
        <ele>123</ele>
        <time>2014-11-09T11:15:01Z</time>
      </trkpt>
      <trkpt lat="47.013" lon="-1.04921">
        <ele>120</ele>
        <time>2014-11-09T11:15:05Z</time>
      </trkpt>
      <trkpt lat="47.01288" lon="-1.04894">
        <ele>121</ele>
        <time>2014-11-09T11:15:09Z</time>
      </trkpt>
      <trkpt lat="47.01272" lon="-1.04864">
        <ele>118</ele>
        <time>2014-11-09T11:15:13Z</time>
      </trkpt>
      <trkpt lat="47.01257" lon="-1.04829">
        <ele>119</ele>
        <time>2014-11-09T11:15:17Z</time>
      </trkpt>
      <trkpt lat="47.01237" lon="-1.04775">
        <ele>117</ele>
        <time>2014-11-09T11:15:22Z</time>
      </trkpt>
      <trkpt lat="47.0122" lon="-1.04727">
        <ele>116</ele>
        <time>2014-11-09T11:15:26Z</time>
      </trkpt>
      <trkpt lat="47.01207" lon="-1.04691">
        <ele>113</ele>
        <time>2014-11-09T11:15:30Z</time>
      </trkpt>
      <trkpt lat="47.01203" lon="-1.04678">
        <ele>113</ele>
        <time>2014-11-09T11:15:44Z</time>
      </trkpt>
      <trkpt lat="47.01203" lon="-1.04678">
        <ele>113</ele>
        <time>2014-11-09T11:16:00Z</time>
      </trkpt>
      <trkpt lat="47.01087" lon="-1.04194">
        <ele>105</ele>
        <time>2014-11-09T11:16:05Z</time>
      </trkpt>
      <trkpt lat="47.01055" lon="-1.04163">
        <ele>104</ele>
        <time>2014-11-09T11:16:10Z</time>
      </trkpt>
      <trkpt lat="47.0102" lon="-1.04187">
        <ele>102</ele>
        <time>2014-11-09T11:16:15Z</time>
      </trkpt>
      <trkpt lat="47.00979" lon="-1.04221">
        <ele>100</ele>
        <time>2014-11-09T11:16:20Z</time>
      </trkpt>
      <trkpt lat="47.00935" lon="-1.04235">
        <ele>86</ele>
        <time>2014-11-09T11:16:24Z</time>
      </trkpt>
      <trkpt lat="47.00899" lon="-1.04249">
        <ele>85</ele>
        <time>2014-11-09T11:16:28Z</time>
      </trkpt>
      <trkpt lat="47.00886" lon="-1.04256">
        <ele>84</ele>
        <time>2014-11-09T11:16:33Z</time>
      </trkpt>
      <trkpt lat="47.00824" lon="-1.04311">
        <ele>83</ele>
        <time>2014-11-09T11:16:45Z</time>
      </trkpt>
      <trkpt lat="47.00659" lon="-1.04379">
        <ele>73</ele>
        <time>2014-11-09T11:16:48Z</time>
      </trkpt>
      <trkpt lat="47.00632" lon="-1.0434">
        <ele>68</ele>
        <time>2014-11-09T11:16:52Z</time>
      </trkpt>
      <trkpt lat="47.00615" lon="-1.04302">
        <ele>68</ele>
        <time>2014-11-09T11:16:56Z</time>
      </trkpt>
      <trkpt lat="47.00579" lon="-1.04293">
        <ele>65</ele>
        <time>2014-11-09T11:17:00Z</time>
      </trkpt>
      <trkpt lat="47.00557" lon="-1.04291">
        <ele>70</ele>
        <time>2014-11-09T11:17:04Z</time>
      </trkpt>
      <trkpt lat="47.0055" lon="-1.04288">
        <ele>64</ele>
        <time>2014-11-09T11:17:58Z</time>
      </trkpt>
      <trkpt lat="47.00531" lon="-1.04278">
        <ele>62</ele>
        <time>2014-11-09T11:18:02Z</time>
      </trkpt>
      <trkpt lat="47.00498" lon="-1.04262">
        <ele>63</ele>
        <time>2014-11-09T11:18:07Z</time>
      </trkpt>
      <trkpt lat="47.00475" lon="-1.04249">
        <ele>62</ele>
        <time>2014-11-09T11:18:11Z</time>
      </trkpt>
      <trkpt lat="47.00467" lon="-1.04245">
        <ele>61</ele>
        <time>2014-11-09T11:18:17Z</time>
      </trkpt>
      <trkpt lat="47.0046" lon="-1.04239">
        <ele>61</ele>
        <time>2014-11-09T11:18:21Z</time>
      </trkpt>
      <trkpt lat="47.0045" lon="-1.0423">
        <ele>58</ele>
        <time>2014-11-09T11:18:26Z</time>
      </trkpt>
      <trkpt lat="47.00444" lon="-1.04223">
        <ele>55</ele>
        <time>2014-11-09T11:18:47Z</time>
      </trkpt>
      <trkpt lat="47.00438" lon="-1.04215">
        <ele>59</ele>
        <time>2014-11-09T11:18:53Z</time>
      </trkpt>
      <trkpt lat="47.00432" lon="-1.04208">
        <ele>60</ele>
        <time>2014-11-09T11:19:00Z</time>
      </trkpt>
      <trkpt lat="47.00424" lon="-1.04203">
        <ele>54</ele>
        <time>2014-11-09T11:19:17Z</time>
      </trkpt>
      <trkpt lat="47.00422" lon="-1.04192">
        <ele>54</ele>
        <time>2014-11-09T11:19:22Z</time>
      </trkpt>
      <trkpt lat="47.00417" lon="-1.04179">
        <ele>56</ele>
        <time>2014-11-09T11:19:27Z</time>
      </trkpt>
      <trkpt lat="47.00412" lon="-1.0417">
        <ele>57</ele>
        <time>2014-11-09T11:19:31Z</time>
      </trkpt>
      <trkpt lat="47.00411" lon="-1.04159">
        <ele>60</ele>
        <time>2014-11-09T11:19:36Z</time>
      </trkpt>
      <trkpt lat="47.00411" lon="-1.04148">
        <ele>61</ele>
        <time>2014-11-09T11:19:41Z</time>
      </trkpt>
      <trkpt lat="47.00412" lon="-1.04135">
        <ele>63</ele>
        <time>2014-11-09T11:19:46Z</time>
      </trkpt>
      <trkpt lat="47.00416" lon="-1.04124">
        <ele>63</ele>
        <time>2014-11-09T11:19:50Z</time>
      </trkpt>
      <trkpt lat="47.00419" lon="-1.04109">
        <ele>61</ele>
        <time>2014-11-09T11:19:55Z</time>
      </trkpt>
      <trkpt lat="47.00424" lon="-1.04098">
        <ele>65</ele>
        <time>2014-11-09T11:19:59Z</time>
      </trkpt>
      <trkpt lat="47.00428" lon="-1.04083">
        <ele>69</ele>
        <time>2014-11-09T11:20:04Z</time>
      </trkpt>
      <trkpt lat="47.00432" lon="-1.04064">
        <ele>70</ele>
        <time>2014-11-09T11:20:09Z</time>
      </trkpt>
      <trkpt lat="47.00435" lon="-1.04047">
        <ele>68</ele>
        <time>2014-11-09T11:20:13Z</time>
      </trkpt>
      <trkpt lat="47.00438" lon="-1.0403">
        <ele>69</ele>
        <time>2014-11-09T11:20:17Z</time>
      </trkpt>
      <trkpt lat="47.00441" lon="-1.04011">
        <ele>69</ele>
        <time>2014-11-09T11:20:22Z</time>
      </trkpt>
      <trkpt lat="47.00442" lon="-1.03995">
        <ele>71</ele>
        <time>2014-11-09T11:20:26Z</time>
      </trkpt>
      <trkpt lat="47.00445" lon="-1.03986">
        <ele>71</ele>
        <time>2014-11-09T11:25:00Z</time>
      </trkpt>
      <trkpt lat="47.00422" lon="-1.03937">
        <ele>74</ele>
        <time>2014-11-09T11:25:32Z</time>
      </trkpt>
      <trkpt lat="47.00406" lon="-1.03862">
        <ele>76</ele>
        <time>2014-11-09T11:25:37Z</time>
      </trkpt>
      <trkpt lat="47.00403" lon="-1.03841">
        <ele>73</ele>
        <time>2014-11-09T11:25:41Z</time>
      </trkpt>
      <trkpt lat="47.00398" lon="-1.03806">
        <ele>73</ele>
        <time>2014-11-09T11:25:45Z</time>
      </trkpt>
      <trkpt lat="47.00394" lon="-1.03755">
        <ele>69</ele>
        <time>2014-11-09T11:25:49Z</time>
      </trkpt>
      <trkpt lat="47.00381" lon="-1.0372">
        <ele>69</ele>
        <time>2014-11-09T11:25:53Z</time>
      </trkpt>
      <trkpt lat="47.00362" lon="-1.03679">
        <ele>65</ele>
        <time>2014-11-09T11:25:58Z</time>
      </trkpt>
      <trkpt lat="47.00351" lon="-1.03639">
        <ele>57</ele>
        <time>2014-11-09T11:26:03Z</time>
      </trkpt>
      <trkpt lat="47.00348" lon="-1.03592">
        <ele>56</ele>
        <time>2014-11-09T11:26:08Z</time>
      </trkpt>
      <trkpt lat="47.00343" lon="-1.0356">
        <ele>55</ele>
        <time>2014-11-09T11:26:12Z</time>
      </trkpt>
      <trkpt lat="47.0034" lon="-1.03519">
        <ele>69</ele>
        <time>2014-11-09T11:26:17Z</time>
      </trkpt>
      <trkpt lat="47.00334" lon="-1.03492">
        <ele>69</ele>
        <time>2014-11-09T11:26:22Z</time>
      </trkpt>
      <trkpt lat="47.00327" lon="-1.03465">
        <ele>70</ele>
        <time>2014-11-09T11:26:27Z</time>
      </trkpt>
      <trkpt lat="47.00326" lon="-1.03432">
        <ele>70</ele>
        <time>2014-11-09T11:26:31Z</time>
      </trkpt>
      <trkpt lat="47.00324" lon="-1.0341">
        <ele>70</ele>
        <time>2014-11-09T11:26:35Z</time>
      </trkpt>
      <trkpt lat="47.00344" lon="-1.03375">
        <ele>68</ele>
        <time>2014-11-09T11:26:40Z</time>
      </trkpt>
      <trkpt lat="47.00356" lon="-1.03351">
        <ele>67</ele>
        <time>2014-11-09T11:26:44Z</time>
      </trkpt>
      <trkpt lat="47.00365" lon="-1.03334">
        <ele>68</ele>
        <time>2014-11-09T11:26:49Z</time>
      </trkpt>
      <trkpt lat="47.00369" lon="-1.03326">
        <ele>68</ele>
        <time>2014-11-09T11:26:55Z</time>
      </trkpt>
      <trkpt lat="47.00376" lon="-1.0332">
        <ele>69</ele>
        <time>2014-11-09T11:26:59Z</time>
      </trkpt>
      <trkpt lat="47.00375" lon="-1.03304">
        <ele>70</ele>
        <time>2014-11-09T11:27:04Z</time>
      </trkpt>
      <trkpt lat="47.00374" lon="-1.03284">
        <ele>70</ele>
        <time>2014-11-09T11:27:09Z</time>
      </trkpt>
      <trkpt lat="47.00377" lon="-1.03267">
        <ele>71</ele>
        <time>2014-11-09T11:27:13Z</time>
      </trkpt>
      <trkpt lat="47.00387" lon="-1.03244">
        <ele>71</ele>
        <time>2014-11-09T11:27:17Z</time>
      </trkpt>
      <trkpt lat="47.00399" lon="-1.0322">
        <ele>71</ele>
        <time>2014-11-09T11:27:22Z</time>
      </trkpt>
      <trkpt lat="47.00403" lon="-1.032">
        <ele>72</ele>
        <time>2014-11-09T11:27:26Z</time>
      </trkpt>
      <trkpt lat="47.00403" lon="-1.03169">
        <ele>70</ele>
        <time>2014-11-09T11:27:31Z</time>
      </trkpt>
      <trkpt lat="47.00406" lon="-1.03141">
        <ele>66</ele>
        <time>2014-11-09T11:27:35Z</time>
      </trkpt>
      <trkpt lat="47.00398" lon="-1.03119">
        <ele>65</ele>
        <time>2014-11-09T11:27:40Z</time>
      </trkpt>
      <trkpt lat="47.00397" lon="-1.03101">
        <ele>68</ele>
        <time>2014-11-09T11:27:44Z</time>
      </trkpt>
      <trkpt lat="47.00396" lon="-1.03078">
        <ele>69</ele>
        <time>2014-11-09T11:27:49Z</time>
      </trkpt>
      <trkpt lat="47.00392" lon="-1.03058">
        <ele>68</ele>
        <time>2014-11-09T11:27:53Z</time>
      </trkpt>
      <trkpt lat="47.00384" lon="-1.03032">
        <ele>67</ele>
        <time>2014-11-09T11:27:57Z</time>
      </trkpt>
      <trkpt lat="47.00376" lon="-1.02996">
        <ele>69</ele>
        <time>2014-11-09T11:28:02Z</time>
      </trkpt>
      <trkpt lat="47.00381" lon="-1.02964">
        <ele>69</ele>
        <time>2014-11-09T11:28:07Z</time>
      </trkpt>
      <trkpt lat="47.00383" lon="-1.02937">
        <ele>68</ele>
        <time>2014-11-09T11:28:11Z</time>
      </trkpt>
      <trkpt lat="47.00383" lon="-1.02889">
        <ele>68</ele>
        <time>2014-11-09T11:28:16Z</time>
      </trkpt>
      <trkpt lat="47.00383" lon="-1.02859">
        <ele>67</ele>
        <time>2014-11-09T11:28:20Z</time>
      </trkpt>
      <trkpt lat="47.00381" lon="-1.02829">
        <ele>66</ele>
        <time>2014-11-09T11:28:24Z</time>
      </trkpt>
      <trkpt lat="47.00377" lon="-1.02806">
        <ele>59</ele>
        <time>2014-11-09T11:28:28Z</time>
      </trkpt>
      <trkpt lat="47.00368" lon="-1.02779">
        <ele>61</ele>
        <time>2014-11-09T11:28:33Z</time>
      </trkpt>
      <trkpt lat="47.00363" lon="-1.02747">
        <ele>59</ele>
        <time>2014-11-09T11:28:37Z</time>
      </trkpt>
      <trkpt lat="47.00361" lon="-1.02705">
        <ele>58</ele>
        <time>2014-11-09T11:28:42Z</time>
      </trkpt>
      <trkpt lat="47.00354" lon="-1.02676">
        <ele>54</ele>
        <time>2014-11-09T11:28:47Z</time>
      </trkpt>
      <trkpt lat="47.00363" lon="-1.0264">
        <ele>54</ele>
        <time>2014-11-09T11:28:51Z</time>
      </trkpt>
      <trkpt lat="47.0037" lon="-1.02605">
        <ele>54</ele>
        <time>2014-11-09T11:28:56Z</time>
      </trkpt>
      <trkpt lat="47.00373" lon="-1.02568">
        <ele>49</ele>
        <time>2014-11-09T11:29:01Z</time>
      </trkpt>
      <trkpt lat="47.00373" lon="-1.02544">
        <ele>49</ele>
        <time>2014-11-09T11:29:05Z</time>
      </trkpt>
      <trkpt lat="47.00371" lon="-1.02529">
        <ele>48</ele>
        <time>2014-11-09T11:29:08Z</time>
      </trkpt>
      <trkpt lat="47.00377" lon="-1.02507">
        <ele>59</ele>
        <time>2014-11-09T11:29:11Z</time>
      </trkpt>
      <trkpt lat="47.00374" lon="-1.02489">
        <ele>61</ele>
        <time>2014-11-09T11:29:16Z</time>
      </trkpt>
      <trkpt lat="47.00372" lon="-1.02475">
        <ele>62</ele>
        <time>2014-11-09T11:29:21Z</time>
      </trkpt>
      <trkpt lat="47.0037" lon="-1.02462">
        <ele>62</ele>
        <time>2014-11-09T11:29:27Z</time>
      </trkpt>
      <trkpt lat="47.00371" lon="-1.02449">
        <ele>62</ele>
        <time>2014-11-09T11:29:57Z</time>
      </trkpt>
      <trkpt lat="47.00374" lon="-1.0244">
        <ele>63</ele>
        <time>2014-11-09T11:30:03Z</time>
      </trkpt>
      <trkpt lat="47.00378" lon="-1.02432">
        <ele>64</ele>
        <time>2014-11-09T11:30:09Z</time>
      </trkpt>
      <trkpt lat="47.00378" lon="-1.02418">
        <ele>58</ele>
        <time>2014-11-09T11:30:13Z</time>
      </trkpt>
      <trkpt lat="47.00377" lon="-1.02406">
        <ele>57</ele>
        <time>2014-11-09T11:30:18Z</time>
      </trkpt>
      <trkpt lat="47.00379" lon="-1.02393">
        <ele>50</ele>
        <time>2014-11-09T11:30:22Z</time>
      </trkpt>
      <trkpt lat="47.0038" lon="-1.02381">
        <ele>52</ele>
        <time>2014-11-09T11:30:32Z</time>
      </trkpt>
      <trkpt lat="47.00378" lon="-1.02369">
        <ele>66</ele>
        <time>2014-11-09T11:30:38Z</time>
      </trkpt>
      <trkpt lat="47.00377" lon="-1.02356">
        <ele>66</ele>
        <time>2014-11-09T11:30:45Z</time>
      </trkpt>
      <trkpt lat="47.00376" lon="-1.02343">
        <ele>58</ele>
        <time>2014-11-09T11:30:55Z</time>
      </trkpt>
      <trkpt lat="47.00374" lon="-1.02335">
        <ele>56</ele>
        <time>2014-11-09T11:31:00Z</time>
      </trkpt>
      <trkpt lat="47.0037" lon="-1.02325">
        <ele>56</ele>
        <time>2014-11-09T11:31:04Z</time>
      </trkpt>
      <trkpt lat="47.00371" lon="-1.0232">
        <ele>50</ele>
        <time>2014-11-09T11:31:35Z</time>
      </trkpt>
      <trkpt lat="47.00379" lon="-1.02272">
        <ele>46</ele>
        <time>2014-11-09T11:31:36Z</time>
      </trkpt>
      <trkpt lat="47.00382" lon="-1.02269">
        <ele>46</ele>
        <time>2014-11-09T11:31:46Z</time>
      </trkpt>
      <trkpt lat="47.00393" lon="-1.02255">
        <ele>58</ele>
        <time>2014-11-09T11:31:46Z</time>
      </trkpt>
      <trkpt lat="47.00401" lon="-1.02249">
        <ele>61</ele>
        <time>2014-11-09T11:33:37Z</time>
      </trkpt>
      <trkpt lat="47.00404" lon="-1.02242">
        <ele>59</ele>
        <time>2014-11-09T11:34:09Z</time>
      </trkpt>
      <trkpt lat="47.00455" lon="-1.0219">
        <ele>55</ele>
        <time>2014-11-09T11:34:09Z</time>
      </trkpt>
      <trkpt lat="47.00457" lon="-1.02187">
        <ele>56</ele>
        <time>2014-11-09T11:34:38Z</time>
      </trkpt>
      <trkpt lat="47.00488" lon="-1.02066">
        <ele>56</ele>
        <time>2014-11-09T11:34:39Z</time>
      </trkpt>
      <trkpt lat="47.00488" lon="-1.02062">
        <ele>56</ele>
        <time>2014-11-09T11:35:00Z</time>
      </trkpt>
      <trkpt lat="47.00493" lon="-1.02002">
        <ele>56</ele>
        <time>2014-11-09T11:35:10Z</time>
      </trkpt>
      <trkpt lat="47.00494" lon="-1.0199">
        <ele>52</ele>
        <time>2014-11-09T11:37:28Z</time>
      </trkpt>
      <trkpt lat="47.00496" lon="-1.01977">
        <ele>51</ele>
        <time>2014-11-09T11:37:34Z</time>
      </trkpt>
      <trkpt lat="47.00498" lon="-1.01965">
        <ele>52</ele>
        <time>2014-11-09T11:37:39Z</time>
      </trkpt>
      <trkpt lat="47.005" lon="-1.01953">
        <ele>52</ele>
        <time>2014-11-09T11:37:44Z</time>
      </trkpt>
      <trkpt lat="47.005" lon="-1.0194">
        <ele>52</ele>
        <time>2014-11-09T11:37:49Z</time>
      </trkpt>
      <trkpt lat="47.00499" lon="-1.01927">
        <ele>52</ele>
        <time>2014-11-09T11:37:53Z</time>
      </trkpt>
      <trkpt lat="47.00497" lon="-1.0191">
        <ele>53</ele>
        <time>2014-11-09T11:37:58Z</time>
      </trkpt>
      <trkpt lat="47.00494" lon="-1.01894">
        <ele>52</ele>
        <time>2014-11-09T11:38:02Z</time>
      </trkpt>
      <trkpt lat="47.00491" lon="-1.01874">
        <ele>52</ele>
        <time>2014-11-09T11:38:06Z</time>
      </trkpt>
      <trkpt lat="47.00489" lon="-1.01856">
        <ele>51</ele>
        <time>2014-11-09T11:38:10Z</time>
      </trkpt>
      <trkpt lat="47.00483" lon="-1.01838">
        <ele>51</ele>
        <time>2014-11-09T11:38:15Z</time>
      </trkpt>
      <trkpt lat="47.00477" lon="-1.01818">
        <ele>52</ele>
        <time>2014-11-09T11:38:20Z</time>
      </trkpt>
      <trkpt lat="47.00467" lon="-1.01799">
        <ele>53</ele>
        <time>2014-11-09T11:38:25Z</time>
      </trkpt>
      <trkpt lat="47.00458" lon="-1.01788">
        <ele>53</ele>
        <time>2014-11-09T11:38:29Z</time>
      </trkpt>
      <trkpt lat="47.00449" lon="-1.01779">
        <ele>54</ele>
        <time>2014-11-09T11:38:33Z</time>
      </trkpt>
      <trkpt lat="47.00436" lon="-1.01768">
        <ele>53</ele>
        <time>2014-11-09T11:38:38Z</time>
      </trkpt>
      <trkpt lat="47.00426" lon="-1.01757">
        <ele>52</ele>
        <time>2014-11-09T11:38:43Z</time>
      </trkpt>
      <trkpt lat="47.00414" lon="-1.0175">
        <ele>52</ele>
        <time>2014-11-09T11:38:47Z</time>
      </trkpt>
      <trkpt lat="47.00405" lon="-1.01743">
        <ele>53</ele>
        <time>2014-11-09T11:38:51Z</time>
      </trkpt>
      <trkpt lat="47.00393" lon="-1.01738">
        <ele>54</ele>
        <time>2014-11-09T11:38:56Z</time>
      </trkpt>
      <trkpt lat="47.00388" lon="-1.0173">
        <ele>54</ele>
        <time>2014-11-09T11:39:00Z</time>
      </trkpt>
      <trkpt lat="47.0039" lon="-1.01732">
        <ele>55</ele>
        <time>2014-11-09T11:39:20Z</time>
      </trkpt>
      <trkpt lat="47.00417" lon="-1.0175">
        <ele>53</ele>
        <time>2014-11-09T11:39:23Z</time>
      </trkpt>
      <trkpt lat="47.00429" lon="-1.0176">
        <ele>53</ele>
        <time>2014-11-09T11:39:27Z</time>
      </trkpt>
      <trkpt lat="47.0044" lon="-1.01773">
        <ele>53</ele>
        <time>2014-11-09T11:39:31Z</time>
      </trkpt>
      <trkpt lat="47.00454" lon="-1.01785">
        <ele>51</ele>
        <time>2014-11-09T11:39:36Z</time>
      </trkpt>
      <trkpt lat="47.00461" lon="-1.01799">
        <ele>51</ele>
        <time>2014-11-09T11:39:41Z</time>
      </trkpt>
      <trkpt lat="47.00456" lon="-1.01789">
        <ele>51</ele>
        <time>2014-11-09T11:39:49Z</time>
      </trkpt>
      <trkpt lat="47.00449" lon="-1.01781">
        <ele>53</ele>
        <time>2014-11-09T11:39:54Z</time>
      </trkpt>
      <trkpt lat="47.00439" lon="-1.01773">
        <ele>53</ele>
        <time>2014-11-09T11:39:58Z</time>
      </trkpt>
      <trkpt lat="47.00429" lon="-1.01762">
        <ele>54</ele>
        <time>2014-11-09T11:40:02Z</time>
      </trkpt>
      <trkpt lat="47.00421" lon="-1.01755">
        <ele>54</ele>
        <time>2014-11-09T11:40:05Z</time>
      </trkpt>
      <trkpt lat="47.00407" lon="-1.01745">
        <ele>54</ele>
        <time>2014-11-09T11:40:10Z</time>
      </trkpt>
      <trkpt lat="47.00397" lon="-1.0174">
        <ele>54</ele>
        <time>2014-11-09T11:40:15Z</time>
      </trkpt>
      <trkpt lat="47.00392" lon="-1.01738">
        <ele>55</ele>
        <time>2014-11-09T11:40:27Z</time>
      </trkpt>
      <trkpt lat="47.00384" lon="-1.01725">
        <ele>54</ele>
        <time>2014-11-09T11:40:27Z</time>
      </trkpt>
      <trkpt lat="47.00373" lon="-1.01716">
        <ele>56</ele>
        <time>2014-11-09T11:40:33Z</time>
      </trkpt>
      <trkpt lat="47.00364" lon="-1.01707">
        <ele>55</ele>
        <time>2014-11-09T11:40:37Z</time>
      </trkpt>
      <trkpt lat="47.00356" lon="-1.01699">
        <ele>54</ele>
        <time>2014-11-09T11:40:41Z</time>
      </trkpt>
      <trkpt lat="47.00348" lon="-1.01691">
        <ele>54</ele>
        <time>2014-11-09T11:40:45Z</time>
      </trkpt>
      <trkpt lat="47.00338" lon="-1.01683">
        <ele>54</ele>
        <time>2014-11-09T11:40:50Z</time>
      </trkpt>
      <trkpt lat="47.00328" lon="-1.01675">
        <ele>53</ele>
        <time>2014-11-09T11:40:55Z</time>
      </trkpt>
      <trkpt lat="47.00321" lon="-1.01669">
        <ele>53</ele>
        <time>2014-11-09T11:41:00Z</time>
      </trkpt>
      <trkpt lat="47.00311" lon="-1.01663">
        <ele>52</ele>
        <time>2014-11-09T11:41:04Z</time>
      </trkpt>
      <trkpt lat="47.00307" lon="-1.01651">
        <ele>52</ele>
        <time>2014-11-09T11:41:09Z</time>
      </trkpt>
      <trkpt lat="47.003" lon="-1.01642">
        <ele>52</ele>
        <time>2014-11-09T11:41:14Z</time>
      </trkpt>
      <trkpt lat="47.00295" lon="-1.01634">
        <ele>54</ele>
        <time>2014-11-09T11:41:18Z</time>
      </trkpt>
      <trkpt lat="47.00289" lon="-1.01625">
        <ele>56</ele>
        <time>2014-11-09T11:41:23Z</time>
      </trkpt>
      <trkpt lat="47.00285" lon="-1.01615">
        <ele>57</ele>
        <time>2014-11-09T11:41:29Z</time>
      </trkpt>
      <trkpt lat="47.00279" lon="-1.01607">
        <ele>57</ele>
        <time>2014-11-09T11:41:33Z</time>
      </trkpt>
      <trkpt lat="47.00274" lon="-1.01596">
        <ele>55</ele>
        <time>2014-11-09T11:41:39Z</time>
      </trkpt>
      <trkpt lat="47.00269" lon="-1.01586">
        <ele>56</ele>
        <time>2014-11-09T11:42:05Z</time>
      </trkpt>
      <trkpt lat="47.00269" lon="-1.01573">
        <ele>56</ele>
        <time>2014-11-09T11:43:04Z</time>
      </trkpt>
      <trkpt lat="47.00263" lon="-1.01581">
        <ele>55</ele>
        <time>2014-11-09T11:44:09Z</time>
      </trkpt>
      <trkpt lat="47.00256" lon="-1.01598">
        <ele>54</ele>
        <time>2014-11-09T11:44:14Z</time>
      </trkpt>
      <trkpt lat="47.00252" lon="-1.01614">
        <ele>54</ele>
        <time>2014-11-09T11:44:18Z</time>
      </trkpt>
      <trkpt lat="47.00248" lon="-1.01627">
        <ele>58</ele>
        <time>2014-11-09T11:44:22Z</time>
      </trkpt>
      <trkpt lat="47.00245" lon="-1.01615">
        <ele>58</ele>
        <time>2014-11-09T11:49:12Z</time>
      </trkpt>
      <trkpt lat="47.00248" lon="-1.01595">
        <ele>58</ele>
        <time>2014-11-09T11:49:16Z</time>
      </trkpt>
      <trkpt lat="47.00257" lon="-1.01574">
        <ele>56</ele>
        <time>2014-11-09T11:49:21Z</time>
      </trkpt>
      <trkpt lat="47.00263" lon="-1.01567">
        <ele>58</ele>
        <time>2014-11-09T11:49:30Z</time>
      </trkpt>
      <trkpt lat="47.00267" lon="-1.01559">
        <ele>58</ele>
        <time>2014-11-09T11:49:35Z</time>
      </trkpt>
      <trkpt lat="47.00275" lon="-1.01547">
        <ele>59</ele>
        <time>2014-11-09T11:49:39Z</time>
      </trkpt>
      <trkpt lat="47.00285" lon="-1.01529">
        <ele>59</ele>
        <time>2014-11-09T11:49:44Z</time>
      </trkpt>
      <trkpt lat="47.00278" lon="-1.01526">
        <ele>62</ele>
        <time>2014-11-09T11:50:28Z</time>
      </trkpt>
      <trkpt lat="47.00272" lon="-1.01517">
        <ele>60</ele>
        <time>2014-11-09T11:50:37Z</time>
      </trkpt>
      <trkpt lat="47.00267" lon="-1.01506">
        <ele>59</ele>
        <time>2014-11-09T11:51:37Z</time>
      </trkpt>
      <trkpt lat="47.00261" lon="-1.01499">
        <ele>59</ele>
        <time>2014-11-09T11:51:42Z</time>
      </trkpt>
      <trkpt lat="47.00242" lon="-1.01476">
        <ele>59</ele>
        <time>2014-11-09T11:51:47Z</time>
      </trkpt>
      <trkpt lat="47.00226" lon="-1.0146">
        <ele>60</ele>
        <time>2014-11-09T11:51:51Z</time>
      </trkpt>
      <trkpt lat="47.00211" lon="-1.0145">
        <ele>59</ele>
        <time>2014-11-09T11:51:55Z</time>
      </trkpt>
      <trkpt lat="47.00202" lon="-1.01441">
        <ele>59</ele>
        <time>2014-11-09T11:51:59Z</time>
      </trkpt>
      <trkpt lat="47.00189" lon="-1.01429">
        <ele>59</ele>
        <time>2014-11-09T11:52:04Z</time>
      </trkpt>
      <trkpt lat="47.00182" lon="-1.01411">
        <ele>58</ele>
        <time>2014-11-09T11:52:09Z</time>
      </trkpt>
      <trkpt lat="47.0018" lon="-1.01395">
        <ele>57</ele>
        <time>2014-11-09T11:52:13Z</time>
      </trkpt>
      <trkpt lat="47.00182" lon="-1.01379">
        <ele>57</ele>
        <time>2014-11-09T11:52:35Z</time>
      </trkpt>
      <trkpt lat="47.00182" lon="-1.01312">
        <ele>58</ele>
        <time>2014-11-09T11:52:35Z</time>
      </trkpt>
      <trkpt lat="47.00182" lon="-1.01308">
        <ele>58</ele>
        <time>2014-11-09T11:52:45Z</time>
      </trkpt>
      <trkpt lat="47.0018" lon="-1.01277">
        <ele>59</ele>
        <time>2014-11-09T11:52:45Z</time>
      </trkpt>
      <trkpt lat="47.00181" lon="-1.01258">
        <ele>59</ele>
        <time>2014-11-09T11:52:50Z</time>
      </trkpt>
      <trkpt lat="47.00184" lon="-1.01237">
        <ele>60</ele>
        <time>2014-11-09T11:52:59Z</time>
      </trkpt>
      <trkpt lat="47.00185" lon="-1.01229">
        <ele>60</ele>
        <time>2014-11-09T11:53:08Z</time>
      </trkpt>
      <trkpt lat="47.00191" lon="-1.01214">
        <ele>62</ele>
        <time>2014-11-09T11:53:08Z</time>
      </trkpt>
      <trkpt lat="47.00196" lon="-1.01207">
        <ele>61</ele>
        <time>2014-11-09T11:53:49Z</time>
      </trkpt>
      <trkpt lat="47.0021" lon="-1.01188">
        <ele>60</ele>
        <time>2014-11-09T11:53:54Z</time>
      </trkpt>
      <trkpt lat="47.00223" lon="-1.0117">
        <ele>59</ele>
        <time>2014-11-09T11:53:58Z</time>
      </trkpt>
      <trkpt lat="47.00226" lon="-1.01142">
        <ele>63</ele>
        <time>2014-11-09T11:54:03Z</time>
      </trkpt>
      <trkpt lat="47.00223" lon="-1.01127">
        <ele>62</ele>
        <time>2014-11-09T11:54:08Z</time>
      </trkpt>
      <trkpt lat="47.00224" lon="-1.01116">
        <ele>62</ele>
        <time>2014-11-09T11:54:36Z</time>
      </trkpt>
      <trkpt lat="47.00222" lon="-1.01085">
        <ele>62</ele>
        <time>2014-11-09T11:54:41Z</time>
      </trkpt>
      <trkpt lat="47.00219" lon="-1.0106">
        <ele>63</ele>
        <time>2014-11-09T11:54:45Z</time>
      </trkpt>
      <trkpt lat="47.00219" lon="-1.01038">
        <ele>64</ele>
        <time>2014-11-09T11:54:49Z</time>
      </trkpt>
      <trkpt lat="47.0022" lon="-1.01016">
        <ele>64</ele>
        <time>2014-11-09T11:54:53Z</time>
      </trkpt>
      <trkpt lat="47.00224" lon="-1.00989">
        <ele>62</ele>
        <time>2014-11-09T11:54:58Z</time>
      </trkpt>
      <trkpt lat="47.00224" lon="-1.00964">
        <ele>63</ele>
        <time>2014-11-09T11:55:03Z</time>
      </trkpt>
      <trkpt lat="47.00223" lon="-1.00933">
        <ele>64</ele>
        <time>2014-11-09T11:55:08Z</time>
      </trkpt>
      <trkpt lat="47.00223" lon="-1.00904">
        <ele>63</ele>
        <time>2014-11-09T11:55:12Z</time>
      </trkpt>
      <trkpt lat="47.00223" lon="-1.00871">
        <ele>62</ele>
        <time>2014-11-09T11:55:16Z</time>
      </trkpt>
      <trkpt lat="47.00224" lon="-1.00846">
        <ele>61</ele>
        <time>2014-11-09T11:55:19Z</time>
      </trkpt>
      <trkpt lat="47.00224" lon="-1.00825">
        <ele>60</ele>
        <time>2014-11-09T11:55:22Z</time>
      </trkpt>
      <trkpt lat="47.00224" lon="-1.00795">
        <ele>60</ele>
        <time>2014-11-09T11:55:27Z</time>
      </trkpt>
      <trkpt lat="47.00222" lon="-1.00764">
        <ele>58</ele>
        <time>2014-11-09T11:55:32Z</time>
      </trkpt>
      <trkpt lat="47.00221" lon="-1.0074">
        <ele>57</ele>
        <time>2014-11-09T11:55:36Z</time>
      </trkpt>
      <trkpt lat="47.00219" lon="-1.00711">
        <ele>60</ele>
        <time>2014-11-09T11:55:41Z</time>
      </trkpt>
      <trkpt lat="47.00218" lon="-1.00683">
        <ele>60</ele>
        <time>2014-11-09T11:55:46Z</time>
      </trkpt>
      <trkpt lat="47.00218" lon="-1.0066">
        <ele>63</ele>
        <time>2014-11-09T11:55:50Z</time>
      </trkpt>
      <trkpt lat="47.00218" lon="-1.00625">
        <ele>63</ele>
        <time>2014-11-09T11:55:55Z</time>
      </trkpt>
      <trkpt lat="47.00218" lon="-1.00589">
        <ele>64</ele>
        <time>2014-11-09T11:55:59Z</time>
      </trkpt>
      <trkpt lat="47.00221" lon="-1.0056">
        <ele>67</ele>
        <time>2014-11-09T11:56:03Z</time>
      </trkpt>
      <trkpt lat="47.00224" lon="-1.0053">
        <ele>62</ele>
        <time>2014-11-09T11:56:08Z</time>
      </trkpt>
      <trkpt lat="47.00219" lon="-1.00496">
        <ele>64</ele>
        <time>2014-11-09T11:56:12Z</time>
      </trkpt>
      <trkpt lat="47.00213" lon="-1.00469">
        <ele>64</ele>
        <time>2014-11-09T11:56:16Z</time>
      </trkpt>
      <trkpt lat="47.00213" lon="-1.00434">
        <ele>63</ele>
        <time>2014-11-09T11:56:21Z</time>
      </trkpt>
      <trkpt lat="47.0021" lon="-1.0041">
        <ele>61</ele>
        <time>2014-11-09T11:56:26Z</time>
      </trkpt>
      <trkpt lat="47.00206" lon="-1.00393">
        <ele>59</ele>
        <time>2014-11-09T11:56:30Z</time>
      </trkpt>
      <trkpt lat="47.00202" lon="-1.00382">
        <ele>60</ele>
        <time>2014-11-09T11:56:34Z</time>
      </trkpt>
      <trkpt lat="47.00201" lon="-1.00378">
        <ele>60</ele>
        <time>2014-11-09T11:56:41Z</time>
      </trkpt>
      <trkpt lat="47.00186" lon="-1.00322">
        <ele>62</ele>
        <time>2014-11-09T11:57:15Z</time>
      </trkpt>
      <trkpt lat="47.00167" lon="-1.00244">
        <ele>65</ele>
        <time>2014-11-09T11:57:19Z</time>
      </trkpt>
      <trkpt lat="47.00163" lon="-1.00237">
        <ele>67</ele>
        <time>2014-11-09T11:58:03Z</time>
      </trkpt>
      <trkpt lat="47.00157" lon="-1.00221">
        <ele>64</ele>
        <time>2014-11-09T11:58:07Z</time>
      </trkpt>
      <trkpt lat="47.00151" lon="-1.0021">
        <ele>65</ele>
        <time>2014-11-09T11:58:12Z</time>
      </trkpt>
      <trkpt lat="47.00149" lon="-1.00206">
        <ele>65</ele>
        <time>2014-11-09T11:58:18Z</time>
      </trkpt>
      <trkpt lat="47.00134" lon="-1.00174">
        <ele>62</ele>
        <time>2014-11-09T11:58:21Z</time>
      </trkpt>
      <trkpt lat="47.00131" lon="-1.00166">
        <ele>63</ele>
        <time>2014-11-09T11:58:27Z</time>
      </trkpt>
      <trkpt lat="47.00129" lon="-1.00158">
        <ele>62</ele>
        <time>2014-11-09T11:58:34Z</time>
      </trkpt>
      <trkpt lat="47.00124" lon="-1.00131">
        <ele>66</ele>
        <time>2014-11-09T11:58:53Z</time>
      </trkpt>
      <trkpt lat="47.00119" lon="-1.0006">
        <ele>68</ele>
        <time>2014-11-09T11:58:53Z</time>
      </trkpt>
      <trkpt lat="47.0012" lon="-1.00032">
        <ele>62</ele>
        <time>2014-11-09T11:58:59Z</time>
      </trkpt>
      <trkpt lat="47.00121" lon="-1.00007">
        <ele>62</ele>
        <time>2014-11-09T11:59:03Z</time>
      </trkpt>
      <trkpt lat="47.00122" lon="-0.99986">
        <ele>62</ele>
        <time>2014-11-09T11:59:07Z</time>
      </trkpt>
      <trkpt lat="47.00125" lon="-0.99966">
        <ele>63</ele>
        <time>2014-11-09T11:59:11Z</time>
      </trkpt>
      <trkpt lat="47.00127" lon="-0.99944">
        <ele>61</ele>
        <time>2014-11-09T11:59:15Z</time>
      </trkpt>
      <trkpt lat="47.00129" lon="-0.99928">
        <ele>61</ele>
        <time>2014-11-09T11:59:18Z</time>
      </trkpt>
      <trkpt lat="47.0013" lon="-0.99923">
        <ele>60</ele>
        <time>2014-11-09T11:59:41Z</time>
      </trkpt>
      <trkpt lat="47.00153" lon="-0.99865">
        <ele>63</ele>
        <time>2014-11-09T11:59:41Z</time>
      </trkpt>
      <trkpt lat="47.0015" lon="-0.99853">
        <ele>66</ele>
        <time>2014-11-09T11:59:49Z</time>
      </trkpt>
      <trkpt lat="47.0015" lon="-0.9985">
        <ele>67</ele>
        <time>2014-11-09T12:00:00Z</time>
      </trkpt>
      <trkpt lat="47.00135" lon="-0.99819">
        <ele>64</ele>
        <time>2014-11-09T12:00:04Z</time>
      </trkpt>
      <trkpt lat="47.00128" lon="-0.99813">
        <ele>67</ele>
        <time>2014-11-09T12:00:08Z</time>
      </trkpt>
      <trkpt lat="47.00115" lon="-0.99792">
        <ele>66</ele>
        <time>2014-11-09T12:00:12Z</time>
      </trkpt>
      <trkpt lat="47.00107" lon="-0.99761">
        <ele>68</ele>
        <time>2014-11-09T12:00:17Z</time>
      </trkpt>
      <trkpt lat="47.00101" lon="-0.99738">
        <ele>65</ele>
        <time>2014-11-09T12:00:21Z</time>
      </trkpt>
      <trkpt lat="47.00098" lon="-0.99714">
        <ele>60</ele>
        <time>2014-11-09T12:00:25Z</time>
      </trkpt>
      <trkpt lat="47.00096" lon="-0.99677">
        <ele>60</ele>
        <time>2014-11-09T12:00:30Z</time>
      </trkpt>
      <trkpt lat="47.00096" lon="-0.99653">
        <ele>58</ele>
        <time>2014-11-09T12:00:35Z</time>
      </trkpt>
      <trkpt lat="47.00095" lon="-0.99641">
        <ele>58</ele>
        <time>2014-11-09T12:00:41Z</time>
      </trkpt>
      <trkpt lat="47.00093" lon="-0.99629">
        <ele>59</ele>
        <time>2014-11-09T12:00:46Z</time>
      </trkpt>
      <trkpt lat="47.00093" lon="-0.99617">
        <ele>65</ele>
        <time>2014-11-09T12:00:52Z</time>
      </trkpt>
      <trkpt lat="47.00095" lon="-0.99605">
        <ele>60</ele>
        <time>2014-11-09T12:01:00Z</time>
      </trkpt>
      <trkpt lat="47.00096" lon="-0.99593">
        <ele>60</ele>
        <time>2014-11-09T12:01:07Z</time>
      </trkpt>
      <trkpt lat="47.00096" lon="-0.99591">
        <ele>61</ele>
        <time>2014-11-09T12:01:08Z</time>
      </trkpt>
      <trkpt lat="47.0008" lon="-0.99562">
        <ele>66</ele>
        <time>2014-11-09T12:01:47Z</time>
      </trkpt>
      <trkpt lat="47.00075" lon="-0.99524">
        <ele>65</ele>
        <time>2014-11-09T12:02:00Z</time>
      </trkpt>
      <trkpt lat="47.00065" lon="-0.99492">
        <ele>63</ele>
        <time>2014-11-09T12:02:04Z</time>
      </trkpt>
      <trkpt lat="47.00066" lon="-0.99477">
        <ele>63</ele>
        <time>2014-11-09T12:02:08Z</time>
      </trkpt>
      <trkpt lat="47.00068" lon="-0.99464">
        <ele>61</ele>
        <time>2014-11-09T12:02:13Z</time>
      </trkpt>
      <trkpt lat="47.00072" lon="-0.99451">
        <ele>56</ele>
        <time>2014-11-09T12:02:17Z</time>
      </trkpt>
      <trkpt lat="47.00076" lon="-0.99432">
        <ele>59</ele>
        <time>2014-11-09T12:02:22Z</time>
      </trkpt>
      <trkpt lat="47.00073" lon="-0.99409">
        <ele>62</ele>
        <time>2014-11-09T12:02:27Z</time>
      </trkpt>
      <trkpt lat="47.00071" lon="-0.99391">
        <ele>64</ele>
        <time>2014-11-09T12:02:31Z</time>
      </trkpt>
      <trkpt lat="47.0007" lon="-0.99375">
        <ele>61</ele>
        <time>2014-11-09T12:02:35Z</time>
      </trkpt>
      <trkpt lat="47.00066" lon="-0.99357">
        <ele>58</ele>
        <time>2014-11-09T12:02:40Z</time>
      </trkpt>
      <trkpt lat="47.0006" lon="-0.9934">
        <ele>59</ele>
        <time>2014-11-09T12:02:45Z</time>
      </trkpt>
      <trkpt lat="47.00053" lon="-0.99328">
        <ele>57</ele>
        <time>2014-11-09T12:02:49Z</time>
      </trkpt>
      <trkpt lat="47.00047" lon="-0.9931">
        <ele>59</ele>
        <time>2014-11-09T12:02:54Z</time>
      </trkpt>
      <trkpt lat="47.00044" lon="-0.99299">
        <ele>63</ele>
        <time>2014-11-09T12:02:59Z</time>
      </trkpt>
      <trkpt lat="47.00043" lon="-0.99286">
        <ele>64</ele>
        <time>2014-11-09T12:03:06Z</time>
      </trkpt>
      <trkpt lat="47.00039" lon="-0.99274">
        <ele>63</ele>
        <time>2014-11-09T12:03:11Z</time>
      </trkpt>
      <trkpt lat="47.0003" lon="-0.99262">
        <ele>62</ele>
        <time>2014-11-09T12:03:15Z</time>
      </trkpt>
      <trkpt lat="47.00023" lon="-0.9927">
        <ele>60</ele>
        <time>2014-11-09T12:03:21Z</time>
      </trkpt>
      <trkpt lat="47.00027" lon="-0.99258">
        <ele>50</ele>
        <time>2014-11-09T12:03:52Z</time>
      </trkpt>
      <trkpt lat="47.00027" lon="-0.99243">
        <ele>52</ele>
        <time>2014-11-09T12:03:57Z</time>
      </trkpt>
      <trkpt lat="47.00024" lon="-0.99226">
        <ele>53</ele>
        <time>2014-11-09T12:04:01Z</time>
      </trkpt>
      <trkpt lat="47.00014" lon="-0.99211">
        <ele>56</ele>
        <time>2014-11-09T12:04:06Z</time>
      </trkpt>
      <trkpt lat="47.00004" lon="-0.992">
        <ele>58</ele>
        <time>2014-11-09T12:04:10Z</time>
      </trkpt>
      <trkpt lat="46.99994" lon="-0.99183">
        <ele>57</ele>
        <time>2014-11-09T12:04:15Z</time>
      </trkpt>
      <trkpt lat="46.99985" lon="-0.99155">
        <ele>56</ele>
        <time>2014-11-09T12:04:20Z</time>
      </trkpt>
      <trkpt lat="46.99979" lon="-0.99132">
        <ele>54</ele>
        <time>2014-11-09T12:04:24Z</time>
      </trkpt>
      <trkpt lat="46.99978" lon="-0.99103">
        <ele>54</ele>
        <time>2014-11-09T12:04:29Z</time>
      </trkpt>
      <trkpt lat="46.99976" lon="-0.99079">
        <ele>55</ele>
        <time>2014-11-09T12:04:33Z</time>
      </trkpt>
      <trkpt lat="46.99974" lon="-0.99053">
        <ele>59</ele>
        <time>2014-11-09T12:04:38Z</time>
      </trkpt>
      <trkpt lat="46.99973" lon="-0.99048">
        <ele>60</ele>
        <time>2014-11-09T12:04:39Z</time>
      </trkpt>
      <trkpt lat="46.99973" lon="-0.99037">
        <ele>60</ele>
        <time>2014-11-09T12:05:00Z</time>
      </trkpt>
      <trkpt lat="46.99985" lon="-0.98907">
        <ele>60</ele>
        <time>2014-11-09T12:05:05Z</time>
      </trkpt>
      <trkpt lat="46.99999" lon="-0.98899">
        <ele>62</ele>
        <time>2014-11-09T12:05:09Z</time>
      </trkpt>
      <trkpt lat="47.00006" lon="-0.98887">
        <ele>61</ele>
        <time>2014-11-09T12:05:13Z</time>
      </trkpt>
      <trkpt lat="47.00008" lon="-0.98869">
        <ele>62</ele>
        <time>2014-11-09T12:05:18Z</time>
      </trkpt>
      <trkpt lat="47.00002" lon="-0.98855">
        <ele>61</ele>
        <time>2014-11-09T12:05:22Z</time>
      </trkpt>
      <trkpt lat="46.99995" lon="-0.98844">
        <ele>62</ele>
        <time>2014-11-09T12:05:26Z</time>
      </trkpt>
      <trkpt lat="46.99986" lon="-0.98832">
        <ele>64</ele>
        <time>2014-11-09T12:05:31Z</time>
      </trkpt>
      <trkpt lat="46.9998" lon="-0.98818">
        <ele>64</ele>
        <time>2014-11-09T12:05:35Z</time>
      </trkpt>
      <trkpt lat="46.99963" lon="-0.98777">
        <ele>61</ele>
        <time>2014-11-09T12:05:40Z</time>
      </trkpt>
      <trkpt lat="46.99948" lon="-0.98759">
        <ele>60</ele>
        <time>2014-11-09T12:05:44Z</time>
      </trkpt>
      <trkpt lat="46.99929" lon="-0.98741">
        <ele>58</ele>
        <time>2014-11-09T12:05:49Z</time>
      </trkpt>
      <trkpt lat="46.99926" lon="-0.98711">
        <ele>55</ele>
        <time>2014-11-09T12:05:53Z</time>
      </trkpt>
      <trkpt lat="46.99921" lon="-0.98677">
        <ele>57</ele>
        <time>2014-11-09T12:05:58Z</time>
      </trkpt>
      <trkpt lat="46.99919" lon="-0.98672">
        <ele>57</ele>
        <time>2014-11-09T12:06:00Z</time>
      </trkpt>
      <trkpt lat="46.99918" lon="-0.98664">
        <ele>59</ele>
        <time>2014-11-09T12:06:27Z</time>
      </trkpt>
      <trkpt lat="46.9989" lon="-0.98517">
        <ele>63</ele>
        <time>2014-11-09T12:06:28Z</time>
      </trkpt>
      <trkpt lat="46.99888" lon="-0.98511">
        <ele>62</ele>
        <time>2014-11-09T12:06:50Z</time>
      </trkpt>
      <trkpt lat="46.99838" lon="-0.98373">
        <ele>65</ele>
        <time>2014-11-09T12:06:53Z</time>
      </trkpt>
      <trkpt lat="46.99836" lon="-0.9836">
        <ele>64</ele>
        <time>2014-11-09T12:06:56Z</time>
      </trkpt>
      <trkpt lat="46.99833" lon="-0.98348">
        <ele>64</ele>
        <time>2014-11-09T12:07:00Z</time>
      </trkpt>
      <trkpt lat="46.99828" lon="-0.98329">
        <ele>64</ele>
        <time>2014-11-09T12:07:21Z</time>
      </trkpt>
      <trkpt lat="46.99791" lon="-0.98201">
        <ele>60</ele>
        <time>2014-11-09T12:07:24Z</time>
      </trkpt>
      <trkpt lat="46.99784" lon="-0.98181">
        <ele>62</ele>
        <time>2014-11-09T12:07:27Z</time>
      </trkpt>
      <trkpt lat="46.99785" lon="-0.98172">
        <ele>61</ele>
        <time>2014-11-09T12:07:42Z</time>
      </trkpt>
      <trkpt lat="46.99742" lon="-0.98059">
        <ele>66</ele>
        <time>2014-11-09T12:07:46Z</time>
      </trkpt>
      <trkpt lat="46.99721" lon="-0.98029">
        <ele>66</ele>
        <time>2014-11-09T12:07:51Z</time>
      </trkpt>
      <trkpt lat="46.99705" lon="-0.98005">
        <ele>65</ele>
        <time>2014-11-09T12:07:55Z</time>
      </trkpt>
      <trkpt lat="46.99691" lon="-0.97983">
        <ele>65</ele>
        <time>2014-11-09T12:07:59Z</time>
      </trkpt>
      <trkpt lat="46.9968" lon="-0.97958">
        <ele>65</ele>
        <time>2014-11-09T12:08:03Z</time>
      </trkpt>
      <trkpt lat="46.99675" lon="-0.97937">
        <ele>64</ele>
        <time>2014-11-09T12:08:06Z</time>
      </trkpt>
      <trkpt lat="46.9967" lon="-0.97915">
        <ele>64</ele>
        <time>2014-11-09T12:08:10Z</time>
      </trkpt>
      <trkpt lat="46.99652" lon="-0.97885">
        <ele>60</ele>
        <time>2014-11-09T12:08:15Z</time>
      </trkpt>
      <trkpt lat="46.99639" lon="-0.9787">
        <ele>59</ele>
        <time>2014-11-09T12:08:18Z</time>
      </trkpt>
      <trkpt lat="46.99619" lon="-0.97853">
        <ele>59</ele>
        <time>2014-11-09T12:08:22Z</time>
      </trkpt>
      <trkpt lat="46.99609" lon="-0.97847">
        <ele>59</ele>
        <time>2014-11-09T12:08:24Z</time>
      </trkpt>
      <trkpt lat="46.99604" lon="-0.97846">
        <ele>59</ele>
        <time>2014-11-09T12:08:37Z</time>
      </trkpt>
      <trkpt lat="46.99549" lon="-0.97827">
        <ele>57</ele>
        <time>2014-11-09T12:08:55Z</time>
      </trkpt>
      <trkpt lat="46.99507" lon="-0.97647">
        <ele>57</ele>
        <time>2014-11-09T12:08:59Z</time>
      </trkpt>
      <trkpt lat="46.99505" lon="-0.97608">
        <ele>57</ele>
        <time>2014-11-09T12:09:03Z</time>
      </trkpt>
      <trkpt lat="46.995" lon="-0.97566">
        <ele>54</ele>
        <time>2014-11-09T12:09:08Z</time>
      </trkpt>
      <trkpt lat="46.995" lon="-0.97558">
        <ele>53</ele>
        <time>2014-11-09T12:09:14Z</time>
      </trkpt>
      <trkpt lat="46.99491" lon="-0.97491">
        <ele>58</ele>
        <time>2014-11-09T12:09:19Z</time>
      </trkpt>
      <trkpt lat="46.99487" lon="-0.97452">
        <ele>58</ele>
        <time>2014-11-09T12:09:26Z</time>
      </trkpt>
      <trkpt lat="46.99485" lon="-0.97397">
        <ele>57</ele>
        <time>2014-11-09T12:09:30Z</time>
      </trkpt>
      <trkpt lat="46.99488" lon="-0.97369">
        <ele>58</ele>
        <time>2014-11-09T12:09:34Z</time>
      </trkpt>
      <trkpt lat="46.99498" lon="-0.97331">
        <ele>58</ele>
        <time>2014-11-09T12:09:39Z</time>
      </trkpt>
      <trkpt lat="46.99508" lon="-0.97299">
        <ele>60</ele>
        <time>2014-11-09T12:09:44Z</time>
      </trkpt>
      <trkpt lat="46.9951" lon="-0.97271">
        <ele>60</ele>
        <time>2014-11-09T12:09:49Z</time>
      </trkpt>
      <trkpt lat="46.99516" lon="-0.97247">
        <ele>60</ele>
        <time>2014-11-09T12:09:53Z</time>
      </trkpt>
      <trkpt lat="46.99521" lon="-0.97227">
        <ele>57</ele>
        <time>2014-11-09T12:09:57Z</time>
      </trkpt>
      <trkpt lat="46.99528" lon="-0.97205">
        <ele>54</ele>
        <time>2014-11-09T12:10:01Z</time>
      </trkpt>
      <trkpt lat="46.99533" lon="-0.97185">
        <ele>55</ele>
        <time>2014-11-09T12:10:06Z</time>
      </trkpt>
      <trkpt lat="46.99532" lon="-0.97158">
        <ele>54</ele>
        <time>2014-11-09T12:10:10Z</time>
      </trkpt>
      <trkpt lat="46.99528" lon="-0.97137">
        <ele>54</ele>
        <time>2014-11-09T12:10:14Z</time>
      </trkpt>
      <trkpt lat="46.9953" lon="-0.97108">
        <ele>54</ele>
        <time>2014-11-09T12:10:19Z</time>
      </trkpt>
      <trkpt lat="46.99531" lon="-0.97085">
        <ele>55</ele>
        <time>2014-11-09T12:10:23Z</time>
      </trkpt>
      <trkpt lat="46.9953" lon="-0.97058">
        <ele>58</ele>
        <time>2014-11-09T12:10:28Z</time>
      </trkpt>
      <trkpt lat="46.99527" lon="-0.9703">
        <ele>56</ele>
        <time>2014-11-09T12:10:33Z</time>
      </trkpt>
      <trkpt lat="46.99529" lon="-0.97008">
        <ele>57</ele>
        <time>2014-11-09T12:10:37Z</time>
      </trkpt>
      <trkpt lat="46.99533" lon="-0.96981">
        <ele>59</ele>
        <time>2014-11-09T12:10:42Z</time>
      </trkpt>
      <trkpt lat="46.99534" lon="-0.96955">
        <ele>59</ele>
        <time>2014-11-09T12:10:46Z</time>
      </trkpt>
      <trkpt lat="46.99541" lon="-0.96931">
        <ele>62</ele>
        <time>2014-11-09T12:10:50Z</time>
      </trkpt>
      <trkpt lat="46.99544" lon="-0.96904">
        <ele>63</ele>
        <time>2014-11-09T12:10:54Z</time>
      </trkpt>
      <trkpt lat="46.99549" lon="-0.96875">
        <ele>62</ele>
        <time>2014-11-09T12:10:58Z</time>
      </trkpt>
      <trkpt lat="46.99561" lon="-0.96845">
        <ele>65</ele>
        <time>2014-11-09T12:11:03Z</time>
      </trkpt>
      <trkpt lat="46.99577" lon="-0.96815">
        <ele>66</ele>
        <time>2014-11-09T12:11:08Z</time>
      </trkpt>
      <trkpt lat="46.99591" lon="-0.96799">
        <ele>65</ele>
        <time>2014-11-09T12:11:12Z</time>
      </trkpt>
      <trkpt lat="46.99605" lon="-0.96779">
        <ele>63</ele>
        <time>2014-11-09T12:11:16Z</time>
      </trkpt>
      <trkpt lat="46.99627" lon="-0.96754">
        <ele>61</ele>
        <time>2014-11-09T12:11:21Z</time>
      </trkpt>
      <trkpt lat="46.99641" lon="-0.96731">
        <ele>62</ele>
        <time>2014-11-09T12:11:25Z</time>
      </trkpt>
      <trkpt lat="46.99646" lon="-0.96719">
        <ele>63</ele>
        <time>2014-11-09T12:11:27Z</time>
      </trkpt>
      <trkpt lat="46.99655" lon="-0.96696">
        <ele>62</ele>
        <time>2014-11-09T12:11:35Z</time>
      </trkpt>
      <trkpt lat="46.99661" lon="-0.96666">
        <ele>63</ele>
        <time>2014-11-09T12:11:39Z</time>
      </trkpt>
      <trkpt lat="46.99657" lon="-0.96647">
        <ele>63</ele>
        <time>2014-11-09T12:11:49Z</time>
      </trkpt>
      <trkpt lat="46.99655" lon="-0.96635">
        <ele>64</ele>
        <time>2014-11-09T12:12:52Z</time>
      </trkpt>
      <trkpt lat="46.99648" lon="-0.96618">
        <ele>66</ele>
        <time>2014-11-09T12:12:56Z</time>
      </trkpt>
      <trkpt lat="46.99637" lon="-0.96583">
        <ele>64</ele>
        <time>2014-11-09T12:13:01Z</time>
      </trkpt>
      <trkpt lat="46.99624" lon="-0.96561">
        <ele>64</ele>
        <time>2014-11-09T12:13:05Z</time>
      </trkpt>
      <trkpt lat="46.99607" lon="-0.96533">
        <ele>65</ele>
        <time>2014-11-09T12:13:10Z</time>
      </trkpt>
      <trkpt lat="46.99589" lon="-0.965">
        <ele>65</ele>
        <time>2014-11-09T12:13:15Z</time>
      </trkpt>
      <trkpt lat="46.99579" lon="-0.96475">
        <ele>65</ele>
        <time>2014-11-09T12:13:19Z</time>
      </trkpt>
      <trkpt lat="46.99567" lon="-0.96446">
        <ele>63</ele>
        <time>2014-11-09T12:13:24Z</time>
      </trkpt>
      <trkpt lat="46.99552" lon="-0.96418">
        <ele>89</ele>
        <time>2014-11-09T12:13:29Z</time>
      </trkpt>
      <trkpt lat="46.99549" lon="-0.96413">
        <ele>89</ele>
        <time>2014-11-09T12:13:30Z</time>
      </trkpt>
      <trkpt lat="46.99546" lon="-0.96407">
        <ele>89</ele>
        <time>2014-11-09T12:13:39Z</time>
      </trkpt>
      <trkpt lat="46.99484" lon="-0.96236">
        <ele>70</ele>
        <time>2014-11-09T12:14:00Z</time>
      </trkpt>
      <trkpt lat="46.99465" lon="-0.9618">
        <ele>75</ele>
        <time>2014-11-09T12:14:47Z</time>
      </trkpt>
      <trkpt lat="46.99431" lon="-0.96049">
        <ele>80</ele>
        <time>2014-11-09T12:14:47Z</time>
      </trkpt>
      <trkpt lat="46.99442" lon="-0.96027">
        <ele>88</ele>
        <time>2014-11-09T12:15:00Z</time>
      </trkpt>
      <trkpt lat="46.99447" lon="-0.96017">
        <ele>88</ele>
        <time>2014-11-09T12:15:05Z</time>
      </trkpt>
      <trkpt lat="46.99452" lon="-0.96007">
        <ele>88</ele>
        <time>2014-11-09T12:15:13Z</time>
      </trkpt>
      <trkpt lat="46.99459" lon="-0.95992">
        <ele>88</ele>
        <time>2014-11-09T12:15:17Z</time>
      </trkpt>
      <trkpt lat="46.99464" lon="-0.95982">
        <ele>87</ele>
        <time>2014-11-09T12:15:22Z</time>
      </trkpt>
      <trkpt lat="46.99465" lon="-0.95975">
        <ele>87</ele>
        <time>2014-11-09T12:15:29Z</time>
      </trkpt>
      <trkpt lat="46.99469" lon="-0.95951">
        <ele>87</ele>
        <time>2014-11-09T12:15:33Z</time>
      </trkpt>
      <trkpt lat="46.9947" lon="-0.95936">
        <ele>87</ele>
        <time>2014-11-09T12:15:38Z</time>
      </trkpt>
      <trkpt lat="46.99472" lon="-0.95923">
        <ele>87</ele>
        <time>2014-11-09T12:15:42Z</time>
      </trkpt>
      <trkpt lat="46.99471" lon="-0.95907">
        <ele>86</ele>
        <time>2014-11-09T12:15:47Z</time>
      </trkpt>
      <trkpt lat="46.9947" lon="-0.95893">
        <ele>87</ele>
        <time>2014-11-09T12:15:51Z</time>
      </trkpt>
      <trkpt lat="46.99468" lon="-0.95874">
        <ele>87</ele>
        <time>2014-11-09T12:15:56Z</time>
      </trkpt>
      <trkpt lat="46.99467" lon="-0.95863">
        <ele>87</ele>
        <time>2014-11-09T12:15:59Z</time>
      </trkpt>
      <trkpt lat="46.99466" lon="-0.95859">
        <ele>88</ele>
        <time>2014-11-09T12:16:01Z</time>
      </trkpt>
      <trkpt lat="46.99463" lon="-0.95833">
        <ele>89</ele>
        <time>2014-11-09T12:16:27Z</time>
      </trkpt>
      <trkpt lat="46.99407" lon="-0.95768">
        <ele>91</ele>
        <time>2014-11-09T12:16:32Z</time>
      </trkpt>
      <trkpt lat="46.99405" lon="-0.95743">
        <ele>93</ele>
        <time>2014-11-09T12:16:37Z</time>
      </trkpt>
      <trkpt lat="46.99405" lon="-0.95718">
        <ele>93</ele>
        <time>2014-11-09T12:16:41Z</time>
      </trkpt>
      <trkpt lat="46.99403" lon="-0.9569">
        <ele>95</ele>
        <time>2014-11-09T12:16:45Z</time>
      </trkpt>
      <trkpt lat="46.994" lon="-0.95661">
        <ele>96</ele>
        <time>2014-11-09T12:16:50Z</time>
      </trkpt>
      <trkpt lat="46.99397" lon="-0.9564">
        <ele>96</ele>
        <time>2014-11-09T12:16:54Z</time>
      </trkpt>
      <trkpt lat="46.99396" lon="-0.95622">
        <ele>95</ele>
        <time>2014-11-09T12:16:58Z</time>
      </trkpt>
      <trkpt lat="46.99394" lon="-0.95606">
        <ele>96</ele>
        <time>2014-11-09T12:17:02Z</time>
      </trkpt>
      <trkpt lat="46.99387" lon="-0.95599">
        <ele>94</ele>
        <time>2014-11-09T12:17:12Z</time>
      </trkpt>
      <trkpt lat="46.99377" lon="-0.95605">
        <ele>95</ele>
        <time>2014-11-09T12:17:16Z</time>
      </trkpt>
      <trkpt lat="46.99364" lon="-0.95608">
        <ele>96</ele>
        <time>2014-11-09T12:17:20Z</time>
      </trkpt>
      <trkpt lat="46.99349" lon="-0.95605">
        <ele>95</ele>
        <time>2014-11-09T12:17:25Z</time>
      </trkpt>
      <trkpt lat="46.99338" lon="-0.95602">
        <ele>103</ele>
        <time>2014-11-09T12:17:29Z</time>
      </trkpt>
      <trkpt lat="46.99325" lon="-0.95603">
        <ele>106</ele>
        <time>2014-11-09T12:17:34Z</time>
      </trkpt>
      <trkpt lat="46.99313" lon="-0.95603">
        <ele>108</ele>
        <time>2014-11-09T12:17:39Z</time>
      </trkpt>
      <trkpt lat="46.99304" lon="-0.95604">
        <ele>109</ele>
        <time>2014-11-09T12:17:43Z</time>
      </trkpt>
      <trkpt lat="46.99293" lon="-0.95606">
        <ele>110</ele>
        <time>2014-11-09T12:17:48Z</time>
      </trkpt>
      <trkpt lat="46.99286" lon="-0.95606">
        <ele>112</ele>
        <time>2014-11-09T12:17:51Z</time>
      </trkpt>
      <trkpt lat="46.99274" lon="-0.95607">
        <ele>113</ele>
        <time>2014-11-09T12:17:56Z</time>
      </trkpt>
      <trkpt lat="46.99268" lon="-0.95601">
        <ele>113</ele>
        <time>2014-11-09T12:17:59Z</time>
      </trkpt>
      <trkpt lat="46.99261" lon="-0.95588">
        <ele>114</ele>
        <time>2014-11-09T12:18:04Z</time>
      </trkpt>
      <trkpt lat="46.99253" lon="-0.95571">
        <ele>113</ele>
        <time>2014-11-09T12:18:08Z</time>
      </trkpt>
      <trkpt lat="46.99247" lon="-0.95562">
        <ele>114</ele>
        <time>2014-11-09T12:18:11Z</time>
      </trkpt>
      <trkpt lat="46.99239" lon="-0.95552">
        <ele>113</ele>
        <time>2014-11-09T12:18:16Z</time>
      </trkpt>
      <trkpt lat="46.99232" lon="-0.95534">
        <ele>103</ele>
        <time>2014-11-09T12:18:20Z</time>
      </trkpt>
      <trkpt lat="46.99228" lon="-0.95511">
        <ele>102</ele>
        <time>2014-11-09T12:18:24Z</time>
      </trkpt>
      <trkpt lat="46.99225" lon="-0.95487">
        <ele>104</ele>
        <time>2014-11-09T12:18:28Z</time>
      </trkpt>
      <trkpt lat="46.99214" lon="-0.95467">
        <ele>111</ele>
        <time>2014-11-09T12:18:33Z</time>
      </trkpt>
      <trkpt lat="46.99204" lon="-0.95458">
        <ele>113</ele>
        <time>2014-11-09T12:18:38Z</time>
      </trkpt>
      <trkpt lat="46.99196" lon="-0.95452">
        <ele>113</ele>
        <time>2014-11-09T12:18:45Z</time>
      </trkpt>
      <trkpt lat="46.992" lon="-0.95441">
        <ele>115</ele>
        <time>2014-11-09T12:19:00Z</time>
      </trkpt>
      <trkpt lat="46.99202" lon="-0.9544">
        <ele>115</ele>
        <time>2014-11-09T12:19:11Z</time>
      </trkpt>
      <trkpt lat="46.99197" lon="-0.95453">
        <ele>115</ele>
        <time>2014-11-09T12:19:24Z</time>
      </trkpt>
      <trkpt lat="46.99204" lon="-0.95446">
        <ele>107</ele>
        <time>2014-11-09T12:20:59Z</time>
      </trkpt>
      <trkpt lat="46.99213" lon="-0.95474">
        <ele>108</ele>
        <time>2014-11-09T12:21:04Z</time>
      </trkpt>
      <trkpt lat="46.9922" lon="-0.95482">
        <ele>109</ele>
        <time>2014-11-09T12:21:08Z</time>
      </trkpt>
      <trkpt lat="46.99228" lon="-0.95482">
        <ele>109</ele>
        <time>2014-11-09T12:21:14Z</time>
      </trkpt>
      <trkpt lat="46.99224" lon="-0.95482">
        <ele>122</ele>
        <time>2014-11-09T12:37:22Z</time>
      </trkpt>
      <trkpt lat="46.99202" lon="-0.95461">
        <ele>114</ele>
        <time>2014-11-09T12:37:25Z</time>
      </trkpt>
      <trkpt lat="46.99197" lon="-0.95459">
        <ele>114</ele>
        <time>2014-11-09T12:37:36Z</time>
      </trkpt>
      <trkpt lat="46.9918" lon="-0.95456">
        <ele>122</ele>
        <time>2014-11-09T12:37:37Z</time>
      </trkpt>
      <trkpt lat="46.99171" lon="-0.95458">
        <ele>120</ele>
        <time>2014-11-09T12:38:00Z</time>
      </trkpt>
      <trkpt lat="46.99156" lon="-0.95451">
        <ele>113</ele>
        <time>2014-11-09T12:38:05Z</time>
      </trkpt>
      <trkpt lat="46.99142" lon="-0.95443">
        <ele>108</ele>
        <time>2014-11-09T12:38:09Z</time>
      </trkpt>
      <trkpt lat="46.9913" lon="-0.95446">
        <ele>106</ele>
        <time>2014-11-09T12:38:13Z</time>
      </trkpt>
      <trkpt lat="46.99124" lon="-0.95449">
        <ele>106</ele>
        <time>2014-11-09T12:38:20Z</time>
      </trkpt>
      <trkpt lat="46.9911" lon="-0.95457">
        <ele>108</ele>
        <time>2014-11-09T12:38:20Z</time>
      </trkpt>
      <trkpt lat="46.99107" lon="-0.95459">
        <ele>109</ele>
        <time>2014-11-09T12:38:41Z</time>
      </trkpt>
      <trkpt lat="46.99051" lon="-0.95421">
        <ele>116</ele>
        <time>2014-11-09T12:38:44Z</time>
      </trkpt>
      <trkpt lat="46.99022" lon="-0.95432">
        <ele>116</ele>
        <time>2014-11-09T12:38:49Z</time>
      </trkpt>
      <trkpt lat="46.98996" lon="-0.95442">
        <ele>113</ele>
        <time>2014-11-09T12:38:53Z</time>
      </trkpt>
      <trkpt lat="46.98961" lon="-0.95457">
        <ele>106</ele>
        <time>2014-11-09T12:38:58Z</time>
      </trkpt>
      <trkpt lat="46.98931" lon="-0.95475">
        <ele>109</ele>
        <time>2014-11-09T12:39:02Z</time>
      </trkpt>
      <trkpt lat="46.98909" lon="-0.9552">
        <ele>112</ele>
        <time>2014-11-09T12:39:07Z</time>
      </trkpt>
      <trkpt lat="46.989" lon="-0.95568">
        <ele>108</ele>
        <time>2014-11-09T12:39:12Z</time>
      </trkpt>
      <trkpt lat="46.98876" lon="-0.95614">
        <ele>103</ele>
        <time>2014-11-09T12:39:16Z</time>
      </trkpt>
      <trkpt lat="46.98848" lon="-0.95643">
        <ele>101</ele>
        <time>2014-11-09T12:39:20Z</time>
      </trkpt>
      <trkpt lat="46.98818" lon="-0.95688">
        <ele>98</ele>
        <time>2014-11-09T12:39:25Z</time>
      </trkpt>
      <trkpt lat="46.98794" lon="-0.95737">
        <ele>99</ele>
        <time>2014-11-09T12:39:30Z</time>
      </trkpt>
      <trkpt lat="46.98764" lon="-0.9578">
        <ele>106</ele>
        <time>2014-11-09T12:39:35Z</time>
      </trkpt>
      <trkpt lat="46.98736" lon="-0.95809">
        <ele>101</ele>
        <time>2014-11-09T12:39:39Z</time>
      </trkpt>
      <trkpt lat="46.9871" lon="-0.95839">
        <ele>100</ele>
        <time>2014-11-09T12:39:43Z</time>
      </trkpt>
      <trkpt lat="46.98686" lon="-0.95868">
        <ele>101</ele>
        <time>2014-11-09T12:39:47Z</time>
      </trkpt>
      <trkpt lat="46.98674" lon="-0.95923">
        <ele>93</ele>
        <time>2014-11-09T12:39:52Z</time>
      </trkpt>
      <trkpt lat="46.98677" lon="-0.95957">
        <ele>91</ele>
        <time>2014-11-09T12:39:55Z</time>
      </trkpt>
      <trkpt lat="46.98681" lon="-0.96002">
        <ele>94</ele>
        <time>2014-11-09T12:40:00Z</time>
      </trkpt>
      <trkpt lat="46.98684" lon="-0.96045">
        <ele>101</ele>
        <time>2014-11-09T12:40:04Z</time>
      </trkpt>
      <trkpt lat="46.98683" lon="-0.96066">
        <ele>106</ele>
        <time>2014-11-09T12:40:09Z</time>
      </trkpt>
      <trkpt lat="46.9869" lon="-0.96062">
        <ele>104</ele>
        <time>2014-11-09T12:40:13Z</time>
      </trkpt>
      <trkpt lat="46.98697" lon="-0.96055">
        <ele>104</ele>
        <time>2014-11-09T12:40:48Z</time>
      </trkpt>
      <trkpt lat="46.98714" lon="-0.96045">
        <ele>66</ele>
        <time>2014-11-09T12:41:00Z</time>
      </trkpt>
      <trkpt lat="46.98723" lon="-0.96034">
        <ele>62</ele>
        <time>2014-11-09T12:41:02Z</time>
      </trkpt>
      <trkpt lat="46.9873" lon="-0.96025">
        <ele>62</ele>
        <time>2014-11-09T12:41:07Z</time>
      </trkpt>
      <trkpt lat="46.98738" lon="-0.96013">
        <ele>62</ele>
        <time>2014-11-09T12:41:11Z</time>
      </trkpt>
      <trkpt lat="46.9875" lon="-0.96004">
        <ele>61</ele>
        <time>2014-11-09T12:41:15Z</time>
      </trkpt>
      <trkpt lat="46.98762" lon="-0.95994">
        <ele>64</ele>
        <time>2014-11-09T12:41:20Z</time>
      </trkpt>
      <trkpt lat="46.98773" lon="-0.95986">
        <ele>63</ele>
        <time>2014-11-09T12:41:24Z</time>
      </trkpt>
      <trkpt lat="46.98788" lon="-0.95974">
        <ele>63</ele>
        <time>2014-11-09T12:41:29Z</time>
      </trkpt>
      <trkpt lat="46.98801" lon="-0.95965">
        <ele>63</ele>
        <time>2014-11-09T12:41:33Z</time>
      </trkpt>
      <trkpt lat="46.98815" lon="-0.95952">
        <ele>65</ele>
        <time>2014-11-09T12:41:38Z</time>
      </trkpt>
      <trkpt lat="46.98831" lon="-0.9594">
        <ele>65</ele>
        <time>2014-11-09T12:41:43Z</time>
      </trkpt>
      <trkpt lat="46.9885" lon="-0.95926">
        <ele>66</ele>
        <time>2014-11-09T12:41:47Z</time>
      </trkpt>
      <trkpt lat="46.98868" lon="-0.95908">
        <ele>64</ele>
        <time>2014-11-09T12:41:52Z</time>
      </trkpt>
      <trkpt lat="46.98882" lon="-0.95893">
        <ele>65</ele>
        <time>2014-11-09T12:41:56Z</time>
      </trkpt>
      <trkpt lat="46.98897" lon="-0.95884">
        <ele>64</ele>
        <time>2014-11-09T12:42:00Z</time>
      </trkpt>
      <trkpt lat="46.98912" lon="-0.95878">
        <ele>65</ele>
        <time>2014-11-09T12:42:04Z</time>
      </trkpt>
      <trkpt lat="46.98926" lon="-0.95882">
        <ele>63</ele>
        <time>2014-11-09T12:42:08Z</time>
      </trkpt>
      <trkpt lat="46.98943" lon="-0.95877">
        <ele>65</ele>
        <time>2014-11-09T12:42:13Z</time>
      </trkpt>
      <trkpt lat="46.9895" lon="-0.95873">
        <ele>67</ele>
        <time>2014-11-09T12:42:18Z</time>
      </trkpt>
      <trkpt lat="46.98975" lon="-0.95859">
        <ele>69</ele>
        <time>2014-11-09T12:42:23Z</time>
      </trkpt>
      <trkpt lat="46.98983" lon="-0.95854">
        <ele>68</ele>
        <time>2014-11-09T12:42:26Z</time>
      </trkpt>
      <trkpt lat="46.98991" lon="-0.95848">
        <ele>68</ele>
        <time>2014-11-09T12:42:31Z</time>
      </trkpt>
      <trkpt lat="46.99" lon="-0.95848">
        <ele>65</ele>
        <time>2014-11-09T12:43:00Z</time>
      </trkpt>
      <trkpt lat="46.99009" lon="-0.95847">
        <ele>67</ele>
        <time>2014-11-09T12:43:07Z</time>
      </trkpt>
      <trkpt lat="46.99017" lon="-0.95845">
        <ele>70</ele>
        <time>2014-11-09T12:43:13Z</time>
      </trkpt>
      <trkpt lat="46.99025" lon="-0.95843">
        <ele>74</ele>
        <time>2014-11-09T12:43:21Z</time>
      </trkpt>
      <trkpt lat="46.99034" lon="-0.95846">
        <ele>76</ele>
        <time>2014-11-09T12:43:32Z</time>
      </trkpt>
      <trkpt lat="46.99041" lon="-0.95852">
        <ele>72</ele>
        <time>2014-11-09T12:43:56Z</time>
      </trkpt>
      <trkpt lat="46.99048" lon="-0.95857">
        <ele>73</ele>
        <time>2014-11-09T12:44:02Z</time>
      </trkpt>
      <trkpt lat="46.99051" lon="-0.95859">
        <ele>74</ele>
        <time>2014-11-09T12:44:15Z</time>
      </trkpt>
      <trkpt lat="46.99074" lon="-0.95883">
        <ele>79</ele>
        <time>2014-11-09T12:44:19Z</time>
      </trkpt>
      <trkpt lat="46.9908" lon="-0.95885">
        <ele>79</ele>
        <time>2014-11-09T12:44:33Z</time>
      </trkpt>
      <trkpt lat="46.99094" lon="-0.95889">
        <ele>80</ele>
        <time>2014-11-09T12:44:37Z</time>
      </trkpt>
      <trkpt lat="46.99114" lon="-0.95899">
        <ele>78</ele>
        <time>2014-11-09T12:44:41Z</time>
      </trkpt>
      <trkpt lat="46.99128" lon="-0.95918">
        <ele>77</ele>
        <time>2014-11-09T12:44:45Z</time>
      </trkpt>
      <trkpt lat="46.99138" lon="-0.95941">
        <ele>73</ele>
        <time>2014-11-09T12:44:50Z</time>
      </trkpt>
      <trkpt lat="46.99152" lon="-0.95972">
        <ele>72</ele>
        <time>2014-11-09T12:44:55Z</time>
      </trkpt>
      <trkpt lat="46.99163" lon="-0.95997">
        <ele>71</ele>
        <time>2014-11-09T12:44:59Z</time>
      </trkpt>
      <trkpt lat="46.99175" lon="-0.96024">
        <ele>72</ele>
        <time>2014-11-09T12:45:03Z</time>
      </trkpt>
      <trkpt lat="46.99182" lon="-0.96035">
        <ele>71</ele>
        <time>2014-11-09T12:45:07Z</time>
      </trkpt>
      <trkpt lat="46.99189" lon="-0.96044">
        <ele>71</ele>
        <time>2014-11-09T12:45:11Z</time>
      </trkpt>
      <trkpt lat="46.99197" lon="-0.96056">
        <ele>72</ele>
        <time>2014-11-09T12:45:16Z</time>
      </trkpt>
      <trkpt lat="46.99202" lon="-0.96066">
        <ele>72</ele>
        <time>2014-11-09T12:45:34Z</time>
      </trkpt>
      <trkpt lat="46.99206" lon="-0.96077">
        <ele>74</ele>
        <time>2014-11-09T12:45:40Z</time>
      </trkpt>
      <trkpt lat="46.99211" lon="-0.96088">
        <ele>73</ele>
        <time>2014-11-09T12:45:45Z</time>
      </trkpt>
      <trkpt lat="46.99213" lon="-0.96093">
        <ele>73</ele>
        <time>2014-11-09T12:45:47Z</time>
      </trkpt>
      <trkpt lat="46.99217" lon="-0.96103">
        <ele>74</ele>
        <time>2014-11-09T12:45:51Z</time>
      </trkpt>
      <trkpt lat="46.99227" lon="-0.96118">
        <ele>70</ele>
        <time>2014-11-09T12:45:56Z</time>
      </trkpt>
      <trkpt lat="46.99236" lon="-0.96136">
        <ele>72</ele>
        <time>2014-11-09T12:46:00Z</time>
      </trkpt>
      <trkpt lat="46.99246" lon="-0.96149">
        <ele>72</ele>
        <time>2014-11-09T12:46:05Z</time>
      </trkpt>
      <trkpt lat="46.99256" lon="-0.96167">
        <ele>78</ele>
        <time>2014-11-09T12:46:10Z</time>
      </trkpt>
      <trkpt lat="46.99265" lon="-0.96182">
        <ele>83</ele>
        <time>2014-11-09T12:46:14Z</time>
      </trkpt>
      <trkpt lat="46.99269" lon="-0.96189">
        <ele>79</ele>
        <time>2014-11-09T12:46:20Z</time>
      </trkpt>
      <trkpt lat="46.99272" lon="-0.96199">
        <ele>78</ele>
        <time>2014-11-09T12:46:20Z</time>
      </trkpt>
      <trkpt lat="46.99273" lon="-0.96201">
        <ele>78</ele>
        <time>2014-11-09T12:46:26Z</time>
      </trkpt>
      <trkpt lat="46.9928" lon="-0.96219">
        <ele>79</ele>
        <time>2014-11-09T12:46:27Z</time>
      </trkpt>
      <trkpt lat="46.99289" lon="-0.96234">
        <ele>80</ele>
        <time>2014-11-09T12:46:47Z</time>
      </trkpt>
      <trkpt lat="46.99325" lon="-0.9628">
        <ele>75</ele>
        <time>2014-11-09T12:46:47Z</time>
      </trkpt>
      <trkpt lat="46.9935" lon="-0.96327">
        <ele>73</ele>
        <time>2014-11-09T12:47:00Z</time>
      </trkpt>
      <trkpt lat="46.99351" lon="-0.96339">
        <ele>73</ele>
        <time>2014-11-09T12:47:02Z</time>
      </trkpt>
      <trkpt lat="46.99355" lon="-0.96355">
        <ele>73</ele>
        <time>2014-11-09T12:47:06Z</time>
      </trkpt>
      <trkpt lat="46.99359" lon="-0.96365">
        <ele>73</ele>
        <time>2014-11-09T12:47:09Z</time>
      </trkpt>
      <trkpt lat="46.99365" lon="-0.9638">
        <ele>73</ele>
        <time>2014-11-09T12:47:14Z</time>
      </trkpt>
      <trkpt lat="46.9937" lon="-0.96389">
        <ele>75</ele>
        <time>2014-11-09T12:47:17Z</time>
      </trkpt>
      <trkpt lat="46.99372" lon="-0.96392">
        <ele>75</ele>
        <time>2014-11-09T12:47:24Z</time>
      </trkpt>
      <trkpt lat="46.99384" lon="-0.96422">
        <ele>76</ele>
        <time>2014-11-09T12:47:28Z</time>
      </trkpt>
      <trkpt lat="46.99388" lon="-0.96431">
        <ele>76</ele>
        <time>2014-11-09T12:47:34Z</time>
      </trkpt>
      <trkpt lat="46.99393" lon="-0.96441">
        <ele>75</ele>
        <time>2014-11-09T12:47:38Z</time>
      </trkpt>
      <trkpt lat="46.99399" lon="-0.96452">
        <ele>77</ele>
        <time>2014-11-09T12:47:42Z</time>
      </trkpt>
      <trkpt lat="46.99404" lon="-0.96466">
        <ele>78</ele>
        <time>2014-11-09T12:47:47Z</time>
      </trkpt>
      <trkpt lat="46.99412" lon="-0.96484">
        <ele>76</ele>
        <time>2014-11-09T12:47:52Z</time>
      </trkpt>
      <trkpt lat="46.99417" lon="-0.96494">
        <ele>76</ele>
        <time>2014-11-09T12:47:56Z</time>
      </trkpt>
      <trkpt lat="46.99425" lon="-0.96503">
        <ele>75</ele>
        <time>2014-11-09T12:48:01Z</time>
      </trkpt>
      <trkpt lat="46.99433" lon="-0.96511">
        <ele>74</ele>
        <time>2014-11-09T12:48:05Z</time>
      </trkpt>
      <trkpt lat="46.99443" lon="-0.96521">
        <ele>74</ele>
        <time>2014-11-09T12:48:09Z</time>
      </trkpt>
      <trkpt lat="46.99455" lon="-0.96537">
        <ele>73</ele>
        <time>2014-11-09T12:48:13Z</time>
      </trkpt>
      <trkpt lat="46.99466" lon="-0.96551">
        <ele>73</ele>
        <time>2014-11-09T12:48:17Z</time>
      </trkpt>
      <trkpt lat="46.99474" lon="-0.96566">
        <ele>72</ele>
        <time>2014-11-09T12:48:22Z</time>
      </trkpt>
      <trkpt lat="46.99492" lon="-0.96572">
        <ele>72</ele>
        <time>2014-11-09T12:48:26Z</time>
      </trkpt>
      <trkpt lat="46.99505" lon="-0.96578">
        <ele>69</ele>
        <time>2014-11-09T12:48:31Z</time>
      </trkpt>
      <trkpt lat="46.99509" lon="-0.96577">
        <ele>58</ele>
        <time>2014-11-09T12:49:36Z</time>
      </trkpt>
      <trkpt lat="46.99519" lon="-0.96589">
        <ele>60</ele>
        <time>2014-11-09T12:49:38Z</time>
      </trkpt>
      <trkpt lat="46.9953" lon="-0.96602">
        <ele>66</ele>
        <time>2014-11-09T12:49:43Z</time>
      </trkpt>
      <trkpt lat="46.99537" lon="-0.96629">
        <ele>65</ele>
        <time>2014-11-09T12:49:48Z</time>
      </trkpt>
      <trkpt lat="46.99538" lon="-0.96641">
        <ele>65</ele>
        <time>2014-11-09T12:49:53Z</time>
      </trkpt>
      <trkpt lat="46.99538" lon="-0.96654">
        <ele>64</ele>
        <time>2014-11-09T12:50:01Z</time>
      </trkpt>
      <trkpt lat="46.99547" lon="-0.96655">
        <ele>66</ele>
        <time>2014-11-09T12:50:16Z</time>
      </trkpt>
      <trkpt lat="46.99554" lon="-0.96651">
        <ele>67</ele>
        <time>2014-11-09T12:50:23Z</time>
      </trkpt>
      <trkpt lat="46.99563" lon="-0.96649">
        <ele>65</ele>
        <time>2014-11-09T12:50:28Z</time>
      </trkpt>
      <trkpt lat="46.99571" lon="-0.96651">
        <ele>64</ele>
        <time>2014-11-09T12:50:32Z</time>
      </trkpt>
      <trkpt lat="46.99578" lon="-0.9666">
        <ele>65</ele>
        <time>2014-11-09T12:50:36Z</time>
      </trkpt>
      <trkpt lat="46.99583" lon="-0.96672">
        <ele>64</ele>
        <time>2014-11-09T12:50:40Z</time>
      </trkpt>
      <trkpt lat="46.99587" lon="-0.96692">
        <ele>66</ele>
        <time>2014-11-09T12:50:45Z</time>
      </trkpt>
      <trkpt lat="46.99589" lon="-0.96713">
        <ele>66</ele>
        <time>2014-11-09T12:50:49Z</time>
      </trkpt>
      <trkpt lat="46.9959" lon="-0.96733">
        <ele>65</ele>
        <time>2014-11-09T12:50:53Z</time>
      </trkpt>
      <trkpt lat="46.99592" lon="-0.96756">
        <ele>66</ele>
        <time>2014-11-09T12:50:58Z</time>
      </trkpt>
      <trkpt lat="46.99588" lon="-0.9678">
        <ele>63</ele>
        <time>2014-11-09T12:51:03Z</time>
      </trkpt>
      <trkpt lat="46.99585" lon="-0.96803">
        <ele>65</ele>
        <time>2014-11-09T12:51:07Z</time>
      </trkpt>
      <trkpt lat="46.99577" lon="-0.96817">
        <ele>65</ele>
        <time>2014-11-09T12:51:11Z</time>
      </trkpt>
      <trkpt lat="46.99569" lon="-0.96831">
        <ele>63</ele>
        <time>2014-11-09T12:51:15Z</time>
      </trkpt>
      <trkpt lat="46.9956" lon="-0.9685">
        <ele>65</ele>
        <time>2014-11-09T12:51:19Z</time>
      </trkpt>
      <trkpt lat="46.99552" lon="-0.96874">
        <ele>64</ele>
        <time>2014-11-09T12:51:23Z</time>
      </trkpt>
      <trkpt lat="46.99547" lon="-0.96909">
        <ele>64</ele>
        <time>2014-11-09T12:51:28Z</time>
      </trkpt>
      <trkpt lat="46.99542" lon="-0.96936">
        <ele>65</ele>
        <time>2014-11-09T12:51:33Z</time>
      </trkpt>
      <trkpt lat="46.99535" lon="-0.96965">
        <ele>65</ele>
        <time>2014-11-09T12:51:38Z</time>
      </trkpt>
      <trkpt lat="46.99535" lon="-0.9699">
        <ele>67</ele>
        <time>2014-11-09T12:51:42Z</time>
      </trkpt>
      <trkpt lat="46.99528" lon="-0.9702">
        <ele>64</ele>
        <time>2014-11-09T12:51:47Z</time>
      </trkpt>
      <trkpt lat="46.9953" lon="-0.97052">
        <ele>62</ele>
        <time>2014-11-09T12:51:52Z</time>
      </trkpt>
      <trkpt lat="46.99531" lon="-0.97091">
        <ele>62</ele>
        <time>2014-11-09T12:51:57Z</time>
      </trkpt>
      <trkpt lat="46.99527" lon="-0.97135">
        <ele>61</ele>
        <time>2014-11-09T12:52:02Z</time>
      </trkpt>
      <trkpt lat="46.9953" lon="-0.97161">
        <ele>61</ele>
        <time>2014-11-09T12:52:06Z</time>
      </trkpt>
      <trkpt lat="46.99533" lon="-0.97193">
        <ele>61</ele>
        <time>2014-11-09T12:52:11Z</time>
      </trkpt>
      <trkpt lat="46.99528" lon="-0.97216">
        <ele>63</ele>
        <time>2014-11-09T12:52:15Z</time>
      </trkpt>
      <trkpt lat="46.99522" lon="-0.97231">
        <ele>57</ele>
        <time>2014-11-09T12:52:20Z</time>
      </trkpt>
      <trkpt lat="46.99515" lon="-0.97259">
        <ele>57</ele>
        <time>2014-11-09T12:52:25Z</time>
      </trkpt>
      <trkpt lat="46.99513" lon="-0.97274">
        <ele>57</ele>
        <time>2014-11-09T12:52:38Z</time>
      </trkpt>
      <trkpt lat="46.99483" lon="-0.97391">
        <ele>59</ele>
        <time>2014-11-09T12:52:42Z</time>
      </trkpt>
      <trkpt lat="46.99484" lon="-0.97399">
        <ele>60</ele>
        <time>2014-11-09T12:52:52Z</time>
      </trkpt>
      <trkpt lat="46.99488" lon="-0.97459">
        <ele>61</ele>
        <time>2014-11-09T12:52:52Z</time>
      </trkpt>
      <trkpt lat="46.99491" lon="-0.9748">
        <ele>61</ele>
        <time>2014-11-09T12:53:00Z</time>
      </trkpt>
      <trkpt lat="46.99497" lon="-0.97526">
        <ele>61</ele>
        <time>2014-11-09T12:53:04Z</time>
      </trkpt>
      <trkpt lat="46.99496" lon="-0.9755">
        <ele>61</ele>
        <time>2014-11-09T12:53:16Z</time>
      </trkpt>
      <trkpt lat="46.99506" lon="-0.97677">
        <ele>58</ele>
        <time>2014-11-09T12:53:21Z</time>
      </trkpt>
      <trkpt lat="46.99508" lon="-0.97693">
        <ele>57</ele>
        <time>2014-11-09T12:53:22Z</time>
      </trkpt>
      <trkpt lat="46.9951" lon="-0.97701">
        <ele>58</ele>
        <time>2014-11-09T12:53:34Z</time>
      </trkpt>
      <trkpt lat="46.99515" lon="-0.97775">
        <ele>60</ele>
        <time>2014-11-09T12:53:34Z</time>
      </trkpt>
      <trkpt lat="46.99516" lon="-0.97782">
        <ele>59</ele>
        <time>2014-11-09T12:53:44Z</time>
      </trkpt>
      <trkpt lat="46.99546" lon="-0.97825">
        <ele>60</ele>
        <time>2014-11-09T12:53:44Z</time>
      </trkpt>
      <trkpt lat="46.99559" lon="-0.9783">
        <ele>60</ele>
        <time>2014-11-09T12:54:00Z</time>
      </trkpt>
      <trkpt lat="46.99627" lon="-0.97856">
        <ele>61</ele>
        <time>2014-11-09T12:54:03Z</time>
      </trkpt>
      <trkpt lat="46.99643" lon="-0.97867">
        <ele>61</ele>
        <time>2014-11-09T12:54:07Z</time>
      </trkpt>
      <trkpt lat="46.99664" lon="-0.97888">
        <ele>59</ele>
        <time>2014-11-09T12:54:12Z</time>
      </trkpt>
      <trkpt lat="46.99677" lon="-0.9791">
        <ele>59</ele>
        <time>2014-11-09T12:54:17Z</time>
      </trkpt>
      <trkpt lat="46.99681" lon="-0.97926">
        <ele>60</ele>
        <time>2014-11-09T12:54:21Z</time>
      </trkpt>
      <trkpt lat="46.99682" lon="-0.97946">
        <ele>61</ele>
        <time>2014-11-09T12:54:25Z</time>
      </trkpt>
      <trkpt lat="46.9969" lon="-0.97972">
        <ele>60</ele>
        <time>2014-11-09T12:54:30Z</time>
      </trkpt>
      <trkpt lat="46.99706" lon="-0.98">
        <ele>62</ele>
        <time>2014-11-09T12:54:35Z</time>
      </trkpt>
      <trkpt lat="46.99723" lon="-0.98027">
        <ele>61</ele>
        <time>2014-11-09T12:54:40Z</time>
      </trkpt>
      <trkpt lat="46.99736" lon="-0.98048">
        <ele>60</ele>
        <time>2014-11-09T12:54:44Z</time>
      </trkpt>
      <trkpt lat="46.99748" lon="-0.98065">
        <ele>63</ele>
        <time>2014-11-09T12:54:48Z</time>
      </trkpt>
      <trkpt lat="46.99755" lon="-0.98072">
        <ele>64</ele>
        <time>2014-11-09T12:54:51Z</time>
      </trkpt>
      <trkpt lat="46.99768" lon="-0.98085">
        <ele>64</ele>
        <time>2014-11-09T12:54:55Z</time>
      </trkpt>
      <trkpt lat="46.99777" lon="-0.98115">
        <ele>65</ele>
        <time>2014-11-09T12:55:00Z</time>
      </trkpt>
      <trkpt lat="46.99778" lon="-0.98138">
        <ele>68</ele>
        <time>2014-11-09T12:55:05Z</time>
      </trkpt>
      <trkpt lat="46.9978" lon="-0.98161">
        <ele>69</ele>
        <time>2014-11-09T12:55:09Z</time>
      </trkpt>
      <trkpt lat="46.99783" lon="-0.982">
        <ele>66</ele>
        <time>2014-11-09T12:55:14Z</time>
      </trkpt>
      <trkpt lat="46.99789" lon="-0.98221">
        <ele>64</ele>
        <time>2014-11-09T12:55:18Z</time>
      </trkpt>
      <trkpt lat="46.99791" lon="-0.98243">
        <ele>64</ele>
        <time>2014-11-09T12:55:22Z</time>
      </trkpt>
      <trkpt lat="46.99797" lon="-0.98275">
        <ele>64</ele>
        <time>2014-11-09T12:55:27Z</time>
      </trkpt>
      <trkpt lat="46.99803" lon="-0.98292">
        <ele>65</ele>
        <time>2014-11-09T12:55:32Z</time>
      </trkpt>
      <trkpt lat="46.99811" lon="-0.98301">
        <ele>66</ele>
        <time>2014-11-09T12:55:34Z</time>
      </trkpt>
      <trkpt lat="46.99842" lon="-0.98405">
        <ele>65</ele>
        <time>2014-11-09T12:55:54Z</time>
      </trkpt>
      <trkpt lat="46.99855" lon="-0.98436">
        <ele>65</ele>
        <time>2014-11-09T12:55:58Z</time>
      </trkpt>
      <trkpt lat="46.99869" lon="-0.9846">
        <ele>62</ele>
        <time>2014-11-09T12:56:02Z</time>
      </trkpt>
      <trkpt lat="46.99883" lon="-0.98498">
        <ele>58</ele>
        <time>2014-11-09T12:56:07Z</time>
      </trkpt>
      <trkpt lat="46.99891" lon="-0.98532">
        <ele>56</ele>
        <time>2014-11-09T12:56:11Z</time>
      </trkpt>
      <trkpt lat="46.99899" lon="-0.98563">
        <ele>54</ele>
        <time>2014-11-09T12:56:15Z</time>
      </trkpt>
      <trkpt lat="46.99905" lon="-0.98603">
        <ele>53</ele>
        <time>2014-11-09T12:56:20Z</time>
      </trkpt>
      <trkpt lat="46.99912" lon="-0.98638">
        <ele>51</ele>
        <time>2014-11-09T12:56:24Z</time>
      </trkpt>
      <trkpt lat="46.99915" lon="-0.98647">
        <ele>51</ele>
        <time>2014-11-09T12:56:41Z</time>
      </trkpt>
      <trkpt lat="46.99974" lon="-0.98793">
        <ele>55</ele>
        <time>2014-11-09T12:56:51Z</time>
      </trkpt>
      <trkpt lat="46.99981" lon="-0.98808">
        <ele>56</ele>
        <time>2014-11-09T12:56:56Z</time>
      </trkpt>
      <trkpt lat="46.99985" lon="-0.98818">
        <ele>58</ele>
        <time>2014-11-09T12:57:01Z</time>
      </trkpt>
      <trkpt lat="46.9999" lon="-0.98829">
        <ele>58</ele>
        <time>2014-11-09T12:57:06Z</time>
      </trkpt>
      <trkpt lat="46.99997" lon="-0.98836">
        <ele>58</ele>
        <time>2014-11-09T12:57:10Z</time>
      </trkpt>
      <trkpt lat="47.00009" lon="-0.9885">
        <ele>58</ele>
        <time>2014-11-09T12:57:14Z</time>
      </trkpt>
      <trkpt lat="47.00005" lon="-0.98887">
        <ele>59</ele>
        <time>2014-11-09T12:57:18Z</time>
      </trkpt>
      <trkpt lat="46.99977" lon="-0.98914">
        <ele>56</ele>
        <time>2014-11-09T12:57:23Z</time>
      </trkpt>
      <trkpt lat="46.99973" lon="-0.98962">
        <ele>58</ele>
        <time>2014-11-09T12:57:28Z</time>
      </trkpt>
      <trkpt lat="46.99975" lon="-0.99003">
        <ele>59</ele>
        <time>2014-11-09T12:57:32Z</time>
      </trkpt>
      <trkpt lat="46.99974" lon="-0.9905">
        <ele>59</ele>
        <time>2014-11-09T12:57:37Z</time>
      </trkpt>
      <trkpt lat="46.99976" lon="-0.99087">
        <ele>61</ele>
        <time>2014-11-09T12:57:42Z</time>
      </trkpt>
      <trkpt lat="46.99979" lon="-0.99122">
        <ele>62</ele>
        <time>2014-11-09T12:57:46Z</time>
      </trkpt>
      <trkpt lat="46.99988" lon="-0.99157">
        <ele>63</ele>
        <time>2014-11-09T12:57:51Z</time>
      </trkpt>
      <trkpt lat="47" lon="-0.99192">
        <ele>62</ele>
        <time>2014-11-09T12:57:56Z</time>
      </trkpt>
      <trkpt lat="47.00014" lon="-0.99216">
        <ele>61</ele>
        <time>2014-11-09T12:58:00Z</time>
      </trkpt>
      <trkpt lat="47.00028" lon="-0.9924">
        <ele>62</ele>
        <time>2014-11-09T12:58:04Z</time>
      </trkpt>
      <trkpt lat="47.00037" lon="-0.99268">
        <ele>60</ele>
        <time>2014-11-09T12:58:08Z</time>
      </trkpt>
      <trkpt lat="47.00044" lon="-0.99285">
        <ele>61</ele>
        <time>2014-11-09T12:58:13Z</time>
      </trkpt>
      <trkpt lat="47.00047" lon="-0.99304">
        <ele>60</ele>
        <time>2014-11-09T12:58:17Z</time>
      </trkpt>
      <trkpt lat="47.00056" lon="-0.99323">
        <ele>60</ele>
        <time>2014-11-09T12:58:22Z</time>
      </trkpt>
      <trkpt lat="47.00064" lon="-0.99337">
        <ele>60</ele>
        <time>2014-11-09T12:58:26Z</time>
      </trkpt>
      <trkpt lat="47.00066" lon="-0.99341">
        <ele>61</ele>
        <time>2014-11-09T12:58:28Z</time>
      </trkpt>
      <trkpt lat="47.00072" lon="-0.99363">
        <ele>59</ele>
        <time>2014-11-09T12:58:33Z</time>
      </trkpt>
      <trkpt lat="47.00073" lon="-0.99381">
        <ele>57</ele>
        <time>2014-11-09T12:58:36Z</time>
      </trkpt>
      <trkpt lat="47.00075" lon="-0.99399">
        <ele>57</ele>
        <time>2014-11-09T12:58:40Z</time>
      </trkpt>
      <trkpt lat="47.00076" lon="-0.99421">
        <ele>56</ele>
        <time>2014-11-09T12:58:44Z</time>
      </trkpt>
      <trkpt lat="47.00071" lon="-0.99442">
        <ele>57</ele>
        <time>2014-11-09T12:58:48Z</time>
      </trkpt>
      <trkpt lat="47.00065" lon="-0.99461">
        <ele>58</ele>
        <time>2014-11-09T12:58:53Z</time>
      </trkpt>
      <trkpt lat="47.00066" lon="-0.99473">
        <ele>57</ele>
        <time>2014-11-09T12:58:58Z</time>
      </trkpt>
      <trkpt lat="47.00071" lon="-0.9949">
        <ele>58</ele>
        <time>2014-11-09T12:59:03Z</time>
      </trkpt>
      <trkpt lat="47.00074" lon="-0.99503">
        <ele>56</ele>
        <time>2014-11-09T12:59:07Z</time>
      </trkpt>
      <trkpt lat="47.00078" lon="-0.99512">
        <ele>56</ele>
        <time>2014-11-09T12:59:10Z</time>
      </trkpt>
      <trkpt lat="47.00079" lon="-0.99527">
        <ele>57</ele>
        <time>2014-11-09T12:59:14Z</time>
      </trkpt>
      <trkpt lat="47.0008" lon="-0.9955">
        <ele>59</ele>
        <time>2014-11-09T12:59:19Z</time>
      </trkpt>
      <trkpt lat="47.00086" lon="-0.99559">
        <ele>57</ele>
        <time>2014-11-09T12:59:30Z</time>
      </trkpt>
      <trkpt lat="47.0009" lon="-0.99571">
        <ele>60</ele>
        <time>2014-11-09T12:59:39Z</time>
      </trkpt>
      <trkpt lat="47.00097" lon="-0.99578">
        <ele>61</ele>
        <time>2014-11-09T12:59:46Z</time>
      </trkpt>
      <trkpt lat="47.00096" lon="-0.9959">
        <ele>58</ele>
        <time>2014-11-09T12:59:52Z</time>
      </trkpt>
      <trkpt lat="47.00097" lon="-0.99602">
        <ele>57</ele>
        <time>2014-11-09T13:00:04Z</time>
      </trkpt>
      <trkpt lat="47.00092" lon="-0.99614">
        <ele>57</ele>
        <time>2014-11-09T13:00:10Z</time>
      </trkpt>
      <trkpt lat="47.00093" lon="-0.99626">
        <ele>56</ele>
        <time>2014-11-09T13:00:14Z</time>
      </trkpt>
      <trkpt lat="47.00094" lon="-0.99639">
        <ele>55</ele>
        <time>2014-11-09T13:00:19Z</time>
      </trkpt>
      <trkpt lat="47.00095" lon="-0.99651">
        <ele>56</ele>
        <time>2014-11-09T13:00:30Z</time>
      </trkpt>
      <trkpt lat="47.00093" lon="-0.99668">
        <ele>57</ele>
        <time>2014-11-09T13:00:34Z</time>
      </trkpt>
      <trkpt lat="47.00096" lon="-0.9969">
        <ele>57</ele>
        <time>2014-11-09T13:00:38Z</time>
      </trkpt>
      <trkpt lat="47.001" lon="-0.99714">
        <ele>56</ele>
        <time>2014-11-09T13:00:42Z</time>
      </trkpt>
      <trkpt lat="47.00104" lon="-0.99738">
        <ele>55</ele>
        <time>2014-11-09T13:00:46Z</time>
      </trkpt>
      <trkpt lat="47.0011" lon="-0.9977">
        <ele>56</ele>
        <time>2014-11-09T13:00:50Z</time>
      </trkpt>
      <trkpt lat="47.00118" lon="-0.99796">
        <ele>56</ele>
        <time>2014-11-09T13:00:54Z</time>
      </trkpt>
      <trkpt lat="47.00125" lon="-0.99812">
        <ele>57</ele>
        <time>2014-11-09T13:00:59Z</time>
      </trkpt>
      <trkpt lat="47.00135" lon="-0.99825">
        <ele>59</ele>
        <time>2014-11-09T13:01:04Z</time>
      </trkpt>
      <trkpt lat="47.0014" lon="-0.99834">
        <ele>60</ele>
        <time>2014-11-09T13:01:08Z</time>
      </trkpt>
      <trkpt lat="47.00146" lon="-0.99846">
        <ele>61</ele>
        <time>2014-11-09T13:01:12Z</time>
      </trkpt>
      <trkpt lat="47.00145" lon="-0.99857">
        <ele>63</ele>
        <time>2014-11-09T13:01:16Z</time>
      </trkpt>
      <trkpt lat="47.00143" lon="-0.99868">
        <ele>67</ele>
        <time>2014-11-09T13:01:58Z</time>
      </trkpt>
      <trkpt lat="47.00127" lon="-1.00026">
        <ele>62</ele>
        <time>2014-11-09T13:02:00Z</time>
      </trkpt>
      <trkpt lat="47.00129" lon="-1.00083">
        <ele>63</ele>
        <time>2014-11-09T13:02:37Z</time>
      </trkpt>
      <trkpt lat="47.0016" lon="-1.00217">
        <ele>56</ele>
        <time>2014-11-09T13:02:41Z</time>
      </trkpt>
      <trkpt lat="47.00165" lon="-1.00227">
        <ele>56</ele>
        <time>2014-11-09T13:03:42Z</time>
      </trkpt>
      <trkpt lat="47.00169" lon="-1.00238">
        <ele>54</ele>
        <time>2014-11-09T13:03:58Z</time>
      </trkpt>
      <trkpt lat="47.00168" lon="-1.0025">
        <ele>57</ele>
        <time>2014-11-09T13:04:04Z</time>
      </trkpt>
      <trkpt lat="47.00169" lon="-1.00261">
        <ele>57</ele>
        <time>2014-11-09T13:04:09Z</time>
      </trkpt>
      <trkpt lat="47.00173" lon="-1.00272">
        <ele>58</ele>
        <time>2014-11-09T13:04:15Z</time>
      </trkpt>
      <trkpt lat="47.00176" lon="-1.00283">
        <ele>58</ele>
        <time>2014-11-09T13:04:20Z</time>
      </trkpt>
      <trkpt lat="47.00183" lon="-1.00303">
        <ele>57</ele>
        <time>2014-11-09T13:04:24Z</time>
      </trkpt>
      <trkpt lat="47.0019" lon="-1.00333">
        <ele>57</ele>
        <time>2014-11-09T13:04:28Z</time>
      </trkpt>
      <trkpt lat="47.00197" lon="-1.00356">
        <ele>59</ele>
        <time>2014-11-09T13:04:32Z</time>
      </trkpt>
      <trkpt lat="47.00202" lon="-1.0037">
        <ele>57</ele>
        <time>2014-11-09T13:04:36Z</time>
      </trkpt>
      <trkpt lat="47.00206" lon="-1.00384">
        <ele>57</ele>
        <time>2014-11-09T13:04:40Z</time>
      </trkpt>
      <trkpt lat="47.00212" lon="-1.00406">
        <ele>56</ele>
        <time>2014-11-09T13:04:45Z</time>
      </trkpt>
      <trkpt lat="47.00212" lon="-1.00429">
        <ele>57</ele>
        <time>2014-11-09T13:04:49Z</time>
      </trkpt>
      <trkpt lat="47.00213" lon="-1.00456">
        <ele>58</ele>
        <time>2014-11-09T13:04:52Z</time>
      </trkpt>
      <trkpt lat="47.00219" lon="-1.00494">
        <ele>56</ele>
        <time>2014-11-09T13:04:57Z</time>
      </trkpt>
      <trkpt lat="47.00222" lon="-1.00516">
        <ele>57</ele>
        <time>2014-11-09T13:05:00Z</time>
      </trkpt>
      <trkpt lat="47.00221" lon="-1.00535">
        <ele>57</ele>
        <time>2014-11-09T13:05:03Z</time>
      </trkpt>
      <trkpt lat="47.0022" lon="-1.00564">
        <ele>57</ele>
        <time>2014-11-09T13:05:08Z</time>
      </trkpt>
      <trkpt lat="47.0022" lon="-1.00594">
        <ele>56</ele>
        <time>2014-11-09T13:05:12Z</time>
      </trkpt>
      <trkpt lat="47.00219" lon="-1.00615">
        <ele>56</ele>
        <time>2014-11-09T13:05:16Z</time>
      </trkpt>
      <trkpt lat="47.00222" lon="-1.00648">
        <ele>57</ele>
        <time>2014-11-09T13:05:21Z</time>
      </trkpt>
      <trkpt lat="47.0022" lon="-1.0068">
        <ele>59</ele>
        <time>2014-11-09T13:05:26Z</time>
      </trkpt>
      <trkpt lat="47.0022" lon="-1.00704">
        <ele>59</ele>
        <time>2014-11-09T13:05:30Z</time>
      </trkpt>
      <trkpt lat="47.00217" lon="-1.00734">
        <ele>61</ele>
        <time>2014-11-09T13:05:35Z</time>
      </trkpt>
      <trkpt lat="47.00214" lon="-1.00764">
        <ele>59</ele>
        <time>2014-11-09T13:05:40Z</time>
      </trkpt>
      <trkpt lat="47.00216" lon="-1.00786">
        <ele>60</ele>
        <time>2014-11-09T13:05:44Z</time>
      </trkpt>
      <trkpt lat="47.00219" lon="-1.00808">
        <ele>63</ele>
        <time>2014-11-09T13:05:48Z</time>
      </trkpt>
      <trkpt lat="47.00221" lon="-1.00836">
        <ele>60</ele>
        <time>2014-11-09T13:05:53Z</time>
      </trkpt>
      <trkpt lat="47.00221" lon="-1.00871">
        <ele>62</ele>
        <time>2014-11-09T13:05:57Z</time>
      </trkpt>
      <trkpt lat="47.00222" lon="-1.00903">
        <ele>62</ele>
        <time>2014-11-09T13:06:02Z</time>
      </trkpt>
      <trkpt lat="47.00226" lon="-1.0093">
        <ele>64</ele>
        <time>2014-11-09T13:06:06Z</time>
      </trkpt>
      <trkpt lat="47.00226" lon="-1.00959">
        <ele>64</ele>
        <time>2014-11-09T13:06:10Z</time>
      </trkpt>
      <trkpt lat="47.00227" lon="-1.00989">
        <ele>67</ele>
        <time>2014-11-09T13:06:15Z</time>
      </trkpt>
      <trkpt lat="47.00225" lon="-1.01014">
        <ele>68</ele>
        <time>2014-11-09T13:06:19Z</time>
      </trkpt>
      <trkpt lat="47.00221" lon="-1.01053">
        <ele>60</ele>
        <time>2014-11-09T13:06:24Z</time>
      </trkpt>
      <trkpt lat="47.00223" lon="-1.01069">
        <ele>59</ele>
        <time>2014-11-09T13:06:27Z</time>
      </trkpt>
      <trkpt lat="47.00225" lon="-1.01094">
        <ele>62</ele>
        <time>2014-11-09T13:06:32Z</time>
      </trkpt>
      <trkpt lat="47.00225" lon="-1.01107">
        <ele>67</ele>
        <time>2014-11-09T13:06:37Z</time>
      </trkpt>
      <trkpt lat="47.00225" lon="-1.0112">
        <ele>62</ele>
        <time>2014-11-09T13:06:51Z</time>
      </trkpt>
      <trkpt lat="47.00226" lon="-1.01132">
        <ele>62</ele>
        <time>2014-11-09T13:07:04Z</time>
      </trkpt>
      <trkpt lat="47.00228" lon="-1.01145">
        <ele>59</ele>
        <time>2014-11-09T13:07:10Z</time>
      </trkpt>
      <trkpt lat="47.00222" lon="-1.01165">
        <ele>59</ele>
        <time>2014-11-09T13:07:14Z</time>
      </trkpt>
      <trkpt lat="47.00213" lon="-1.01184">
        <ele>60</ele>
        <time>2014-11-09T13:07:19Z</time>
      </trkpt>
      <trkpt lat="47.00208" lon="-1.01192">
        <ele>60</ele>
        <time>2014-11-09T13:08:27Z</time>
      </trkpt>
      <trkpt lat="47.00276" lon="-1.01516">
        <ele>54</ele>
        <time>2014-11-09T13:08:30Z</time>
      </trkpt>
      <trkpt lat="47.00285" lon="-1.01517">
        <ele>53</ele>
        <time>2014-11-09T13:08:44Z</time>
      </trkpt>
      <trkpt lat="47.00287" lon="-1.01526">
        <ele>55</ele>
        <time>2014-11-09T13:09:30Z</time>
      </trkpt>
      <trkpt lat="47.00254" lon="-1.0165">
        <ele>57</ele>
        <time>2014-11-09T13:09:31Z</time>
      </trkpt>
      <trkpt lat="47.00256" lon="-1.01655">
        <ele>58</ele>
        <time>2014-11-09T13:09:36Z</time>
      </trkpt>
      <trkpt lat="47.00268" lon="-1.01679">
        <ele>58</ele>
        <time>2014-11-09T13:09:37Z</time>
      </trkpt>
      <trkpt lat="47.00271" lon="-1.01683">
        <ele>60</ele>
        <time>2014-11-09T13:11:00Z</time>
      </trkpt>
      <trkpt lat="47.00356" lon="-1.02154">
        <ele>67</ele>
        <time>2014-11-09T13:11:18Z</time>
      </trkpt>
      <trkpt lat="47.00345" lon="-1.02204">
        <ele>71</ele>
        <time>2014-11-09T13:11:22Z</time>
      </trkpt>
      <trkpt lat="47.00333" lon="-1.02223">
        <ele>71</ele>
        <time>2014-11-09T13:11:27Z</time>
      </trkpt>
      <trkpt lat="47.00319" lon="-1.02243">
        <ele>69</ele>
        <time>2014-11-09T13:11:31Z</time>
      </trkpt>
      <trkpt lat="47.00315" lon="-1.02247">
        <ele>67</ele>
        <time>2014-11-09T13:11:39Z</time>
      </trkpt>
      <trkpt lat="47.00306" lon="-1.0228">
        <ele>72</ele>
        <time>2014-11-09T13:11:39Z</time>
      </trkpt>
      <trkpt lat="47.00306" lon="-1.02302">
        <ele>72</ele>
        <time>2014-11-09T13:11:46Z</time>
      </trkpt>
      <trkpt lat="47.00308" lon="-1.02331">
        <ele>72</ele>
        <time>2014-11-09T13:11:47Z</time>
      </trkpt>
      <trkpt lat="47.00308" lon="-1.02337">
        <ele>72</ele>
        <time>2014-11-09T13:11:55Z</time>
      </trkpt>
      <trkpt lat="47.00304" lon="-1.02369">
        <ele>83</ele>
        <time>2014-11-09T13:11:55Z</time>
      </trkpt>
      <trkpt lat="47.00305" lon="-1.02373">
        <ele>83</ele>
        <time>2014-11-09T13:12:00Z</time>
      </trkpt>
      <trkpt lat="47.00318" lon="-1.02371">
        <ele>86</ele>
        <time>2014-11-09T13:12:18Z</time>
      </trkpt>
      <trkpt lat="47.00321" lon="-1.0238">
        <ele>75</ele>
        <time>2014-11-09T13:13:29Z</time>
      </trkpt>
      <trkpt lat="47.00281" lon="-1.02434">
        <ele>76</ele>
        <time>2014-11-09T13:13:34Z</time>
      </trkpt>
      <trkpt lat="47.00253" lon="-1.02451">
        <ele>80</ele>
        <time>2014-11-09T13:13:39Z</time>
      </trkpt>
      <trkpt lat="47.00239" lon="-1.02456">
        <ele>81</ele>
        <time>2014-11-09T13:13:43Z</time>
      </trkpt>
      <trkpt lat="47.00223" lon="-1.02468">
        <ele>84</ele>
        <time>2014-11-09T13:13:47Z</time>
      </trkpt>
      <trkpt lat="47.00207" lon="-1.02478">
        <ele>85</ele>
        <time>2014-11-09T13:13:51Z</time>
      </trkpt>
      <trkpt lat="47.00192" lon="-1.02486">
        <ele>87</ele>
        <time>2014-11-09T13:13:55Z</time>
      </trkpt>
      <trkpt lat="47.00175" lon="-1.02494">
        <ele>87</ele>
        <time>2014-11-09T13:14:00Z</time>
      </trkpt>
      <trkpt lat="47.00169" lon="-1.02498">
        <ele>88</ele>
        <time>2014-11-09T13:14:02Z</time>
      </trkpt>
      <trkpt lat="47.00158" lon="-1.02507">
        <ele>89</ele>
        <time>2014-11-09T13:14:06Z</time>
      </trkpt>
      <trkpt lat="47.00144" lon="-1.02509">
        <ele>89</ele>
        <time>2014-11-09T13:14:11Z</time>
      </trkpt>
      <trkpt lat="47.00132" lon="-1.02508">
        <ele>89</ele>
        <time>2014-11-09T13:14:15Z</time>
      </trkpt>
      <trkpt lat="47.00119" lon="-1.02505">
        <ele>90</ele>
        <time>2014-11-09T13:14:19Z</time>
      </trkpt>
      <trkpt lat="47.00104" lon="-1.02499">
        <ele>93</ele>
        <time>2014-11-09T13:14:24Z</time>
      </trkpt>
      <trkpt lat="47.00091" lon="-1.02496">
        <ele>93</ele>
        <time>2014-11-09T13:14:28Z</time>
      </trkpt>
      <trkpt lat="47.00075" lon="-1.02495">
        <ele>92</ele>
        <time>2014-11-09T13:14:33Z</time>
      </trkpt>
      <trkpt lat="47.00062" lon="-1.02497">
        <ele>96</ele>
        <time>2014-11-09T13:14:37Z</time>
      </trkpt>
      <trkpt lat="47.0005" lon="-1.025">
        <ele>99</ele>
        <time>2014-11-09T13:14:42Z</time>
      </trkpt>
      <trkpt lat="47.00041" lon="-1.02502">
        <ele>98</ele>
        <time>2014-11-09T13:14:47Z</time>
      </trkpt>
      <trkpt lat="47.00031" lon="-1.02504">
        <ele>100</ele>
        <time>2014-11-09T13:14:52Z</time>
      </trkpt>
      <trkpt lat="47.00021" lon="-1.02506">
        <ele>99</ele>
        <time>2014-11-09T13:14:56Z</time>
      </trkpt>
      <trkpt lat="47.00008" lon="-1.02508">
        <ele>100</ele>
        <time>2014-11-09T13:15:01Z</time>
      </trkpt>
      <trkpt lat="46.9999" lon="-1.02513">
        <ele>99</ele>
        <time>2014-11-09T13:15:05Z</time>
      </trkpt>
      <trkpt lat="46.99978" lon="-1.02519">
        <ele>99</ele>
        <time>2014-11-09T13:15:09Z</time>
      </trkpt>
      <trkpt lat="46.9997" lon="-1.02525">
        <ele>106</ele>
        <time>2014-11-09T13:18:08Z</time>
      </trkpt>
      <trkpt lat="46.99963" lon="-1.02528">
        <ele>104</ele>
        <time>2014-11-09T13:18:13Z</time>
      </trkpt>
      <trkpt lat="46.99954" lon="-1.02534">
        <ele>103</ele>
        <time>2014-11-09T13:18:17Z</time>
      </trkpt>
      <trkpt lat="46.99937" lon="-1.02543">
        <ele>103</ele>
        <time>2014-11-09T13:18:22Z</time>
      </trkpt>
      <trkpt lat="46.99923" lon="-1.02551">
        <ele>103</ele>
        <time>2014-11-09T13:18:26Z</time>
      </trkpt>
      <trkpt lat="46.99907" lon="-1.02567">
        <ele>104</ele>
        <time>2014-11-09T13:18:31Z</time>
      </trkpt>
      <trkpt lat="46.99894" lon="-1.02585">
        <ele>103</ele>
        <time>2014-11-09T13:18:36Z</time>
      </trkpt>
      <trkpt lat="46.99882" lon="-1.02592">
        <ele>103</ele>
        <time>2014-11-09T13:18:40Z</time>
      </trkpt>
      <trkpt lat="46.99871" lon="-1.02586">
        <ele>102</ele>
        <time>2014-11-09T13:18:44Z</time>
      </trkpt>
      <trkpt lat="46.9986" lon="-1.02578">
        <ele>103</ele>
        <time>2014-11-09T13:18:48Z</time>
      </trkpt>
      <trkpt lat="46.99844" lon="-1.02577">
        <ele>93</ele>
        <time>2014-11-09T13:18:53Z</time>
      </trkpt>
      <trkpt lat="46.99832" lon="-1.02583">
        <ele>94</ele>
        <time>2014-11-09T13:18:57Z</time>
      </trkpt>
      <trkpt lat="46.99821" lon="-1.02592">
        <ele>90</ele>
        <time>2014-11-09T13:19:01Z</time>
      </trkpt>
      <trkpt lat="46.99812" lon="-1.02603">
        <ele>90</ele>
        <time>2014-11-09T13:19:05Z</time>
      </trkpt>
      <trkpt lat="46.99798" lon="-1.02616">
        <ele>95</ele>
        <time>2014-11-09T13:19:10Z</time>
      </trkpt>
      <trkpt lat="46.99787" lon="-1.02624">
        <ele>92</ele>
        <time>2014-11-09T13:19:14Z</time>
      </trkpt>
      <trkpt lat="46.99775" lon="-1.0263">
        <ele>91</ele>
        <time>2014-11-09T13:19:18Z</time>
      </trkpt>
      <trkpt lat="46.99761" lon="-1.02643">
        <ele>96</ele>
        <time>2014-11-09T13:19:23Z</time>
      </trkpt>
      <trkpt lat="46.99745" lon="-1.02659">
        <ele>97</ele>
        <time>2014-11-09T13:19:28Z</time>
      </trkpt>
      <trkpt lat="46.99729" lon="-1.02674">
        <ele>95</ele>
        <time>2014-11-09T13:19:33Z</time>
      </trkpt>
      <trkpt lat="46.99718" lon="-1.02684">
        <ele>96</ele>
        <time>2014-11-09T13:19:37Z</time>
      </trkpt>
      <trkpt lat="46.99705" lon="-1.02697">
        <ele>89</ele>
        <time>2014-11-09T13:19:42Z</time>
      </trkpt>
      <trkpt lat="46.99695" lon="-1.02705">
        <ele>111</ele>
        <time>2014-11-09T13:19:46Z</time>
      </trkpt>
      <trkpt lat="46.99683" lon="-1.02717">
        <ele>115</ele>
        <time>2014-11-09T13:19:51Z</time>
      </trkpt>
      <trkpt lat="46.99676" lon="-1.02724">
        <ele>118</ele>
        <time>2014-11-09T13:19:55Z</time>
      </trkpt>
      <trkpt lat="46.99669" lon="-1.02729">
        <ele>122</ele>
        <time>2014-11-09T13:20:00Z</time>
      </trkpt>
      <trkpt lat="46.99657" lon="-1.02737">
        <ele>118</ele>
        <time>2014-11-09T13:20:04Z</time>
      </trkpt>
      <trkpt lat="46.99646" lon="-1.02743">
        <ele>116</ele>
        <time>2014-11-09T13:20:08Z</time>
      </trkpt>
      <trkpt lat="46.99635" lon="-1.02749">
        <ele>114</ele>
        <time>2014-11-09T13:20:13Z</time>
      </trkpt>
      <trkpt lat="46.99615" lon="-1.02758">
        <ele>98</ele>
        <time>2014-11-09T13:20:18Z</time>
      </trkpt>
      <trkpt lat="46.99606" lon="-1.02763">
        <ele>104</ele>
        <time>2014-11-09T13:20:21Z</time>
      </trkpt>
      <trkpt lat="46.99593" lon="-1.0277">
        <ele>105</ele>
        <time>2014-11-09T13:20:35Z</time>
      </trkpt>
      <trkpt lat="46.99553" lon="-1.02794">
        <ele>110</ele>
        <time>2014-11-09T13:20:38Z</time>
      </trkpt>
      <trkpt lat="46.9955" lon="-1.02796">
        <ele>111</ele>
        <time>2014-11-09T13:20:43Z</time>
      </trkpt>
      <trkpt lat="46.99526" lon="-1.02807">
        <ele>108</ele>
        <time>2014-11-09T13:20:46Z</time>
      </trkpt>
      <trkpt lat="46.9952" lon="-1.02825">
        <ele>102</ele>
        <time>2014-11-09T13:20:51Z</time>
      </trkpt>
      <trkpt lat="46.99519" lon="-1.02829">
        <ele>103</ele>
        <time>2014-11-09T13:20:52Z</time>
      </trkpt>
      <trkpt lat="46.99517" lon="-1.02839">
        <ele>107</ele>
        <time>2014-11-09T13:21:00Z</time>
      </trkpt>
      <trkpt lat="46.99512" lon="-1.02865">
        <ele>110</ele>
        <time>2014-11-09T13:21:04Z</time>
      </trkpt>
      <trkpt lat="46.9951" lon="-1.02871">
        <ele>110</ele>
        <time>2014-11-09T13:21:16Z</time>
      </trkpt>
      <trkpt lat="46.99504" lon="-1.02908">
        <ele>119</ele>
        <time>2014-11-09T13:21:16Z</time>
      </trkpt>
      <trkpt lat="46.99499" lon="-1.02945">
        <ele>120</ele>
        <time>2014-11-09T13:21:24Z</time>
      </trkpt>
      <trkpt lat="46.99493" lon="-1.02976">
        <ele>124</ele>
        <time>2014-11-09T13:21:34Z</time>
      </trkpt>
      <trkpt lat="46.99482" lon="-1.03026">
        <ele>125</ele>
        <time>2014-11-09T13:21:38Z</time>
      </trkpt>
      <trkpt lat="46.9947" lon="-1.03049">
        <ele>126</ele>
        <time>2014-11-09T13:21:43Z</time>
      </trkpt>
      <trkpt lat="46.99456" lon="-1.0307">
        <ele>124</ele>
        <time>2014-11-09T13:21:48Z</time>
      </trkpt>
      <trkpt lat="46.99444" lon="-1.03086">
        <ele>125</ele>
        <time>2014-11-09T13:21:52Z</time>
      </trkpt>
      <trkpt lat="46.99433" lon="-1.03102">
        <ele>116</ele>
        <time>2014-11-09T13:21:56Z</time>
      </trkpt>
      <trkpt lat="46.99422" lon="-1.03118">
        <ele>117</ele>
        <time>2014-11-09T13:22:00Z</time>
      </trkpt>
      <trkpt lat="46.9941" lon="-1.03141">
        <ele>116</ele>
        <time>2014-11-09T13:22:05Z</time>
      </trkpt>
      <trkpt lat="46.99407" lon="-1.03163">
        <ele>117</ele>
        <time>2014-11-09T13:22:09Z</time>
      </trkpt>
      <trkpt lat="46.99413" lon="-1.03185">
        <ele>118</ele>
        <time>2014-11-09T13:22:13Z</time>
      </trkpt>
      <trkpt lat="46.99421" lon="-1.03205">
        <ele>118</ele>
        <time>2014-11-09T13:22:17Z</time>
      </trkpt>
      <trkpt lat="46.9943" lon="-1.03227">
        <ele>119</ele>
        <time>2014-11-09T13:22:22Z</time>
      </trkpt>
      <trkpt lat="46.99437" lon="-1.03245">
        <ele>119</ele>
        <time>2014-11-09T13:22:26Z</time>
      </trkpt>
      <trkpt lat="46.99444" lon="-1.03265">
        <ele>118</ele>
        <time>2014-11-09T13:22:30Z</time>
      </trkpt>
      <trkpt lat="46.99452" lon="-1.03285">
        <ele>118</ele>
        <time>2014-11-09T13:22:34Z</time>
      </trkpt>
      <trkpt lat="46.99463" lon="-1.03307">
        <ele>119</ele>
        <time>2014-11-09T13:22:39Z</time>
      </trkpt>
      <trkpt lat="46.99471" lon="-1.03322">
        <ele>119</ele>
        <time>2014-11-09T13:22:43Z</time>
      </trkpt>
      <trkpt lat="46.99479" lon="-1.03345">
        <ele>119</ele>
        <time>2014-11-09T13:22:47Z</time>
      </trkpt>
      <trkpt lat="46.9948" lon="-1.0338">
        <ele>119</ele>
        <time>2014-11-09T13:22:52Z</time>
      </trkpt>
      <trkpt lat="46.99483" lon="-1.03409">
        <ele>120</ele>
        <time>2014-11-09T13:22:56Z</time>
      </trkpt>
      <trkpt lat="46.99483" lon="-1.03434">
        <ele>118</ele>
        <time>2014-11-09T13:23:00Z</time>
      </trkpt>
      <trkpt lat="46.99487" lon="-1.03467">
        <ele>119</ele>
        <time>2014-11-09T13:23:05Z</time>
      </trkpt>
      <trkpt lat="46.99489" lon="-1.03493">
        <ele>118</ele>
        <time>2014-11-09T13:23:09Z</time>
      </trkpt>
      <trkpt lat="46.99492" lon="-1.03519">
        <ele>117</ele>
        <time>2014-11-09T13:23:13Z</time>
      </trkpt>
      <trkpt lat="46.99495" lon="-1.03549">
        <ele>120</ele>
        <time>2014-11-09T13:23:18Z</time>
      </trkpt>
      <trkpt lat="46.99499" lon="-1.03572">
        <ele>120</ele>
        <time>2014-11-09T13:23:22Z</time>
      </trkpt>
      <trkpt lat="46.99502" lon="-1.03571">
        <ele>122</ele>
        <time>2014-11-09T13:25:20Z</time>
      </trkpt>
      <trkpt lat="46.99505" lon="-1.03582">
        <ele>122</ele>
        <time>2014-11-09T13:25:27Z</time>
      </trkpt>
      <trkpt lat="46.99505" lon="-1.03601">
        <ele>126</ele>
        <time>2014-11-09T13:25:31Z</time>
      </trkpt>
      <trkpt lat="46.99514" lon="-1.03637">
        <ele>124</ele>
        <time>2014-11-09T13:25:35Z</time>
      </trkpt>
      <trkpt lat="46.99516" lon="-1.03647">
        <ele>124</ele>
        <time>2014-11-09T13:25:37Z</time>
      </trkpt>
      <trkpt lat="46.99518" lon="-1.03652">
        <ele>124</ele>
        <time>2014-11-09T13:25:46Z</time>
      </trkpt>
      <trkpt lat="46.99528" lon="-1.03689">
        <ele>121</ele>
        <time>2014-11-09T13:25:46Z</time>
      </trkpt>
      <trkpt lat="46.99533" lon="-1.03703">
        <ele>121</ele>
        <time>2014-11-09T13:25:52Z</time>
      </trkpt>
      <trkpt lat="46.99539" lon="-1.03718">
        <ele>121</ele>
        <time>2014-11-09T13:25:52Z</time>
      </trkpt>
      <trkpt lat="46.99546" lon="-1.0374">
        <ele>122</ele>
        <time>2014-11-09T13:26:00Z</time>
      </trkpt>
      <trkpt lat="46.99554" lon="-1.03769">
        <ele>123</ele>
        <time>2014-11-09T13:26:00Z</time>
      </trkpt>
      <trkpt lat="46.99561" lon="-1.03808">
        <ele>122</ele>
        <time>2014-11-09T13:26:06Z</time>
      </trkpt>
      <trkpt lat="46.99567" lon="-1.03843">
        <ele>122</ele>
        <time>2014-11-09T13:26:11Z</time>
      </trkpt>
      <trkpt lat="46.99571" lon="-1.03872">
        <ele>126</ele>
        <time>2014-11-09T13:26:14Z</time>
      </trkpt>
      <trkpt lat="46.99578" lon="-1.03901">
        <ele>130</ele>
        <time>2014-11-09T13:26:18Z</time>
      </trkpt>
      <trkpt lat="46.99584" lon="-1.03931">
        <ele>130</ele>
        <time>2014-11-09T13:26:22Z</time>
      </trkpt>
      <trkpt lat="46.9959" lon="-1.03962">
        <ele>130</ele>
        <time>2014-11-09T13:26:26Z</time>
      </trkpt>
      <trkpt lat="46.996" lon="-1.03993">
        <ele>129</ele>
        <time>2014-11-09T13:26:30Z</time>
      </trkpt>
      <trkpt lat="46.9961" lon="-1.04025">
        <ele>129</ele>
        <time>2014-11-09T13:26:34Z</time>
      </trkpt>
      <trkpt lat="46.99619" lon="-1.04055">
        <ele>129</ele>
        <time>2014-11-09T13:26:38Z</time>
      </trkpt>
      <trkpt lat="46.9963" lon="-1.04095">
        <ele>129</ele>
        <time>2014-11-09T13:26:43Z</time>
      </trkpt>
      <trkpt lat="46.99641" lon="-1.04127">
        <ele>130</ele>
        <time>2014-11-09T13:26:47Z</time>
      </trkpt>
      <trkpt lat="46.99652" lon="-1.04167">
        <ele>129</ele>
        <time>2014-11-09T13:26:52Z</time>
      </trkpt>
      <trkpt lat="46.99659" lon="-1.04197">
        <ele>130</ele>
        <time>2014-11-09T13:26:56Z</time>
      </trkpt>
      <trkpt lat="46.99669" lon="-1.04231">
        <ele>128</ele>
        <time>2014-11-09T13:27:00Z</time>
      </trkpt>
      <trkpt lat="46.99679" lon="-1.04277">
        <ele>126</ele>
        <time>2014-11-09T13:27:05Z</time>
      </trkpt>
      <trkpt lat="46.99688" lon="-1.04314">
        <ele>126</ele>
        <time>2014-11-09T13:27:09Z</time>
      </trkpt>
      <trkpt lat="46.99698" lon="-1.04361">
        <ele>126</ele>
        <time>2014-11-09T13:27:14Z</time>
      </trkpt>
      <trkpt lat="46.99705" lon="-1.04398">
        <ele>125</ele>
        <time>2014-11-09T13:27:18Z</time>
      </trkpt>
      <trkpt lat="46.99715" lon="-1.04437">
        <ele>118</ele>
        <time>2014-11-09T13:27:23Z</time>
      </trkpt>
      <trkpt lat="46.99718" lon="-1.04478">
        <ele>124</ele>
        <time>2014-11-09T13:27:28Z</time>
      </trkpt>
      <trkpt lat="46.99722" lon="-1.04517">
        <ele>124</ele>
        <time>2014-11-09T13:27:32Z</time>
      </trkpt>
      <trkpt lat="46.99723" lon="-1.04526">
        <ele>123</ele>
        <time>2014-11-09T13:27:38Z</time>
      </trkpt>
      <trkpt lat="46.99728" lon="-1.04564">
        <ele>123</ele>
        <time>2014-11-09T13:27:38Z</time>
      </trkpt>
      <trkpt lat="46.99729" lon="-1.04573">
        <ele>123</ele>
        <time>2014-11-09T13:27:43Z</time>
      </trkpt>
      <trkpt lat="46.99739" lon="-1.04625">
        <ele>123</ele>
        <time>2014-11-09T13:27:44Z</time>
      </trkpt>
      <trkpt lat="46.99742" lon="-1.04634">
        <ele>123</ele>
        <time>2014-11-09T13:28:00Z</time>
      </trkpt>
      <trkpt lat="46.99768" lon="-1.04868">
        <ele>119</ele>
        <time>2014-11-09T13:28:04Z</time>
      </trkpt>
      <trkpt lat="46.99761" lon="-1.04926">
        <ele>119</ele>
        <time>2014-11-09T13:28:09Z</time>
      </trkpt>
      <trkpt lat="46.99753" lon="-1.04974">
        <ele>118</ele>
        <time>2014-11-09T13:28:13Z</time>
      </trkpt>
      <trkpt lat="46.99752" lon="-1.0502">
        <ele>117</ele>
        <time>2014-11-09T13:28:17Z</time>
      </trkpt>
      <trkpt lat="46.99757" lon="-1.0507">
        <ele>117</ele>
        <time>2014-11-09T13:28:22Z</time>
      </trkpt>
      <trkpt lat="46.99761" lon="-1.05113">
        <ele>118</ele>
        <time>2014-11-09T13:28:26Z</time>
      </trkpt>
      <trkpt lat="46.99771" lon="-1.05154">
        <ele>116</ele>
        <time>2014-11-09T13:28:30Z</time>
      </trkpt>
      <trkpt lat="46.99783" lon="-1.05199">
        <ele>114</ele>
        <time>2014-11-09T13:28:34Z</time>
      </trkpt>
      <trkpt lat="46.9979" lon="-1.05234">
        <ele>113</ele>
        <time>2014-11-09T13:28:37Z</time>
      </trkpt>
      <trkpt lat="46.99802" lon="-1.05279">
        <ele>113</ele>
        <time>2014-11-09T13:28:41Z</time>
      </trkpt>
      <trkpt lat="46.99809" lon="-1.05336">
        <ele>114</ele>
        <time>2014-11-09T13:28:46Z</time>
      </trkpt>
      <trkpt lat="46.99814" lon="-1.05381">
        <ele>114</ele>
        <time>2014-11-09T13:28:50Z</time>
      </trkpt>
      <trkpt lat="46.99813" lon="-1.05439">
        <ele>114</ele>
        <time>2014-11-09T13:28:55Z</time>
      </trkpt>
      <trkpt lat="46.99805" lon="-1.05493">
        <ele>115</ele>
        <time>2014-11-09T13:29:00Z</time>
      </trkpt>
      <trkpt lat="46.99795" lon="-1.05547">
        <ele>114</ele>
        <time>2014-11-09T13:29:05Z</time>
      </trkpt>
      <trkpt lat="46.99778" lon="-1.056">
        <ele>115</ele>
        <time>2014-11-09T13:29:10Z</time>
      </trkpt>
      <trkpt lat="46.99769" lon="-1.05635">
        <ele>115</ele>
        <time>2014-11-09T13:29:14Z</time>
      </trkpt>
      <trkpt lat="46.99757" lon="-1.05681">
        <ele>115</ele>
        <time>2014-11-09T13:29:19Z</time>
      </trkpt>
      <trkpt lat="46.99748" lon="-1.05717">
        <ele>113</ele>
        <time>2014-11-09T13:29:23Z</time>
      </trkpt>
      <trkpt lat="46.99753" lon="-1.05748">
        <ele>111</ele>
        <time>2014-11-09T13:29:27Z</time>
      </trkpt>
      <trkpt lat="46.99774" lon="-1.0579">
        <ele>112</ele>
        <time>2014-11-09T13:29:32Z</time>
      </trkpt>
      <trkpt lat="46.99786" lon="-1.05824">
        <ele>112</ele>
        <time>2014-11-09T13:29:36Z</time>
      </trkpt>
      <trkpt lat="46.99798" lon="-1.05852">
        <ele>105</ele>
        <time>2014-11-09T13:29:39Z</time>
      </trkpt>
      <trkpt lat="46.99817" lon="-1.05897">
        <ele>112</ele>
        <time>2014-11-09T13:29:47Z</time>
      </trkpt>
      <trkpt lat="46.99839" lon="-1.05951">
        <ele>105</ele>
        <time>2014-11-09T13:29:51Z</time>
      </trkpt>
      <trkpt lat="46.99841" lon="-1.05962">
        <ele>104</ele>
        <time>2014-11-09T13:29:57Z</time>
      </trkpt>
      <trkpt lat="46.9987" lon="-1.06037">
        <ele>103</ele>
        <time>2014-11-09T13:30:00Z</time>
      </trkpt>
      <trkpt lat="46.99896" lon="-1.06074">
        <ele>103</ele>
        <time>2014-11-09T13:30:05Z</time>
      </trkpt>
      <trkpt lat="46.99919" lon="-1.06113">
        <ele>102</ele>
        <time>2014-11-09T13:30:09Z</time>
      </trkpt>
      <trkpt lat="46.99922" lon="-1.06124">
        <ele>102</ele>
        <time>2014-11-09T13:30:15Z</time>
      </trkpt>
      <trkpt lat="46.9994" lon="-1.06177">
        <ele>104</ele>
        <time>2014-11-09T13:30:15Z</time>
      </trkpt>
      <trkpt lat="46.99951" lon="-1.06208">
        <ele>104</ele>
        <time>2014-11-09T13:30:21Z</time>
      </trkpt>
      <trkpt lat="46.99985" lon="-1.06273">
        <ele>105</ele>
        <time>2014-11-09T13:30:25Z</time>
      </trkpt>
      <trkpt lat="46.99998" lon="-1.06315">
        <ele>107</ele>
        <time>2014-11-09T13:30:29Z</time>
      </trkpt>
      <trkpt lat="47.00003" lon="-1.06362">
        <ele>103</ele>
        <time>2014-11-09T13:30:33Z</time>
      </trkpt>
      <trkpt lat="47.00006" lon="-1.0641">
        <ele>104</ele>
        <time>2014-11-09T13:30:38Z</time>
      </trkpt>
      <trkpt lat="47.00006" lon="-1.06432">
        <ele>103</ele>
        <time>2014-11-09T13:30:42Z</time>
      </trkpt>
      <trkpt lat="47.00005" lon="-1.06443">
        <ele>91</ele>
        <time>2014-11-09T13:32:20Z</time>
      </trkpt>
      <trkpt lat="46.99999" lon="-1.06458">
        <ele>91</ele>
        <time>2014-11-09T13:32:24Z</time>
      </trkpt>
      <trkpt lat="46.9999" lon="-1.06491">
        <ele>87</ele>
        <time>2014-11-09T13:32:28Z</time>
      </trkpt>
      <trkpt lat="46.99983" lon="-1.06526">
        <ele>86</ele>
        <time>2014-11-09T13:32:32Z</time>
      </trkpt>
      <trkpt lat="46.99965" lon="-1.06573">
        <ele>85</ele>
        <time>2014-11-09T13:32:37Z</time>
      </trkpt>
      <trkpt lat="46.99943" lon="-1.06609">
        <ele>93</ele>
        <time>2014-11-09T13:32:41Z</time>
      </trkpt>
      <trkpt lat="46.99921" lon="-1.06644">
        <ele>91</ele>
        <time>2014-11-09T13:32:45Z</time>
      </trkpt>
      <trkpt lat="46.99916" lon="-1.06654">
        <ele>93</ele>
        <time>2014-11-09T13:32:53Z</time>
      </trkpt>
      <trkpt lat="46.99893" lon="-1.06731">
        <ele>94</ele>
        <time>2014-11-09T13:32:54Z</time>
      </trkpt>
      <trkpt lat="46.99891" lon="-1.06742">
        <ele>94</ele>
        <time>2014-11-09T13:33:00Z</time>
      </trkpt>
      <trkpt lat="46.99887" lon="-1.06821">
        <ele>92</ele>
        <time>2014-11-09T13:33:05Z</time>
      </trkpt>
      <trkpt lat="46.99886" lon="-1.06828">
        <ele>92</ele>
        <time>2014-11-09T13:33:12Z</time>
      </trkpt>
      <trkpt lat="46.99881" lon="-1.06849">
        <ele>92</ele>
        <time>2014-11-09T13:33:12Z</time>
      </trkpt>
      <trkpt lat="46.99874" lon="-1.06849">
        <ele>91</ele>
        <time>2014-11-09T13:33:19Z</time>
      </trkpt>
      <trkpt lat="46.99865" lon="-1.06855">
        <ele>92</ele>
        <time>2014-11-09T13:33:27Z</time>
      </trkpt>
      <trkpt lat="46.99849" lon="-1.0687">
        <ele>89</ele>
        <time>2014-11-09T13:33:28Z</time>
      </trkpt>
      <trkpt lat="46.99847" lon="-1.06874">
        <ele>89</ele>
        <time>2014-11-09T13:33:37Z</time>
      </trkpt>
      <trkpt lat="46.99819" lon="-1.06884">
        <ele>91</ele>
        <time>2014-11-09T13:33:37Z</time>
      </trkpt>
      <trkpt lat="46.99816" lon="-1.06882">
        <ele>91</ele>
        <time>2014-11-09T13:33:43Z</time>
      </trkpt>
      <trkpt lat="46.99772" lon="-1.06862">
        <ele>91</ele>
        <time>2014-11-09T13:33:47Z</time>
      </trkpt>
      <trkpt lat="46.99758" lon="-1.06895">
        <ele>91</ele>
        <time>2014-11-09T13:33:52Z</time>
      </trkpt>
      <trkpt lat="46.99758" lon="-1.0693">
        <ele>91</ele>
        <time>2014-11-09T13:33:56Z</time>
      </trkpt>
      <trkpt lat="46.99765" lon="-1.06974">
        <ele>91</ele>
        <time>2014-11-09T13:34:01Z</time>
      </trkpt>
      <trkpt lat="46.99798" lon="-1.07005">
        <ele>90</ele>
        <time>2014-11-09T13:34:06Z</time>
      </trkpt>
      <trkpt lat="46.99828" lon="-1.07017">
        <ele>88</ele>
        <time>2014-11-09T13:34:10Z</time>
      </trkpt>
      <trkpt lat="46.99861" lon="-1.07029">
        <ele>89</ele>
        <time>2014-11-09T13:34:14Z</time>
      </trkpt>
      <trkpt lat="46.99895" lon="-1.07063">
        <ele>85</ele>
        <time>2014-11-09T13:34:19Z</time>
      </trkpt>
      <trkpt lat="46.99908" lon="-1.07126">
        <ele>84</ele>
        <time>2014-11-09T13:34:24Z</time>
      </trkpt>
      <trkpt lat="46.99912" lon="-1.07185">
        <ele>84</ele>
        <time>2014-11-09T13:34:28Z</time>
      </trkpt>
      <trkpt lat="46.99918" lon="-1.07244">
        <ele>85</ele>
        <time>2014-11-09T13:34:32Z</time>
      </trkpt>
      <trkpt lat="46.99921" lon="-1.0729">
        <ele>83</ele>
        <time>2014-11-09T13:34:35Z</time>
      </trkpt>
      <trkpt lat="46.99915" lon="-1.07351">
        <ele>80</ele>
        <time>2014-11-09T13:34:39Z</time>
      </trkpt>
      <trkpt lat="46.99895" lon="-1.07394">
        <ele>69</ele>
        <time>2014-11-09T13:34:43Z</time>
      </trkpt>
      <trkpt lat="46.99906" lon="-1.07415">
        <ele>62</ele>
        <time>2014-11-09T13:34:48Z</time>
      </trkpt>
      <trkpt lat="46.99935" lon="-1.07425">
        <ele>59</ele>
        <time>2014-11-09T13:34:53Z</time>
      </trkpt>
      <trkpt lat="46.99959" lon="-1.07428">
        <ele>60</ele>
        <time>2014-11-09T13:34:57Z</time>
      </trkpt>
      <trkpt lat="46.99975" lon="-1.07426">
        <ele>62</ele>
        <time>2014-11-09T13:35:01Z</time>
      </trkpt>
      <trkpt lat="46.99989" lon="-1.07419">
        <ele>64</ele>
        <time>2014-11-09T13:35:06Z</time>
      </trkpt>
      <trkpt lat="46.99999" lon="-1.07411">
        <ele>63</ele>
        <time>2014-11-09T13:35:10Z</time>
      </trkpt>
      <trkpt lat="47.00008" lon="-1.07404">
        <ele>66</ele>
        <time>2014-11-09T13:35:15Z</time>
      </trkpt>
      <trkpt lat="47.00016" lon="-1.07401">
        <ele>85</ele>
        <time>2014-11-09T13:35:21Z</time>
      </trkpt>
      <trkpt lat="47.00024" lon="-1.07396">
        <ele>87</ele>
        <time>2014-11-09T13:35:27Z</time>
      </trkpt>
      <trkpt lat="47.00026" lon="-1.07395">
        <ele>86</ele>
        <time>2014-11-09T13:35:38Z</time>
      </trkpt>
      <trkpt lat="47.00051" lon="-1.07376">
        <ele>85</ele>
        <time>2014-11-09T13:35:43Z</time>
      </trkpt>
      <trkpt lat="47.00061" lon="-1.07368">
        <ele>89</ele>
        <time>2014-11-09T13:35:47Z</time>
      </trkpt>
      <trkpt lat="47.00068" lon="-1.07362">
        <ele>87</ele>
        <time>2014-11-09T13:35:52Z</time>
      </trkpt>
      <trkpt lat="47.00078" lon="-1.07354">
        <ele>87</ele>
        <time>2014-11-09T13:35:56Z</time>
      </trkpt>
      <trkpt lat="47.00088" lon="-1.07348">
        <ele>89</ele>
        <time>2014-11-09T13:36:01Z</time>
      </trkpt>
      <trkpt lat="47.00095" lon="-1.07342">
        <ele>92</ele>
        <time>2014-11-09T13:36:05Z</time>
      </trkpt>
      <trkpt lat="47.00105" lon="-1.07337">
        <ele>86</ele>
        <time>2014-11-09T13:36:10Z</time>
      </trkpt>
      <trkpt lat="47.00111" lon="-1.07333">
        <ele>88</ele>
        <time>2014-11-09T13:36:15Z</time>
      </trkpt>
      <trkpt lat="47.00119" lon="-1.07328">
        <ele>75</ele>
        <time>2014-11-09T13:36:18Z</time>
      </trkpt>
      <trkpt lat="47.00128" lon="-1.07328">
        <ele>72</ele>
        <time>2014-11-09T13:36:24Z</time>
      </trkpt>
      <trkpt lat="47.00126" lon="-1.0734">
        <ele>80</ele>
        <time>2014-11-09T13:36:30Z</time>
      </trkpt>
      <trkpt lat="47.00119" lon="-1.07351">
        <ele>80</ele>
        <time>2014-11-09T13:36:35Z</time>
      </trkpt>
      <trkpt lat="47.00113" lon="-1.07362">
        <ele>80</ele>
        <time>2014-11-09T13:36:39Z</time>
      </trkpt>
      <trkpt lat="47.00109" lon="-1.07374">
        <ele>80</ele>
        <time>2014-11-09T13:36:43Z</time>
      </trkpt>
      <trkpt lat="47.00101" lon="-1.07391">
        <ele>80</ele>
        <time>2014-11-09T13:36:48Z</time>
      </trkpt>
      <trkpt lat="47.00098" lon="-1.07407">
        <ele>80</ele>
        <time>2014-11-09T13:36:52Z</time>
      </trkpt>
      <trkpt lat="47.001" lon="-1.07395">
        <ele>76</ele>
        <time>2014-11-09T13:38:20Z</time>
      </trkpt>
      <trkpt lat="47.00098" lon="-1.07385">
        <ele>77</ele>
        <time>2014-11-09T13:38:23Z</time>
      </trkpt>
      <trkpt lat="47.00097" lon="-1.07382">
        <ele>76</ele>
        <time>2014-11-09T13:38:28Z</time>
      </trkpt>
      <trkpt lat="47.00088" lon="-1.07369">
        <ele>75</ele>
        <time>2014-11-09T13:38:30Z</time>
      </trkpt>
      <trkpt lat="47.00087" lon="-1.07356">
        <ele>76</ele>
        <time>2014-11-09T13:38:35Z</time>
      </trkpt>
      <trkpt lat="47.0009" lon="-1.07369">
        <ele>75</ele>
        <time>2014-11-09T13:40:12Z</time>
      </trkpt>
      <trkpt lat="47.00096" lon="-1.07379">
        <ele>77</ele>
        <time>2014-11-09T13:40:20Z</time>
      </trkpt>
      <trkpt lat="47.00094" lon="-1.07389">
        <ele>78</ele>
        <time>2014-11-09T13:41:08Z</time>
      </trkpt>
      <trkpt lat="47.00094" lon="-1.07389">
        <ele>78</ele>
        <time>2014-11-09T13:41:09Z</time>
      </trkpt>
    </trkseg>
  </trk>
</gpx>